<?xml version="1.0" encoding="UTF-8" standalone="no" ?>
<gpx xmlns="http://www.topografix.com/GPX/1/1" xmlns:xsi="http://www.w3.org/2001/XMLSchema-instance" xsi:schemaLocation="http://www.topografix.com/GPX/1/1 http://www.topografix.com/GPX/1/1/gpx.xsd" version="1.1" creator="VisuGPX - https://www.visugpx.com">
  <metadata>
    <name>Rallye Jules Verne 2013</name>
    <desc><![CDATA[Rallye du Lycée Jules Verne organisé par l\'amicale en Juin 2013.
Belle découverte de Poissy !!!]]></desc>
  </metadata>
  <trk>
    <name><![CDATA[Rallye-Lycée Jules Vernes 001]]></name>
    <trkseg>
      <trkpt lat="49.05174" lon="2.01008">
        <ele>109.19999694824</ele>
        <time>2013-05-25T12:01:05Z</time>
      </trkpt>
      <trkpt lat="49.05206" lon="2.00942">
        <ele>117.578125</ele>
      </trkpt>
      <trkpt lat="49.05161" lon="2.00878">
        <ele>117</ele>
      </trkpt>
      <trkpt lat="49.05087" lon="2.0077">
        <ele>117.62890625</ele>
      </trkpt>
      <trkpt lat="49.05173" lon="2.00663">
        <ele>117.890625</ele>
      </trkpt>
      <trkpt lat="49.05205" lon="2.00543">
        <ele>116.984375</ele>
      </trkpt>
      <trkpt lat="49.05325" lon="2.00351">
        <ele>114.51953125</ele>
      </trkpt>
      <trkpt lat="49.0535" lon="2.00343">
        <ele>114.3359375</ele>
      </trkpt>
      <trkpt lat="49.05374" lon="2.00257">
        <ele>112.8125</ele>
      </trkpt>
      <trkpt lat="49.05267" lon="2.0016">
        <ele>112.44921875</ele>
      </trkpt>
      <trkpt lat="49.05183" lon="2.00025">
        <ele>113.03125</ele>
      </trkpt>
      <trkpt lat="49.05037" lon="1.9979">
        <ele>114</ele>
      </trkpt>
      <trkpt lat="49.04946" lon="1.99656">
        <ele>115.1796875</ele>
      </trkpt>
      <trkpt lat="49.04942" lon="1.99529">
        <ele>116.07421875</ele>
      </trkpt>
      <trkpt lat="49.04724" lon="1.99134">
        <ele>117</ele>
      </trkpt>
      <trkpt lat="49.04648" lon="1.98953">
        <ele>118</ele>
      </trkpt>
      <trkpt lat="49.04585" lon="1.98848">
        <ele>118.3671875</ele>
      </trkpt>
      <trkpt lat="49.04444" lon="1.98947">
        <ele>119</ele>
      </trkpt>
      <trkpt lat="49.03818" lon="1.99533">
        <ele>125.67578125</ele>
      </trkpt>
      <trkpt lat="49.03711" lon="1.995">
        <ele>126.484375</ele>
      </trkpt>
      <trkpt lat="49.03463" lon="1.99286">
        <ele>116.26953125</ele>
      </trkpt>
      <trkpt lat="49.03403" lon="1.99255">
        <ele>115.7734375</ele>
      </trkpt>
      <trkpt lat="49.03283" lon="1.99356">
        <ele>117.140625</ele>
      </trkpt>
      <trkpt lat="49.03126" lon="1.99475">
        <ele>117.5703125</ele>
      </trkpt>
      <trkpt lat="49.03049" lon="1.99566">
        <ele>119.59375</ele>
      </trkpt>
      <trkpt lat="49.02991" lon="1.99698">
        <ele>122.35546875</ele>
      </trkpt>
      <trkpt lat="49.02944" lon="1.99792">
        <ele>127.01953125</ele>
      </trkpt>
      <trkpt lat="49.02924" lon="1.99844">
        <ele>132.36328125</ele>
      </trkpt>
      <trkpt lat="49.02892" lon="1.99882">
        <ele>136.99609375</ele>
      </trkpt>
      <trkpt lat="49.02876" lon="1.99889">
        <ele>137.1328125</ele>
      </trkpt>
      <trkpt lat="49.02745" lon="1.99901">
        <ele>142.0859375</ele>
      </trkpt>
      <trkpt lat="49.02559" lon="1.99919">
        <ele>146.66015625</ele>
      </trkpt>
      <trkpt lat="49.02397" lon="1.99936">
        <ele>156.34765625</ele>
      </trkpt>
      <trkpt lat="49.02379" lon="2.00079">
        <ele>153.70703125</ele>
      </trkpt>
      <trkpt lat="49.02252" lon="2.00079">
        <ele>150.99609375</ele>
      </trkpt>
      <trkpt lat="49.02059" lon="2.00074">
        <ele>154.5390625</ele>
      </trkpt>
      <trkpt lat="49.01989" lon="2.00093">
        <ele>109.80000305176</ele>
        <time>2013-05-25T12:01:06Z</time>
      </trkpt>
      <trkpt lat="49.01989" lon="2.00097">
        <ele>109.59999847412</ele>
        <time>2013-05-25T12:01:07Z</time>
      </trkpt>
      <trkpt lat="49.01989" lon="2.00103">
        <ele>107.80000305176</ele>
        <time>2013-05-25T12:02:23Z</time>
      </trkpt>
      <trkpt lat="49.01989" lon="2.00097">
        <ele>109.40000152588</ele>
        <time>2013-05-25T12:02:30Z</time>
      </trkpt>
      <trkpt lat="49.01987" lon="2.00089">
        <ele>153.109375</ele>
      </trkpt>
      <trkpt lat="49.0198" lon="2.00084">
        <ele>110.19999694824</ele>
        <time>2013-05-25T12:02:36Z</time>
      </trkpt>
      <trkpt lat="49.01967" lon="2.00075">
        <ele>109.80000305176</ele>
        <time>2013-05-25T12:02:47Z</time>
      </trkpt>
      <trkpt lat="49.01965" lon="2.0007">
        <ele>112</ele>
        <time>2013-05-25T12:03:01Z</time>
      </trkpt>
      <trkpt lat="49.01965" lon="2.00069">
        <ele>110.59999847412</ele>
        <time>2013-05-25T12:03:02Z</time>
      </trkpt>
      <trkpt lat="49.01966" lon="2.00067">
        <ele>110.59999847412</ele>
        <time>2013-05-25T12:03:03Z</time>
      </trkpt>
      <trkpt lat="49.01965" lon="2.00064">
        <ele>113</ele>
        <time>2013-05-25T12:03:05Z</time>
      </trkpt>
      <trkpt lat="49.01964" lon="2.00063">
        <ele>112</ele>
        <time>2013-05-25T12:03:06Z</time>
      </trkpt>
      <trkpt lat="49.01961" lon="2.0006">
        <ele>112.59999847412</ele>
        <time>2013-05-25T12:03:10Z</time>
      </trkpt>
      <trkpt lat="49.01958" lon="2.00058">
        <ele>112</ele>
        <time>2013-05-25T12:03:14Z</time>
      </trkpt>
      <trkpt lat="49.01958" lon="2.00056">
        <ele>112</ele>
        <time>2013-05-25T12:03:16Z</time>
      </trkpt>
      <trkpt lat="49.0197" lon="2.0006">
        <ele>112.59999847412</ele>
        <time>2013-05-25T12:03:22Z</time>
      </trkpt>
      <trkpt lat="49.01972" lon="2.00063">
        <ele>112.40000152588</ele>
        <time>2013-05-25T12:03:23Z</time>
      </trkpt>
      <trkpt lat="49.01981" lon="2.00089">
        <ele>109.19999694824</ele>
        <time>2013-05-25T12:03:36Z</time>
      </trkpt>
      <trkpt lat="49.01981" lon="2.0009">
        <ele>110</ele>
        <time>2013-05-25T12:03:44Z</time>
      </trkpt>
      <trkpt lat="49.01983" lon="2.00088">
        <ele>109.59999847412</ele>
        <time>2013-05-25T12:03:47Z</time>
      </trkpt>
      <trkpt lat="49.01985" lon="2.00086">
        <ele>109.59999847412</ele>
        <time>2013-05-25T12:03:50Z</time>
      </trkpt>
      <trkpt lat="49.02005" lon="2.00086">
        <ele>107</ele>
        <time>2013-05-25T12:05:39Z</time>
      </trkpt>
      <trkpt lat="49.02035" lon="2.00077">
        <ele>107</ele>
        <time>2013-05-25T12:05:40Z</time>
      </trkpt>
      <trkpt lat="49.02381" lon="2.00085">
        <ele>151.21484375</ele>
      </trkpt>
      <trkpt lat="49.02374" lon="1.99932">
        <ele>154.59375</ele>
      </trkpt>
      <trkpt lat="49.02333" lon="1.99937">
        <ele>151.26171875</ele>
      </trkpt>
      <trkpt lat="49.02095" lon="1.99858">
        <ele>171.9921875</ele>
      </trkpt>
      <trkpt lat="49.01961" lon="1.99723">
        <ele>186.3125</ele>
      </trkpt>
      <trkpt lat="49.01817" lon="1.99726">
        <ele>187.83203125</ele>
      </trkpt>
      <trkpt lat="49.01667" lon="1.99815">
        <ele>185.796875</ele>
      </trkpt>
      <trkpt lat="49.01234" lon="2.00245">
        <ele>181.33984375</ele>
      </trkpt>
      <trkpt lat="49.00994" lon="2.00473">
        <ele>133.60000610352</ele>
        <time>2013-05-25T12:10:24Z</time>
      </trkpt>
      <trkpt lat="49.00437" lon="2.01014">
        <ele>177.71484375</ele>
      </trkpt>
      <trkpt lat="49.00345" lon="2.01102">
        <ele>176.77734375</ele>
      </trkpt>
      <trkpt lat="49.00279" lon="2.01159">
        <ele>133</ele>
        <time>2013-05-25T12:10:25Z</time>
      </trkpt>
      <trkpt lat="49.00222" lon="2.01122">
        <ele>139.19999694824</ele>
        <time>2013-05-25T12:11:18Z</time>
      </trkpt>
      <trkpt lat="48.99947" lon="2.00952">
        <ele>138.80000305176</ele>
        <time>2013-05-25T12:11:21Z</time>
      </trkpt>
      <trkpt lat="48.99815" lon="2.00873">
        <ele>138</ele>
        <time>2013-05-25T12:11:23Z</time>
      </trkpt>
      <trkpt lat="48.99647" lon="2.007">
        <ele>159.74609375</ele>
      </trkpt>
      <trkpt lat="48.9956" lon="2.00611">
        <ele>149.3125</ele>
      </trkpt>
      <trkpt lat="48.99493" lon="2.00581">
        <ele>143.53515625</ele>
      </trkpt>
      <trkpt lat="48.99441" lon="2.0058">
        <ele>139.18359375</ele>
      </trkpt>
      <trkpt lat="48.99395" lon="2.00596">
        <ele>135.38671875</ele>
      </trkpt>
      <trkpt lat="48.99309" lon="2.00659">
        <ele>131.0625</ele>
      </trkpt>
      <trkpt lat="48.99259" lon="2.00678">
        <ele>125.5859375</ele>
      </trkpt>
      <trkpt lat="48.9919" lon="2.00795">
        <ele>122.71484375</ele>
      </trkpt>
      <trkpt lat="48.99147" lon="2.00788">
        <ele>119.33984375</ele>
      </trkpt>
      <trkpt lat="48.99129" lon="2.00759">
        <ele>112.8359375</ele>
      </trkpt>
      <trkpt lat="48.99152" lon="2.00637">
        <ele>109.4375</ele>
      </trkpt>
      <trkpt lat="48.99154" lon="2.00553">
        <ele>105.3046875</ele>
      </trkpt>
      <trkpt lat="48.99067" lon="2.00514">
        <ele>99.7578125</ele>
      </trkpt>
      <trkpt lat="48.98986" lon="2.00498">
        <ele>94.109375</ele>
      </trkpt>
      <trkpt lat="48.98927" lon="2.00501">
        <ele>90.91796875</ele>
      </trkpt>
      <trkpt lat="48.9888" lon="2.00524">
        <ele>41.599998474121</ele>
        <time>2013-05-25T12:13:26Z</time>
      </trkpt>
      <trkpt lat="48.98778" lon="2.00592">
        <ele>40.599998474121</ele>
        <time>2013-05-25T12:13:28Z</time>
      </trkpt>
      <trkpt lat="48.9874" lon="2.00622">
        <ele>37.400001525879</ele>
        <time>2013-05-25T12:13:31Z</time>
      </trkpt>
      <trkpt lat="48.98656" lon="2.00608">
        <ele>34.200000762939</ele>
        <time>2013-05-25T12:13:36Z</time>
      </trkpt>
      <trkpt lat="48.98638" lon="2.00591">
        <ele>33.599998474121</ele>
        <time>2013-05-25T12:13:37Z</time>
      </trkpt>
      <trkpt lat="48.98625" lon="2.00579">
        <ele>32.799999237061</ele>
        <time>2013-05-25T12:13:38Z</time>
      </trkpt>
      <trkpt lat="48.98569" lon="2.00507">
        <ele>29.799999237061</ele>
        <time>2013-05-25T12:13:41Z</time>
      </trkpt>
      <trkpt lat="48.9851" lon="2.00487">
        <ele>26</ele>
        <time>2013-05-25T12:13:45Z</time>
      </trkpt>
      <trkpt lat="48.98465" lon="2.00489">
        <ele>25.60000038147</ele>
        <time>2013-05-25T12:13:46Z</time>
      </trkpt>
      <trkpt lat="48.98344" lon="2.00491">
        <ele>23.200000762939</ele>
        <time>2013-05-25T12:13:49Z</time>
      </trkpt>
      <trkpt lat="48.98292" lon="2.00418">
        <ele>19.799999237061</ele>
        <time>2013-05-25T12:13:53Z</time>
      </trkpt>
      <trkpt lat="48.98279" lon="2.00389">
        <ele>19.200000762939</ele>
        <time>2013-05-25T12:13:54Z</time>
      </trkpt>
      <trkpt lat="48.98153" lon="2.00363">
        <ele>16.60000038147</ele>
        <time>2013-05-25T12:13:59Z</time>
      </trkpt>
      <trkpt lat="48.98135" lon="2.00367">
        <ele>15.199999809265</ele>
        <time>2013-05-25T12:14:00Z</time>
      </trkpt>
      <trkpt lat="48.98091" lon="2.00335">
        <ele>11.800000190735</ele>
        <time>2013-05-25T12:14:03Z</time>
      </trkpt>
      <trkpt lat="48.97947" lon="2.00397">
        <ele>-20.39999961853</ele>
        <time>2013-05-25T12:16:36Z</time>
      </trkpt>
      <trkpt lat="48.97917" lon="2.00405">
        <ele>-18</ele>
        <time>2013-05-25T12:16:52Z</time>
      </trkpt>
      <trkpt lat="48.97901" lon="2.00412">
        <ele>-19.200000762939</ele>
        <time>2013-05-25T12:16:55Z</time>
      </trkpt>
      <trkpt lat="48.97743" lon="2.00529">
        <ele>-18.60000038147</ele>
        <time>2013-05-25T12:17:15Z</time>
      </trkpt>
      <trkpt lat="48.97683" lon="2.00585">
        <ele>-15.60000038147</ele>
        <time>2013-05-25T12:17:23Z</time>
      </trkpt>
      <trkpt lat="48.97551" lon="2.00675">
        <ele>-15.800000190735</ele>
        <time>2013-05-25T12:17:37Z</time>
      </trkpt>
      <trkpt lat="48.97475" lon="2.00692">
        <ele>-15.199999809265</ele>
        <time>2013-05-25T12:17:46Z</time>
      </trkpt>
      <trkpt lat="48.97433" lon="2.00699">
        <ele>-14.800000190735</ele>
        <time>2013-05-25T12:17:50Z</time>
      </trkpt>
      <trkpt lat="48.97405" lon="2.00701">
        <ele>-14.39999961853</ele>
        <time>2013-05-25T12:17:52Z</time>
      </trkpt>
      <trkpt lat="48.97373" lon="2.00711">
        <ele>-14.199999809265</ele>
        <time>2013-05-25T12:17:55Z</time>
      </trkpt>
      <trkpt lat="48.97254" lon="2.00765">
        <ele>-15.800000190735</ele>
        <time>2013-05-25T12:18:05Z</time>
      </trkpt>
      <trkpt lat="48.97054" lon="2.0091">
        <ele>-16</ele>
        <time>2013-05-25T12:18:22Z</time>
      </trkpt>
      <trkpt lat="48.96981" lon="2.00965">
        <ele>-17</ele>
        <time>2013-05-25T12:18:29Z</time>
      </trkpt>
      <trkpt lat="48.96808" lon="2.01091">
        <ele>-16.39999961853</ele>
        <time>2013-05-25T12:18:46Z</time>
      </trkpt>
      <trkpt lat="48.9656" lon="2.01268">
        <ele>-15.39999961853</ele>
        <time>2013-05-25T12:19:06Z</time>
      </trkpt>
      <trkpt lat="48.96551" lon="2.01274">
        <ele>-16</ele>
        <time>2013-05-25T12:19:07Z</time>
      </trkpt>
      <trkpt lat="48.96519" lon="2.01281">
        <ele>-18.200000762939</ele>
        <time>2013-05-25T12:19:11Z</time>
      </trkpt>
      <trkpt lat="48.96506" lon="2.0128">
        <ele>-18.799999237061</ele>
        <time>2013-05-25T12:19:13Z</time>
      </trkpt>
      <trkpt lat="48.96469" lon="2.01316">
        <ele>-16.799999237061</ele>
        <time>2013-05-25T12:19:19Z</time>
      </trkpt>
      <trkpt lat="48.96463" lon="2.01326">
        <ele>-16.60000038147</ele>
        <time>2013-05-25T12:19:20Z</time>
      </trkpt>
      <trkpt lat="48.96429" lon="2.01362">
        <ele>-14.39999961853</ele>
        <time>2013-05-25T12:19:24Z</time>
      </trkpt>
      <trkpt lat="48.9637" lon="2.01406">
        <ele>-11</ele>
        <time>2013-05-25T12:19:28Z</time>
      </trkpt>
      <trkpt lat="48.96334" lon="2.01432">
        <ele>-10.199999809265</ele>
        <time>2013-05-25T12:19:30Z</time>
      </trkpt>
      <trkpt lat="48.96175" lon="2.01547">
        <ele>-7.8000001907349</ele>
        <time>2013-05-25T12:19:38Z</time>
      </trkpt>
      <trkpt lat="48.96042" lon="2.01641">
        <ele>-11</ele>
        <time>2013-05-25T12:19:46Z</time>
      </trkpt>
      <trkpt lat="48.95704" lon="2.01887">
        <ele>-12.199999809265</ele>
        <time>2013-05-25T12:20:09Z</time>
      </trkpt>
      <trkpt lat="48.95511" lon="2.02028">
        <ele>-14</ele>
        <time>2013-05-25T12:20:25Z</time>
      </trkpt>
      <trkpt lat="48.95461" lon="2.02039">
        <ele>-15</ele>
        <time>2013-05-25T12:20:30Z</time>
      </trkpt>
      <trkpt lat="48.95453" lon="2.02039">
        <ele>-15.39999961853</ele>
        <time>2013-05-25T12:20:31Z</time>
      </trkpt>
      <trkpt lat="48.95416" lon="2.0207">
        <ele>-15.39999961853</ele>
        <time>2013-05-25T12:20:37Z</time>
      </trkpt>
      <trkpt lat="48.95251" lon="2.02222">
        <ele>-13.199999809265</ele>
        <time>2013-05-25T12:20:51Z</time>
      </trkpt>
      <trkpt lat="48.9518" lon="2.02272">
        <ele>-11.39999961853</ele>
        <time>2013-05-25T12:20:55Z</time>
      </trkpt>
      <trkpt lat="48.9491" lon="2.02466">
        <ele>-14.39999961853</ele>
        <time>2013-05-25T12:21:14Z</time>
      </trkpt>
      <trkpt lat="48.94885" lon="2.02482">
        <ele>-15.199999809265</ele>
        <time>2013-05-25T12:21:17Z</time>
      </trkpt>
      <trkpt lat="48.94856" lon="2.02488">
        <ele>-16</ele>
        <time>2013-05-25T12:21:21Z</time>
      </trkpt>
      <trkpt lat="48.94766" lon="2.02582">
        <ele>-13.800000190735</ele>
        <time>2013-05-25T12:21:33Z</time>
      </trkpt>
      <trkpt lat="48.94521" lon="2.0276">
        <ele>-13.39999961853</ele>
        <time>2013-05-25T12:21:55Z</time>
      </trkpt>
      <trkpt lat="48.94277" lon="2.03043">
        <ele>-16.39999961853</ele>
        <time>2013-05-25T12:22:19Z</time>
      </trkpt>
      <trkpt lat="48.94226" lon="2.03111">
        <ele>-19.39999961853</ele>
        <time>2013-05-25T12:22:26Z</time>
      </trkpt>
      <trkpt lat="48.94177" lon="2.0317">
        <ele>-21</ele>
        <time>2013-05-25T12:22:35Z</time>
      </trkpt>
      <trkpt lat="48.9416" lon="2.03176">
        <ele>-22.200000762939</ele>
        <time>2013-05-25T12:22:40Z</time>
      </trkpt>
      <trkpt lat="48.94154" lon="2.03171">
        <ele>-21.799999237061</ele>
        <time>2013-05-25T12:22:49Z</time>
      </trkpt>
      <trkpt lat="48.94157" lon="2.0317">
        <ele>-22.799999237061</ele>
        <time>2013-05-25T12:22:54Z</time>
      </trkpt>
      <trkpt lat="48.94161" lon="2.03171">
        <ele>-22.60000038147</ele>
        <time>2013-05-25T12:23:37Z</time>
      </trkpt>
      <trkpt lat="48.94162" lon="2.03182">
        <ele>-22.799999237061</ele>
        <time>2013-05-25T12:23:41Z</time>
      </trkpt>
      <trkpt lat="48.9416" lon="2.03188">
        <ele>-22.799999237061</ele>
        <time>2013-05-25T12:23:42Z</time>
      </trkpt>
      <trkpt lat="48.94047" lon="2.03359">
        <ele>-20.39999961853</ele>
        <time>2013-05-25T12:23:57Z</time>
      </trkpt>
      <trkpt lat="48.94036" lon="2.03373">
        <ele>-20.200000762939</ele>
        <time>2013-05-25T12:23:58Z</time>
      </trkpt>
      <trkpt lat="48.93992" lon="2.03423">
        <ele>-22</ele>
        <time>2013-05-25T12:24:02Z</time>
      </trkpt>
      <trkpt lat="48.93923" lon="2.03499">
        <ele>-23.200000762939</ele>
        <time>2013-05-25T12:24:11Z</time>
      </trkpt>
      <trkpt lat="48.93883" lon="2.03542">
        <ele>-23</ele>
        <time>2013-05-25T12:24:28Z</time>
      </trkpt>
      <trkpt lat="48.93883" lon="2.03544">
        <ele>-23</ele>
        <time>2013-05-25T12:24:38Z</time>
      </trkpt>
      <trkpt lat="48.93814" lon="2.03661">
        <ele>-20</ele>
        <time>2013-05-25T12:24:51Z</time>
      </trkpt>
      <trkpt lat="48.93781" lon="2.03721">
        <ele>-16.799999237061</ele>
        <time>2013-05-25T12:24:55Z</time>
      </trkpt>
      <trkpt lat="48.93725" lon="2.03803">
        <ele>-13.199999809265</ele>
        <time>2013-05-25T12:25:00Z</time>
      </trkpt>
      <trkpt lat="48.93701" lon="2.03837">
        <ele>-12.39999961853</ele>
        <time>2013-05-25T12:25:02Z</time>
      </trkpt>
      <trkpt lat="48.93641" lon="2.03919">
        <ele>-10.199999809265</ele>
        <time>2013-05-25T12:25:07Z</time>
      </trkpt>
      <trkpt lat="48.93501" lon="2.04111">
        <ele>-13.60000038147</ele>
        <time>2013-05-25T12:25:18Z</time>
      </trkpt>
      <trkpt lat="48.93475" lon="2.04139">
        <ele>-17.39999961853</ele>
        <time>2013-05-25T12:25:20Z</time>
      </trkpt>
      <trkpt lat="48.93452" lon="2.04156">
        <ele>-20.39999961853</ele>
        <time>2013-05-25T12:25:22Z</time>
      </trkpt>
      <trkpt lat="48.93443" lon="2.04162">
        <ele>-21.39999961853</ele>
        <time>2013-05-25T12:25:23Z</time>
      </trkpt>
      <trkpt lat="48.93424" lon="2.04165">
        <ele>-23</ele>
        <time>2013-05-25T12:25:26Z</time>
      </trkpt>
      <trkpt lat="48.93418" lon="2.04163">
        <ele>-23.200000762939</ele>
        <time>2013-05-25T12:25:27Z</time>
      </trkpt>
      <trkpt lat="48.93411" lon="2.04162">
        <ele>-23.200000762939</ele>
        <time>2013-05-25T12:25:28Z</time>
      </trkpt>
      <trkpt lat="48.93396" lon="2.0403">
        <ele>-24</ele>
        <time>2013-05-25T12:25:46Z</time>
      </trkpt>
      <trkpt lat="48.93429" lon="2.03888">
        <ele>-26</ele>
        <time>2013-05-25T12:26:06Z</time>
      </trkpt>
      <trkpt lat="48.93423" lon="2.03887">
        <ele>-25.60000038147</ele>
        <time>2013-05-25T12:26:08Z</time>
      </trkpt>
      <trkpt lat="48.9341" lon="2.03891">
        <ele>-25.799999237061</ele>
        <time>2013-05-25T12:26:10Z</time>
      </trkpt>
      <trkpt lat="48.9339" lon="2.03895">
        <ele>-25.799999237061</ele>
        <time>2013-05-25T12:26:13Z</time>
      </trkpt>
      <trkpt lat="48.93337" lon="2.03887">
        <ele>-25.200000762939</ele>
        <time>2013-05-25T12:26:19Z</time>
      </trkpt>
      <trkpt lat="48.93307" lon="2.03869">
        <ele>-24.60000038147</ele>
        <time>2013-05-25T12:26:23Z</time>
      </trkpt>
      <trkpt lat="48.93284" lon="2.03852">
        <ele>-24</ele>
        <time>2013-05-25T12:26:26Z</time>
      </trkpt>
      <trkpt lat="48.93097" lon="2.03866">
        <ele>-23.200000762939</ele>
        <time>2013-05-25T12:26:45Z</time>
      </trkpt>
      <trkpt lat="48.93051" lon="2.03864">
        <ele>-22.799999237061</ele>
        <time>2013-05-25T12:26:51Z</time>
      </trkpt>
      <trkpt lat="48.93005" lon="2.03821">
        <ele>-21.799999237061</ele>
        <time>2013-05-25T12:26:57Z</time>
      </trkpt>
      <trkpt lat="48.92993" lon="2.03803">
        <ele>-22.39999961853</ele>
        <time>2013-05-25T12:26:59Z</time>
      </trkpt>
      <trkpt lat="48.92985" lon="2.03728">
        <ele>-20.799999237061</ele>
        <time>2013-05-25T12:27:04Z</time>
      </trkpt>
      <trkpt lat="48.92987" lon="2.03686">
        <ele>-20.200000762939</ele>
        <time>2013-05-25T12:27:06Z</time>
      </trkpt>
      <trkpt lat="48.92983" lon="2.0358">
        <ele>-21.39999961853</ele>
        <time>2013-05-25T12:27:09Z</time>
      </trkpt>
      <trkpt lat="48.92978" lon="2.03479">
        <ele>-22.60000038147</ele>
        <time>2013-05-25T12:27:15Z</time>
      </trkpt>
      <trkpt lat="48.92973" lon="2.03441">
        <ele>-21.60000038147</ele>
        <time>2013-05-25T12:27:17Z</time>
      </trkpt>
      <trkpt lat="48.92922" lon="2.0328">
        <ele>-24.799999237061</ele>
        <time>2013-05-25T12:27:27Z</time>
      </trkpt>
      <trkpt lat="48.92889" lon="2.03209">
        <ele>-25</ele>
        <time>2013-05-25T12:27:34Z</time>
      </trkpt>
      <trkpt lat="48.92877" lon="2.03197">
        <ele>-25.200000762939</ele>
        <time>2013-05-25T12:27:37Z</time>
      </trkpt>
      <trkpt lat="48.92897" lon="2.03192">
        <ele>-24.799999237061</ele>
        <time>2013-05-25T12:27:44Z</time>
      </trkpt>
      <trkpt lat="48.92902" lon="2.03199">
        <ele>-23.799999237061</ele>
        <time>2013-05-25T12:27:46Z</time>
      </trkpt>
      <trkpt lat="48.92909" lon="2.0321">
        <ele>-25.60000038147</ele>
        <time>2013-05-25T12:27:48Z</time>
      </trkpt>
      <trkpt lat="48.92916" lon="2.0322">
        <ele>-26.39999961853</ele>
        <time>2013-05-25T12:27:52Z</time>
      </trkpt>
      <trkpt lat="48.92919" lon="2.03227">
        <ele>-26.60000038147</ele>
        <time>2013-05-25T12:28:14Z</time>
      </trkpt>
      <trkpt lat="48.92919" lon="2.03226">
        <ele>-25.799999237061</ele>
        <time>2013-05-25T12:28:19Z</time>
      </trkpt>
      <trkpt lat="48.92919" lon="2.03222">
        <ele>-26.39999961853</ele>
        <time>2013-05-25T12:28:21Z</time>
      </trkpt>
      <trkpt lat="48.92918" lon="2.03221">
        <ele>-27.60000038147</ele>
        <time>2013-05-25T12:28:39Z</time>
      </trkpt>
      <trkpt lat="48.92918" lon="2.03224">
        <ele>-26.200000762939</ele>
        <time>2013-05-25T12:28:44Z</time>
      </trkpt>
      <trkpt lat="48.92937" lon="2.03229">
        <ele>-26</ele>
        <time>2013-05-25T12:29:07Z</time>
      </trkpt>
      <trkpt lat="48.92937" lon="2.03229">
        <ele>-26.60000038147</ele>
        <time>2013-05-25T12:29:08Z</time>
      </trkpt>
      <trkpt lat="48.92927" lon="2.03237">
        <ele>-27</ele>
        <time>2013-05-25T12:29:25Z</time>
      </trkpt>
      <trkpt lat="48.92931" lon="2.03234">
        <ele>-27.799999237061</ele>
        <time>2013-05-25T12:30:03Z</time>
      </trkpt>
      <trkpt lat="48.92931" lon="2.03234">
        <ele>-29.200000762939</ele>
        <time>2013-05-25T12:30:09Z</time>
      </trkpt>
      <trkpt lat="48.92931" lon="2.03234">
        <ele>-26</ele>
        <time>2013-05-25T12:30:12Z</time>
      </trkpt>
      <trkpt lat="48.92931" lon="2.03234">
        <ele>-29.200000762939</ele>
        <time>2013-05-25T12:30:14Z</time>
      </trkpt>
      <trkpt lat="48.92931" lon="2.03234">
        <ele>-29.200000762939</ele>
        <time>2013-05-25T12:30:15Z</time>
      </trkpt>
      <trkpt lat="48.92932" lon="2.03235">
        <ele>-27.799999237061</ele>
        <time>2013-05-25T12:30:21Z</time>
      </trkpt>
      <trkpt lat="48.9294" lon="2.0323">
        <ele>-27.799999237061</ele>
        <time>2013-05-25T12:30:34Z</time>
      </trkpt>
      <trkpt lat="48.92935" lon="2.03234">
        <ele>-28.799999237061</ele>
        <time>2013-05-25T12:30:56Z</time>
      </trkpt>
      <trkpt lat="48.92917" lon="2.0322">
        <ele>-28.799999237061</ele>
        <time>2013-05-25T12:31:16Z</time>
      </trkpt>
      <trkpt lat="48.92918" lon="2.03217">
        <ele>-28.60000038147</ele>
        <time>2013-05-25T12:31:40Z</time>
      </trkpt>
      <trkpt lat="48.92918" lon="2.03217">
        <ele>-29.200000762939</ele>
        <time>2013-05-25T12:32:01Z</time>
      </trkpt>
      <trkpt lat="48.92918" lon="2.03217">
        <ele>-34</ele>
        <time>2013-05-25T12:33:06Z</time>
      </trkpt>
      <trkpt lat="48.92918" lon="2.03217">
        <ele>-30</ele>
        <time>2013-05-25T12:33:08Z</time>
      </trkpt>
      <trkpt lat="48.92918" lon="2.03217">
        <ele>-24.39999961853</ele>
        <time>2013-05-25T12:33:09Z</time>
      </trkpt>
      <trkpt lat="48.92918" lon="2.03217">
        <ele>-25.200000762939</ele>
        <time>2013-05-25T12:33:10Z</time>
      </trkpt>
      <trkpt lat="48.92918" lon="2.03217">
        <ele>-33.200000762939</ele>
        <time>2013-05-25T12:33:11Z</time>
      </trkpt>
      <trkpt lat="48.92919" lon="2.03216">
        <ele>-28</ele>
        <time>2013-05-25T12:33:14Z</time>
      </trkpt>
      <trkpt lat="48.92919" lon="2.03216">
        <ele>-29</ele>
        <time>2013-05-25T12:33:15Z</time>
      </trkpt>
      <trkpt lat="48.92919" lon="2.03216">
        <ele>-28</ele>
        <time>2013-05-25T12:33:31Z</time>
      </trkpt>
      <trkpt lat="48.92917" lon="2.03217">
        <ele>-30.60000038147</ele>
        <time>2013-05-25T12:33:34Z</time>
      </trkpt>
      <trkpt lat="48.92915" lon="2.03216">
        <ele>-28.60000038147</ele>
        <time>2013-05-25T12:33:37Z</time>
      </trkpt>
      <trkpt lat="48.92909" lon="2.03215">
        <ele>-28.200000762939</ele>
        <time>2013-05-25T12:33:57Z</time>
      </trkpt>
      <trkpt lat="48.92909" lon="2.03214">
        <ele>-28.60000038147</ele>
        <time>2013-05-25T12:33:59Z</time>
      </trkpt>
      <trkpt lat="48.929" lon="2.03206">
        <ele>-28.200000762939</ele>
        <time>2013-05-25T12:34:09Z</time>
      </trkpt>
      <trkpt lat="48.92891" lon="2.03182">
        <ele>-27.60000038147</ele>
        <time>2013-05-25T12:34:26Z</time>
      </trkpt>
      <trkpt lat="48.92881" lon="2.03159">
        <ele>-27.799999237061</ele>
        <time>2013-05-25T12:34:41Z</time>
      </trkpt>
      <trkpt lat="48.92873" lon="2.03137">
        <ele>-28.799999237061</ele>
        <time>2013-05-25T12:34:59Z</time>
      </trkpt>
      <trkpt lat="48.92872" lon="2.03135">
        <ele>-27.39999961853</ele>
        <time>2013-05-25T12:35:01Z</time>
      </trkpt>
      <trkpt lat="48.92871" lon="2.03124">
        <ele>-27.799999237061</ele>
        <time>2013-05-25T12:35:09Z</time>
      </trkpt>
      <trkpt lat="48.92867" lon="2.03115">
        <ele>-27</ele>
        <time>2013-05-25T12:35:16Z</time>
      </trkpt>
      <trkpt lat="48.92859" lon="2.03101">
        <ele>-28</ele>
        <time>2013-05-25T12:35:28Z</time>
      </trkpt>
      <trkpt lat="48.92854" lon="2.03103">
        <ele>-27</ele>
        <time>2013-05-25T12:35:42Z</time>
      </trkpt>
      <trkpt lat="48.92854" lon="2.03103">
        <ele>-26.60000038147</ele>
        <time>2013-05-25T12:36:05Z</time>
      </trkpt>
      <trkpt lat="48.92845" lon="2.031">
        <ele>-26.799999237061</ele>
        <time>2013-05-25T12:36:10Z</time>
      </trkpt>
      <trkpt lat="48.92842" lon="2.03101">
        <ele>-27</ele>
        <time>2013-05-25T12:36:13Z</time>
      </trkpt>
      <trkpt lat="48.92838" lon="2.03109">
        <ele>-26.39999961853</ele>
        <time>2013-05-25T12:36:17Z</time>
      </trkpt>
      <trkpt lat="48.92827" lon="2.03115">
        <ele>-26.799999237061</ele>
        <time>2013-05-25T12:36:32Z</time>
      </trkpt>
      <trkpt lat="48.92827" lon="2.03115">
        <ele>-28.200000762939</ele>
        <time>2013-05-25T12:38:45Z</time>
      </trkpt>
      <trkpt lat="48.92819" lon="2.0313">
        <ele>-28.200000762939</ele>
        <time>2013-05-25T12:38:53Z</time>
      </trkpt>
      <trkpt lat="48.9281" lon="2.03128">
        <ele>-27.60000038147</ele>
        <time>2013-05-25T12:39:03Z</time>
      </trkpt>
      <trkpt lat="48.92804" lon="2.03122">
        <ele>-26.39999961853</ele>
        <time>2013-05-25T12:39:23Z</time>
      </trkpt>
      <trkpt lat="48.92805" lon="2.03122">
        <ele>-27</ele>
        <time>2013-05-25T12:39:57Z</time>
      </trkpt>
      <trkpt lat="48.92814" lon="2.03114">
        <ele>-30</ele>
        <time>2013-05-25T12:40:03Z</time>
      </trkpt>
      <trkpt lat="48.92822" lon="2.03111">
        <ele>-28.39999961853</ele>
        <time>2013-05-25T12:40:19Z</time>
      </trkpt>
      <trkpt lat="48.92822" lon="2.03111">
        <ele>-28.200000762939</ele>
        <time>2013-05-25T12:41:07Z</time>
      </trkpt>
      <trkpt lat="48.92821" lon="2.0311">
        <ele>-27.799999237061</ele>
        <time>2013-05-25T12:41:12Z</time>
      </trkpt>
      <trkpt lat="48.92815" lon="2.03144">
        <ele>-28</ele>
        <time>2013-05-25T12:41:28Z</time>
      </trkpt>
      <trkpt lat="48.92825" lon="2.03141">
        <ele>-28.39999961853</ele>
        <time>2013-05-25T12:41:33Z</time>
      </trkpt>
      <trkpt lat="48.92828" lon="2.03133">
        <ele>-28</ele>
        <time>2013-05-25T12:41:39Z</time>
      </trkpt>
      <trkpt lat="48.92812" lon="2.03134">
        <ele>-28.200000762939</ele>
        <time>2013-05-25T12:41:50Z</time>
      </trkpt>
      <trkpt lat="48.9281" lon="2.03132">
        <ele>-27.39999961853</ele>
        <time>2013-05-25T12:41:53Z</time>
      </trkpt>
      <trkpt lat="48.92804" lon="2.03137">
        <ele>-27</ele>
        <time>2013-05-25T12:42:01Z</time>
      </trkpt>
      <trkpt lat="48.92802" lon="2.03146">
        <ele>-26.799999237061</ele>
        <time>2013-05-25T12:42:07Z</time>
      </trkpt>
      <trkpt lat="48.92805" lon="2.03159">
        <ele>-27.200000762939</ele>
        <time>2013-05-25T12:42:14Z</time>
      </trkpt>
      <trkpt lat="48.92804" lon="2.03156">
        <ele>-27</ele>
        <time>2013-05-25T12:42:34Z</time>
      </trkpt>
      <trkpt lat="48.92803" lon="2.03155">
        <ele>-27.60000038147</ele>
        <time>2013-05-25T12:42:58Z</time>
      </trkpt>
      <trkpt lat="48.92806" lon="2.03134">
        <ele>-27.60000038147</ele>
        <time>2013-05-25T12:43:02Z</time>
      </trkpt>
      <trkpt lat="48.92809" lon="2.03131">
        <ele>-27.60000038147</ele>
        <time>2013-05-25T12:43:20Z</time>
      </trkpt>
      <trkpt lat="48.92808" lon="2.03133">
        <ele>-27.200000762939</ele>
        <time>2013-05-25T12:43:25Z</time>
      </trkpt>
      <trkpt lat="48.92807" lon="2.03135">
        <ele>-26.60000038147</ele>
        <time>2013-05-25T12:43:27Z</time>
      </trkpt>
      <trkpt lat="48.92801" lon="2.03144">
        <ele>-26.60000038147</ele>
        <time>2013-05-25T12:43:34Z</time>
      </trkpt>
      <trkpt lat="48.92799" lon="2.03148">
        <ele>-26.60000038147</ele>
        <time>2013-05-25T12:43:46Z</time>
      </trkpt>
      <trkpt lat="48.92798" lon="2.03121">
        <ele>-27</ele>
        <time>2013-05-25T12:43:59Z</time>
      </trkpt>
      <trkpt lat="48.92796" lon="2.03103">
        <ele>-26.799999237061</ele>
        <time>2013-05-25T12:44:14Z</time>
      </trkpt>
      <trkpt lat="48.92797" lon="2.03104">
        <ele>-27</ele>
        <time>2013-05-25T12:45:07Z</time>
      </trkpt>
      <trkpt lat="48.928" lon="2.0311">
        <ele>-27</ele>
        <time>2013-05-25T12:45:11Z</time>
      </trkpt>
      <trkpt lat="48.92801" lon="2.0312">
        <ele>-27.200000762939</ele>
        <time>2013-05-25T12:45:15Z</time>
      </trkpt>
      <trkpt lat="48.92802" lon="2.03184">
        <ele>-26</ele>
        <time>2013-05-25T12:45:42Z</time>
      </trkpt>
      <trkpt lat="48.92805" lon="2.03201">
        <ele>-27.60000038147</ele>
        <time>2013-05-25T12:45:55Z</time>
      </trkpt>
      <trkpt lat="48.92804" lon="2.03205">
        <ele>-25.799999237061</ele>
        <time>2013-05-25T12:46:04Z</time>
      </trkpt>
      <trkpt lat="48.92796" lon="2.03209">
        <ele>-28</ele>
        <time>2013-05-25T12:46:09Z</time>
      </trkpt>
      <trkpt lat="48.9278" lon="2.03217">
        <ele>-27.60000038147</ele>
        <time>2013-05-25T12:46:16Z</time>
      </trkpt>
      <trkpt lat="48.92779" lon="2.03217">
        <ele>-27.60000038147</ele>
        <time>2013-05-25T12:46:17Z</time>
      </trkpt>
      <trkpt lat="48.92776" lon="2.03215">
        <ele>-28.200000762939</ele>
        <time>2013-05-25T12:46:20Z</time>
      </trkpt>
      <trkpt lat="48.92775" lon="2.03217">
        <ele>-25.799999237061</ele>
        <time>2013-05-25T12:46:23Z</time>
      </trkpt>
      <trkpt lat="48.92774" lon="2.03221">
        <ele>-25</ele>
        <time>2013-05-25T12:46:25Z</time>
      </trkpt>
      <trkpt lat="48.92771" lon="2.03225">
        <ele>-26.200000762939</ele>
        <time>2013-05-25T12:46:27Z</time>
      </trkpt>
      <trkpt lat="48.9276" lon="2.03243">
        <ele>-24.200000762939</ele>
        <time>2013-05-25T12:46:34Z</time>
      </trkpt>
      <trkpt lat="48.92758" lon="2.03249">
        <ele>-24.39999961853</ele>
        <time>2013-05-25T12:46:39Z</time>
      </trkpt>
      <trkpt lat="48.92758" lon="2.03251">
        <ele>-24.39999961853</ele>
        <time>2013-05-25T12:46:40Z</time>
      </trkpt>
      <trkpt lat="48.92758" lon="2.03256">
        <ele>-26</ele>
        <time>2013-05-25T12:46:42Z</time>
      </trkpt>
      <trkpt lat="48.92758" lon="2.03257">
        <ele>-25.39999961853</ele>
        <time>2013-05-25T12:46:43Z</time>
      </trkpt>
      <trkpt lat="48.92753" lon="2.03272">
        <ele>-22.799999237061</ele>
        <time>2013-05-25T12:46:52Z</time>
      </trkpt>
      <trkpt lat="48.92752" lon="2.03275">
        <ele>-25.200000762939</ele>
        <time>2013-05-25T12:46:54Z</time>
      </trkpt>
      <trkpt lat="48.92752" lon="2.03277">
        <ele>-25.200000762939</ele>
        <time>2013-05-25T12:46:55Z</time>
      </trkpt>
      <trkpt lat="48.92752" lon="2.03282">
        <ele>-23</ele>
        <time>2013-05-25T12:46:59Z</time>
      </trkpt>
      <trkpt lat="48.92754" lon="2.03282">
        <ele>-24.200000762939</ele>
        <time>2013-05-25T12:47:02Z</time>
      </trkpt>
      <trkpt lat="48.92755" lon="2.03299">
        <ele>-23.200000762939</ele>
        <time>2013-05-25T12:47:12Z</time>
      </trkpt>
      <trkpt lat="48.92755" lon="2.03325">
        <ele>-19.60000038147</ele>
        <time>2013-05-25T12:47:25Z</time>
      </trkpt>
      <trkpt lat="48.92756" lon="2.03334">
        <ele>-19.200000762939</ele>
        <time>2013-05-25T12:47:31Z</time>
      </trkpt>
      <trkpt lat="48.92755" lon="2.0336">
        <ele>-19.200000762939</ele>
        <time>2013-05-25T12:47:45Z</time>
      </trkpt>
      <trkpt lat="48.92754" lon="2.03369">
        <ele>-19.60000038147</ele>
        <time>2013-05-25T12:47:51Z</time>
      </trkpt>
      <trkpt lat="48.92754" lon="2.03371">
        <ele>-19</ele>
        <time>2013-05-25T12:47:52Z</time>
      </trkpt>
      <trkpt lat="48.92753" lon="2.03374">
        <ele>-17.799999237061</ele>
        <time>2013-05-25T12:47:54Z</time>
      </trkpt>
      <trkpt lat="48.92752" lon="2.03377">
        <ele>-18.200000762939</ele>
        <time>2013-05-25T12:47:57Z</time>
      </trkpt>
      <trkpt lat="48.9275" lon="2.03389">
        <ele>-17.60000038147</ele>
        <time>2013-05-25T12:48:02Z</time>
      </trkpt>
      <trkpt lat="48.92746" lon="2.03398">
        <ele>-17</ele>
        <time>2013-05-25T12:48:07Z</time>
      </trkpt>
      <trkpt lat="48.92744" lon="2.03404">
        <ele>-17</ele>
        <time>2013-05-25T12:48:11Z</time>
      </trkpt>
      <trkpt lat="48.9273" lon="2.0342">
        <ele>-16.60000038147</ele>
        <time>2013-05-25T12:48:21Z</time>
      </trkpt>
      <trkpt lat="48.92729" lon="2.03423">
        <ele>-15.800000190735</ele>
        <time>2013-05-25T12:48:23Z</time>
      </trkpt>
      <trkpt lat="48.92729" lon="2.03427">
        <ele>-16.60000038147</ele>
        <time>2013-05-25T12:48:25Z</time>
      </trkpt>
      <trkpt lat="48.92727" lon="2.03429">
        <ele>-14.800000190735</ele>
        <time>2013-05-25T12:48:29Z</time>
      </trkpt>
      <trkpt lat="48.92725" lon="2.03435">
        <ele>-13.800000190735</ele>
        <time>2013-05-25T12:48:35Z</time>
      </trkpt>
      <trkpt lat="48.92723" lon="2.03435">
        <ele>-15.60000038147</ele>
        <time>2013-05-25T12:48:38Z</time>
      </trkpt>
      <trkpt lat="48.9272" lon="2.03437">
        <ele>-13.800000190735</ele>
        <time>2013-05-25T12:48:41Z</time>
      </trkpt>
      <trkpt lat="48.92716" lon="2.03443">
        <ele>-13</ele>
        <time>2013-05-25T12:48:45Z</time>
      </trkpt>
      <trkpt lat="48.92714" lon="2.03444">
        <ele>-14.60000038147</ele>
        <time>2013-05-25T12:48:48Z</time>
      </trkpt>
      <trkpt lat="48.92704" lon="2.03454">
        <ele>-12.800000190735</ele>
        <time>2013-05-25T12:49:02Z</time>
      </trkpt>
      <trkpt lat="48.92704" lon="2.03454">
        <ele>-13</ele>
        <time>2013-05-25T12:49:09Z</time>
      </trkpt>
      <trkpt lat="48.92688" lon="2.03459">
        <ele>-11.60000038147</ele>
        <time>2013-05-25T12:49:28Z</time>
      </trkpt>
      <trkpt lat="48.92688" lon="2.03454">
        <ele>-11.60000038147</ele>
        <time>2013-05-25T12:49:58Z</time>
      </trkpt>
      <trkpt lat="48.92688" lon="2.03437">
        <ele>-11</ele>
        <time>2013-05-25T12:50:06Z</time>
      </trkpt>
      <trkpt lat="48.92687" lon="2.03427">
        <ele>-10.199999809265</ele>
        <time>2013-05-25T12:50:10Z</time>
      </trkpt>
      <trkpt lat="48.92681" lon="2.03415">
        <ele>-10.39999961853</ele>
        <time>2013-05-25T12:50:16Z</time>
      </trkpt>
      <trkpt lat="48.92679" lon="2.03411">
        <ele>-10.39999961853</ele>
        <time>2013-05-25T12:50:19Z</time>
      </trkpt>
      <trkpt lat="48.92679" lon="2.03404">
        <ele>-10.199999809265</ele>
        <time>2013-05-25T12:50:24Z</time>
      </trkpt>
      <trkpt lat="48.92668" lon="2.03387">
        <ele>-9.3999996185303</ele>
        <time>2013-05-25T12:50:39Z</time>
      </trkpt>
      <trkpt lat="48.92665" lon="2.03383">
        <ele>-10.800000190735</ele>
        <time>2013-05-25T12:50:42Z</time>
      </trkpt>
      <trkpt lat="48.92661" lon="2.03368">
        <ele>-8.8000001907349</ele>
        <time>2013-05-25T12:50:51Z</time>
      </trkpt>
      <trkpt lat="48.9266" lon="2.03359">
        <ele>-9.1999998092651</ele>
        <time>2013-05-25T12:50:55Z</time>
      </trkpt>
      <trkpt lat="48.92657" lon="2.03351">
        <ele>-11.39999961853</ele>
        <time>2013-05-25T12:51:00Z</time>
      </trkpt>
      <trkpt lat="48.92656" lon="2.03335">
        <ele>-10.39999961853</ele>
        <time>2013-05-25T12:51:08Z</time>
      </trkpt>
      <trkpt lat="48.92656" lon="2.0333">
        <ele>-9</ele>
        <time>2013-05-25T12:51:10Z</time>
      </trkpt>
      <trkpt lat="48.92661" lon="2.03315">
        <ele>-12</ele>
        <time>2013-05-25T12:51:21Z</time>
      </trkpt>
      <trkpt lat="48.92661" lon="2.03314">
        <ele>-12.199999809265</ele>
        <time>2013-05-25T12:51:22Z</time>
      </trkpt>
      <trkpt lat="48.92663" lon="2.03305">
        <ele>-13</ele>
        <time>2013-05-25T12:51:28Z</time>
      </trkpt>
      <trkpt lat="48.9267" lon="2.03302">
        <ele>-13.800000190735</ele>
        <time>2013-05-25T12:51:33Z</time>
      </trkpt>
      <trkpt lat="48.92676" lon="2.03298">
        <ele>-13.60000038147</ele>
        <time>2013-05-25T12:51:37Z</time>
      </trkpt>
      <trkpt lat="48.92679" lon="2.03293">
        <ele>-13.60000038147</ele>
        <time>2013-05-25T12:51:42Z</time>
      </trkpt>
      <trkpt lat="48.92691" lon="2.0329">
        <ele>-14.199999809265</ele>
        <time>2013-05-25T12:51:55Z</time>
      </trkpt>
      <trkpt lat="48.92693" lon="2.0329">
        <ele>-14.60000038147</ele>
        <time>2013-05-25T12:51:58Z</time>
      </trkpt>
      <trkpt lat="48.92711" lon="2.03274">
        <ele>-18.200000762939</ele>
        <time>2013-05-25T12:52:16Z</time>
      </trkpt>
      <trkpt lat="48.92712" lon="2.03272">
        <ele>-18.200000762939</ele>
        <time>2013-05-25T12:52:17Z</time>
      </trkpt>
      <trkpt lat="48.92714" lon="2.03269">
        <ele>-17.799999237061</ele>
        <time>2013-05-25T12:52:19Z</time>
      </trkpt>
      <trkpt lat="48.92719" lon="2.0326">
        <ele>-19.60000038147</ele>
        <time>2013-05-25T12:52:23Z</time>
      </trkpt>
      <trkpt lat="48.92723" lon="2.03257">
        <ele>-18.60000038147</ele>
        <time>2013-05-25T12:52:29Z</time>
      </trkpt>
      <trkpt lat="48.92727" lon="2.03257">
        <ele>-19.39999961853</ele>
        <time>2013-05-25T12:52:35Z</time>
      </trkpt>
      <trkpt lat="48.92728" lon="2.03253">
        <ele>-19.39999961853</ele>
        <time>2013-05-25T12:52:39Z</time>
      </trkpt>
      <trkpt lat="48.92712" lon="2.03239">
        <ele>-19.60000038147</ele>
        <time>2013-05-25T12:52:56Z</time>
      </trkpt>
      <trkpt lat="48.92713" lon="2.03237">
        <ele>-19.799999237061</ele>
        <time>2013-05-25T12:53:03Z</time>
      </trkpt>
      <trkpt lat="48.92716" lon="2.03231">
        <ele>-21.200000762939</ele>
        <time>2013-05-25T12:53:07Z</time>
      </trkpt>
      <trkpt lat="48.92722" lon="2.03221">
        <ele>-21.39999961853</ele>
        <time>2013-05-25T12:53:15Z</time>
      </trkpt>
      <trkpt lat="48.92727" lon="2.03215">
        <ele>-23</ele>
        <time>2013-05-25T12:53:20Z</time>
      </trkpt>
      <trkpt lat="48.92732" lon="2.03209">
        <ele>-23.799999237061</ele>
        <time>2013-05-25T12:53:25Z</time>
      </trkpt>
      <trkpt lat="48.9274" lon="2.03209">
        <ele>-24.39999961853</ele>
        <time>2013-05-25T12:53:30Z</time>
      </trkpt>
      <trkpt lat="48.92748" lon="2.0321">
        <ele>-24.60000038147</ele>
        <time>2013-05-25T12:53:44Z</time>
      </trkpt>
      <trkpt lat="48.9275" lon="2.03207">
        <ele>-25.60000038147</ele>
        <time>2013-05-25T12:53:47Z</time>
      </trkpt>
      <trkpt lat="48.92758" lon="2.032">
        <ele>-27.799999237061</ele>
        <time>2013-05-25T12:53:58Z</time>
      </trkpt>
      <trkpt lat="48.92766" lon="2.03193">
        <ele>-28</ele>
        <time>2013-05-25T12:54:08Z</time>
      </trkpt>
      <trkpt lat="48.92764" lon="2.03184">
        <ele>-28</ele>
        <time>2013-05-25T12:54:47Z</time>
      </trkpt>
      <trkpt lat="48.92764" lon="2.03184">
        <ele>-28</ele>
        <time>2013-05-25T12:54:50Z</time>
      </trkpt>
      <trkpt lat="48.92761" lon="2.03176">
        <ele>-28.39999961853</ele>
        <time>2013-05-25T12:54:54Z</time>
      </trkpt>
      <trkpt lat="48.92752" lon="2.03184">
        <ele>-27.799999237061</ele>
        <time>2013-05-25T12:54:59Z</time>
      </trkpt>
      <trkpt lat="48.92736" lon="2.03201">
        <ele>-24.60000038147</ele>
        <time>2013-05-25T12:55:07Z</time>
      </trkpt>
      <trkpt lat="48.92738" lon="2.03206">
        <ele>-24.39999961853</ele>
        <time>2013-05-25T12:55:12Z</time>
      </trkpt>
      <trkpt lat="48.92758" lon="2.0323">
        <ele>-26.799999237061</ele>
        <time>2013-05-25T12:55:24Z</time>
      </trkpt>
      <trkpt lat="48.92759" lon="2.03257">
        <ele>-26</ele>
        <time>2013-05-25T12:55:30Z</time>
      </trkpt>
      <trkpt lat="48.92753" lon="2.03293">
        <ele>-24.200000762939</ele>
        <time>2013-05-25T12:55:40Z</time>
      </trkpt>
      <trkpt lat="48.92756" lon="2.03339">
        <ele>-21.200000762939</ele>
        <time>2013-05-25T12:55:55Z</time>
      </trkpt>
      <trkpt lat="48.92747" lon="2.03395">
        <ele>-18.200000762939</ele>
        <time>2013-05-25T12:56:12Z</time>
      </trkpt>
      <trkpt lat="48.92731" lon="2.03421">
        <ele>-15.39999961853</ele>
        <time>2013-05-25T12:56:30Z</time>
      </trkpt>
      <trkpt lat="48.92707" lon="2.03452">
        <ele>-12.39999961853</ele>
        <time>2013-05-25T12:56:51Z</time>
      </trkpt>
      <trkpt lat="48.92692" lon="2.03466">
        <ele>-11.199999809265</ele>
        <time>2013-05-25T12:57:04Z</time>
      </trkpt>
      <trkpt lat="48.9269" lon="2.03467">
        <ele>-11</ele>
        <time>2013-05-25T12:57:07Z</time>
      </trkpt>
      <trkpt lat="48.92689" lon="2.03469">
        <ele>-11</ele>
        <time>2013-05-25T12:57:26Z</time>
      </trkpt>
      <trkpt lat="48.9269" lon="2.03469">
        <ele>-11</ele>
        <time>2013-05-25T12:57:29Z</time>
      </trkpt>
      <trkpt lat="48.92702" lon="2.03459">
        <ele>-12.800000190735</ele>
        <time>2013-05-25T12:57:41Z</time>
      </trkpt>
      <trkpt lat="48.92703" lon="2.03456">
        <ele>-12.60000038147</ele>
        <time>2013-05-25T12:58:04Z</time>
      </trkpt>
      <trkpt lat="48.92721" lon="2.03435">
        <ele>-14</ele>
        <time>2013-05-25T12:58:20Z</time>
      </trkpt>
      <trkpt lat="48.92735" lon="2.03416">
        <ele>-15.199999809265</ele>
        <time>2013-05-25T12:58:35Z</time>
      </trkpt>
      <trkpt lat="48.92757" lon="2.0337">
        <ele>-17.60000038147</ele>
        <time>2013-05-25T12:58:56Z</time>
      </trkpt>
      <trkpt lat="48.9276" lon="2.03344">
        <ele>-20.60000038147</ele>
        <time>2013-05-25T12:59:09Z</time>
      </trkpt>
      <trkpt lat="48.9276" lon="2.03335">
        <ele>-21</ele>
        <time>2013-05-25T12:59:14Z</time>
      </trkpt>
      <trkpt lat="48.92761" lon="2.03313">
        <ele>-24</ele>
        <time>2013-05-25T12:59:31Z</time>
      </trkpt>
      <trkpt lat="48.92761" lon="2.03299">
        <ele>-24.39999961853</ele>
        <time>2013-05-25T12:59:37Z</time>
      </trkpt>
      <trkpt lat="48.92766" lon="2.03251">
        <ele>-27</ele>
        <time>2013-05-25T12:59:51Z</time>
      </trkpt>
      <trkpt lat="48.92766" lon="2.03252">
        <ele>-27.39999961853</ele>
        <time>2013-05-25T12:59:52Z</time>
      </trkpt>
      <trkpt lat="48.9277" lon="2.03244">
        <ele>-28</ele>
        <time>2013-05-25T12:59:57Z</time>
      </trkpt>
      <trkpt lat="48.92773" lon="2.03231">
        <ele>-28</ele>
        <time>2013-05-25T13:00:01Z</time>
      </trkpt>
      <trkpt lat="48.92788" lon="2.03223">
        <ele>-29.200000762939</ele>
        <time>2013-05-25T13:00:12Z</time>
      </trkpt>
      <trkpt lat="48.92801" lon="2.03206">
        <ele>-29.39999961853</ele>
        <time>2013-05-25T13:00:27Z</time>
      </trkpt>
      <trkpt lat="48.92806" lon="2.03197">
        <ele>-30.799999237061</ele>
        <time>2013-05-25T13:01:05Z</time>
      </trkpt>
      <trkpt lat="48.92806" lon="2.03197">
        <ele>-31</ele>
        <time>2013-05-25T13:01:08Z</time>
      </trkpt>
      <trkpt lat="48.92826" lon="2.03196">
        <ele>-32</ele>
        <time>2013-05-25T13:01:13Z</time>
      </trkpt>
      <trkpt lat="48.92828" lon="2.03193">
        <ele>-32</ele>
        <time>2013-05-25T13:01:18Z</time>
      </trkpt>
      <trkpt lat="48.92828" lon="2.03193">
        <ele>-31.799999237061</ele>
        <time>2013-05-25T13:01:20Z</time>
      </trkpt>
      <trkpt lat="48.9283" lon="2.03187">
        <ele>-31.60000038147</ele>
        <time>2013-05-25T13:01:31Z</time>
      </trkpt>
      <trkpt lat="48.92826" lon="2.03187">
        <ele>-30.799999237061</ele>
        <time>2013-05-25T13:01:36Z</time>
      </trkpt>
      <trkpt lat="48.92824" lon="2.0319">
        <ele>-30.60000038147</ele>
        <time>2013-05-25T13:01:53Z</time>
      </trkpt>
      <trkpt lat="48.92823" lon="2.0319">
        <ele>-30.200000762939</ele>
        <time>2013-05-25T13:02:38Z</time>
      </trkpt>
      <trkpt lat="48.92824" lon="2.03192">
        <ele>-30.39999961853</ele>
        <time>2013-05-25T13:03:05Z</time>
      </trkpt>
      <trkpt lat="48.92828" lon="2.03198">
        <ele>-31.60000038147</ele>
        <time>2013-05-25T13:03:12Z</time>
      </trkpt>
      <trkpt lat="48.92835" lon="2.032">
        <ele>-31.39999961853</ele>
        <time>2013-05-25T13:03:16Z</time>
      </trkpt>
      <trkpt lat="48.9284" lon="2.03206">
        <ele>-31.799999237061</ele>
        <time>2013-05-25T13:03:23Z</time>
      </trkpt>
      <trkpt lat="48.92843" lon="2.03204">
        <ele>-31.60000038147</ele>
        <time>2013-05-25T13:03:44Z</time>
      </trkpt>
      <trkpt lat="48.92843" lon="2.03201">
        <ele>-31.799999237061</ele>
        <time>2013-05-25T13:04:15Z</time>
      </trkpt>
      <trkpt lat="48.92836" lon="2.03197">
        <ele>-32.200000762939</ele>
        <time>2013-05-25T13:04:19Z</time>
      </trkpt>
      <trkpt lat="48.92825" lon="2.03194">
        <ele>-30.799999237061</ele>
        <time>2013-05-25T13:04:31Z</time>
      </trkpt>
      <trkpt lat="48.92822" lon="2.0319">
        <ele>-30.39999961853</ele>
        <time>2013-05-25T13:04:35Z</time>
      </trkpt>
      <trkpt lat="48.92808" lon="2.03201">
        <ele>-29.39999961853</ele>
        <time>2013-05-25T13:04:50Z</time>
      </trkpt>
      <trkpt lat="48.92805" lon="2.03208">
        <ele>-29.60000038147</ele>
        <time>2013-05-25T13:04:56Z</time>
      </trkpt>
      <trkpt lat="48.92801" lon="2.03213">
        <ele>-29.200000762939</ele>
        <time>2013-05-25T13:05:02Z</time>
      </trkpt>
      <trkpt lat="48.9279" lon="2.0322">
        <ele>-28.39999961853</ele>
        <time>2013-05-25T13:05:12Z</time>
      </trkpt>
      <trkpt lat="48.92778" lon="2.03229">
        <ele>-27.39999961853</ele>
        <time>2013-05-25T13:05:22Z</time>
      </trkpt>
      <trkpt lat="48.92767" lon="2.03251">
        <ele>-26.60000038147</ele>
        <time>2013-05-25T13:05:33Z</time>
      </trkpt>
      <trkpt lat="48.92762" lon="2.03267">
        <ele>-25.39999961853</ele>
        <time>2013-05-25T13:05:45Z</time>
      </trkpt>
      <trkpt lat="48.92759" lon="2.03286">
        <ele>-24.39999961853</ele>
        <time>2013-05-25T13:05:55Z</time>
      </trkpt>
      <trkpt lat="48.92759" lon="2.03308">
        <ele>-23</ele>
        <time>2013-05-25T13:06:12Z</time>
      </trkpt>
      <trkpt lat="48.92756" lon="2.03328">
        <ele>-22.200000762939</ele>
        <time>2013-05-25T13:06:21Z</time>
      </trkpt>
      <trkpt lat="48.92757" lon="2.03336">
        <ele>-22.200000762939</ele>
        <time>2013-05-25T13:06:25Z</time>
      </trkpt>
      <trkpt lat="48.92757" lon="2.03362">
        <ele>-20.39999961853</ele>
        <time>2013-05-25T13:06:43Z</time>
      </trkpt>
      <trkpt lat="48.92755" lon="2.03374">
        <ele>-19.200000762939</ele>
        <time>2013-05-25T13:06:52Z</time>
      </trkpt>
      <trkpt lat="48.92752" lon="2.03388">
        <ele>-19</ele>
        <time>2013-05-25T13:07:00Z</time>
      </trkpt>
      <trkpt lat="48.9275" lon="2.0339">
        <ele>-18.60000038147</ele>
        <time>2013-05-25T13:07:04Z</time>
      </trkpt>
      <trkpt lat="48.92742" lon="2.03411">
        <ele>-16.799999237061</ele>
        <time>2013-05-25T13:07:18Z</time>
      </trkpt>
      <trkpt lat="48.92741" lon="2.03412">
        <ele>-16.60000038147</ele>
        <time>2013-05-25T13:07:27Z</time>
      </trkpt>
      <trkpt lat="48.92731" lon="2.03427">
        <ele>-15.39999961853</ele>
        <time>2013-05-25T13:07:40Z</time>
      </trkpt>
      <trkpt lat="48.92706" lon="2.03454">
        <ele>-13</ele>
        <time>2013-05-25T13:08:06Z</time>
      </trkpt>
      <trkpt lat="48.92702" lon="2.03457">
        <ele>-12.800000190735</ele>
        <time>2013-05-25T13:08:11Z</time>
      </trkpt>
      <trkpt lat="48.92694" lon="2.03465">
        <ele>-12.199999809265</ele>
        <time>2013-05-25T13:08:19Z</time>
      </trkpt>
      <trkpt lat="48.92691" lon="2.03474">
        <ele>-11.60000038147</ele>
        <time>2013-05-25T13:08:46Z</time>
      </trkpt>
      <trkpt lat="48.9269" lon="2.03478">
        <ele>-11.800000190735</ele>
        <time>2013-05-25T13:09:27Z</time>
      </trkpt>
      <trkpt lat="48.9269" lon="2.03479">
        <ele>-12.199999809265</ele>
        <time>2013-05-25T13:09:56Z</time>
      </trkpt>
      <trkpt lat="48.92691" lon="2.0348">
        <ele>-12</ele>
        <time>2013-05-25T13:10:34Z</time>
      </trkpt>
      <trkpt lat="48.92688" lon="2.03482">
        <ele>-11.800000190735</ele>
        <time>2013-05-25T13:10:42Z</time>
      </trkpt>
      <trkpt lat="48.92688" lon="2.03488">
        <ele>-11.800000190735</ele>
        <time>2013-05-25T13:10:46Z</time>
      </trkpt>
      <trkpt lat="48.92686" lon="2.03492">
        <ele>-12.800000190735</ele>
        <time>2013-05-25T13:10:55Z</time>
      </trkpt>
      <trkpt lat="48.92685" lon="2.03496">
        <ele>-13</ele>
        <time>2013-05-25T13:10:58Z</time>
      </trkpt>
      <trkpt lat="48.92684" lon="2.03504">
        <ele>-13.199999809265</ele>
        <time>2013-05-25T13:11:03Z</time>
      </trkpt>
      <trkpt lat="48.92691" lon="2.0352">
        <ele>-13</ele>
        <time>2013-05-25T13:11:16Z</time>
      </trkpt>
      <trkpt lat="48.92686" lon="2.03503">
        <ele>-13</ele>
        <time>2013-05-25T13:11:28Z</time>
      </trkpt>
      <trkpt lat="48.92689" lon="2.03496">
        <ele>-12.39999961853</ele>
        <time>2013-05-25T13:11:32Z</time>
      </trkpt>
      <trkpt lat="48.92691" lon="2.03488">
        <ele>-13.199999809265</ele>
        <time>2013-05-25T13:11:38Z</time>
      </trkpt>
      <trkpt lat="48.92693" lon="2.03483">
        <ele>-13.199999809265</ele>
        <time>2013-05-25T13:12:06Z</time>
      </trkpt>
      <trkpt lat="48.92696" lon="2.03482">
        <ele>-14</ele>
        <time>2013-05-25T13:12:51Z</time>
      </trkpt>
      <trkpt lat="48.92701" lon="2.03485">
        <ele>-16.200000762939</ele>
        <time>2013-05-25T13:12:57Z</time>
      </trkpt>
      <trkpt lat="48.92702" lon="2.03488">
        <ele>-17.200000762939</ele>
        <time>2013-05-25T13:12:59Z</time>
      </trkpt>
      <trkpt lat="48.92707" lon="2.03491">
        <ele>-15.60000038147</ele>
        <time>2013-05-25T13:13:13Z</time>
      </trkpt>
      <trkpt lat="48.92709" lon="2.0349">
        <ele>-16.39999961853</ele>
        <time>2013-05-25T13:13:17Z</time>
      </trkpt>
      <trkpt lat="48.92714" lon="2.03497">
        <ele>-18.60000038147</ele>
        <time>2013-05-25T13:13:23Z</time>
      </trkpt>
      <trkpt lat="48.92718" lon="2.03528">
        <ele>-20.200000762939</ele>
        <time>2013-05-25T13:13:41Z</time>
      </trkpt>
      <trkpt lat="48.92727" lon="2.03533">
        <ele>-20.200000762939</ele>
        <time>2013-05-25T13:13:49Z</time>
      </trkpt>
      <trkpt lat="48.9273" lon="2.03537">
        <ele>-20.799999237061</ele>
        <time>2013-05-25T13:13:53Z</time>
      </trkpt>
      <trkpt lat="48.9274" lon="2.0354">
        <ele>-21.799999237061</ele>
        <time>2013-05-25T13:14:01Z</time>
      </trkpt>
      <trkpt lat="48.92744" lon="2.03551">
        <ele>-22</ele>
        <time>2013-05-25T13:14:13Z</time>
      </trkpt>
      <trkpt lat="48.92747" lon="2.03563">
        <ele>-22.799999237061</ele>
        <time>2013-05-25T13:14:32Z</time>
      </trkpt>
      <trkpt lat="48.92747" lon="2.03563">
        <ele>-23</ele>
        <time>2013-05-25T13:14:33Z</time>
      </trkpt>
      <trkpt lat="48.92749" lon="2.03573">
        <ele>-23.200000762939</ele>
        <time>2013-05-25T13:14:38Z</time>
      </trkpt>
      <trkpt lat="48.9275" lon="2.03575">
        <ele>-23</ele>
        <time>2013-05-25T13:14:40Z</time>
      </trkpt>
      <trkpt lat="48.92756" lon="2.03583">
        <ele>-23.60000038147</ele>
        <time>2013-05-25T13:14:53Z</time>
      </trkpt>
      <trkpt lat="48.92756" lon="2.03586">
        <ele>-23.799999237061</ele>
        <time>2013-05-25T13:14:56Z</time>
      </trkpt>
      <trkpt lat="48.9276" lon="2.03598">
        <ele>-24</ele>
        <time>2013-05-25T13:15:09Z</time>
      </trkpt>
      <trkpt lat="48.9276" lon="2.03598">
        <ele>-23.200000762939</ele>
        <time>2013-05-25T13:15:12Z</time>
      </trkpt>
      <trkpt lat="48.92763" lon="2.03604">
        <ele>-24.60000038147</ele>
        <time>2013-05-25T13:15:24Z</time>
      </trkpt>
      <trkpt lat="48.92767" lon="2.0361">
        <ele>-24.60000038147</ele>
        <time>2013-05-25T13:15:28Z</time>
      </trkpt>
      <trkpt lat="48.92777" lon="2.03624">
        <ele>-25</ele>
        <time>2013-05-25T13:15:38Z</time>
      </trkpt>
      <trkpt lat="48.92784" lon="2.03634">
        <ele>-25</ele>
        <time>2013-05-25T13:15:50Z</time>
      </trkpt>
      <trkpt lat="48.92786" lon="2.03638">
        <ele>-25.39999961853</ele>
        <time>2013-05-25T13:16:23Z</time>
      </trkpt>
      <trkpt lat="48.92786" lon="2.03638">
        <ele>-25</ele>
        <time>2013-05-25T13:16:28Z</time>
      </trkpt>
      <trkpt lat="48.92781" lon="2.03646">
        <ele>-25</ele>
        <time>2013-05-25T13:16:35Z</time>
      </trkpt>
      <trkpt lat="48.92777" lon="2.03654">
        <ele>-25.799999237061</ele>
        <time>2013-05-25T13:16:57Z</time>
      </trkpt>
      <trkpt lat="48.92778" lon="2.03656">
        <ele>-26</ele>
        <time>2013-05-25T13:17:55Z</time>
      </trkpt>
      <trkpt lat="48.92779" lon="2.03659">
        <ele>-26.200000762939</ele>
        <time>2013-05-25T13:18:16Z</time>
      </trkpt>
      <trkpt lat="48.92779" lon="2.03659">
        <ele>-26.60000038147</ele>
        <time>2013-05-25T13:18:19Z</time>
      </trkpt>
      <trkpt lat="48.92787" lon="2.03672">
        <ele>-25.39999961853</ele>
        <time>2013-05-25T13:18:25Z</time>
      </trkpt>
      <trkpt lat="48.92787" lon="2.03672">
        <ele>-25.39999961853</ele>
        <time>2013-05-25T13:18:30Z</time>
      </trkpt>
      <trkpt lat="48.92791" lon="2.03686">
        <ele>-25.39999961853</ele>
        <time>2013-05-25T13:18:35Z</time>
      </trkpt>
      <trkpt lat="48.92792" lon="2.0369">
        <ele>-26</ele>
        <time>2013-05-25T13:18:38Z</time>
      </trkpt>
      <trkpt lat="48.92793" lon="2.03696">
        <ele>-26.39999961853</ele>
        <time>2013-05-25T13:18:44Z</time>
      </trkpt>
      <trkpt lat="48.92798" lon="2.03702">
        <ele>-26.200000762939</ele>
        <time>2013-05-25T13:18:50Z</time>
      </trkpt>
      <trkpt lat="48.92802" lon="2.03709">
        <ele>-32.799999237061</ele>
        <time>2013-05-25T13:19:06Z</time>
      </trkpt>
      <trkpt lat="48.92802" lon="2.03709">
        <ele>-31</ele>
        <time>2013-05-25T13:19:07Z</time>
      </trkpt>
      <trkpt lat="48.92802" lon="2.03709">
        <ele>-24</ele>
        <time>2013-05-25T13:19:08Z</time>
      </trkpt>
      <trkpt lat="48.92802" lon="2.03709">
        <ele>-25.60000038147</ele>
        <time>2013-05-25T13:19:09Z</time>
      </trkpt>
      <trkpt lat="48.92804" lon="2.03712">
        <ele>-26.60000038147</ele>
        <time>2013-05-25T13:19:29Z</time>
      </trkpt>
      <trkpt lat="48.92806" lon="2.03714">
        <ele>-26.39999961853</ele>
        <time>2013-05-25T13:19:31Z</time>
      </trkpt>
      <trkpt lat="48.9282" lon="2.03743">
        <ele>-26.200000762939</ele>
        <time>2013-05-25T13:19:52Z</time>
      </trkpt>
      <trkpt lat="48.92823" lon="2.03746">
        <ele>-26.200000762939</ele>
        <time>2013-05-25T13:20:00Z</time>
      </trkpt>
      <trkpt lat="48.92833" lon="2.03762">
        <ele>-26</ele>
        <time>2013-05-25T13:20:21Z</time>
      </trkpt>
      <trkpt lat="48.9284" lon="2.03777">
        <ele>-25.60000038147</ele>
        <time>2013-05-25T13:20:38Z</time>
      </trkpt>
      <trkpt lat="48.92846" lon="2.03786">
        <ele>-25.799999237061</ele>
        <time>2013-05-25T13:21:06Z</time>
      </trkpt>
      <trkpt lat="48.92837" lon="2.0379">
        <ele>-25.60000038147</ele>
        <time>2013-05-25T13:21:24Z</time>
      </trkpt>
      <trkpt lat="48.92837" lon="2.03792">
        <ele>-25.60000038147</ele>
        <time>2013-05-25T13:21:26Z</time>
      </trkpt>
      <trkpt lat="48.92837" lon="2.03796">
        <ele>-25.799999237061</ele>
        <time>2013-05-25T13:21:30Z</time>
      </trkpt>
      <trkpt lat="48.92831" lon="2.03797">
        <ele>-25.60000038147</ele>
        <time>2013-05-25T13:21:35Z</time>
      </trkpt>
      <trkpt lat="48.92828" lon="2.03802">
        <ele>-25.200000762939</ele>
        <time>2013-05-25T13:21:41Z</time>
      </trkpt>
      <trkpt lat="48.9282" lon="2.03803">
        <ele>-25.60000038147</ele>
        <time>2013-05-25T13:21:53Z</time>
      </trkpt>
      <trkpt lat="48.92811" lon="2.03807">
        <ele>-25</ele>
        <time>2013-05-25T13:22:05Z</time>
      </trkpt>
      <trkpt lat="48.928" lon="2.03796">
        <ele>-24.799999237061</ele>
        <time>2013-05-25T13:22:21Z</time>
      </trkpt>
      <trkpt lat="48.92797" lon="2.03797">
        <ele>-24.799999237061</ele>
        <time>2013-05-25T13:22:26Z</time>
      </trkpt>
      <trkpt lat="48.92794" lon="2.03802">
        <ele>-24.200000762939</ele>
        <time>2013-05-25T13:22:34Z</time>
      </trkpt>
      <trkpt lat="48.92793" lon="2.03804">
        <ele>-24.200000762939</ele>
        <time>2013-05-25T13:22:45Z</time>
      </trkpt>
      <trkpt lat="48.92799" lon="2.0379">
        <ele>-25</ele>
        <time>2013-05-25T13:23:01Z</time>
      </trkpt>
      <trkpt lat="48.92806" lon="2.03789">
        <ele>-25</ele>
        <time>2013-05-25T13:23:06Z</time>
      </trkpt>
      <trkpt lat="48.92826" lon="2.03783">
        <ele>-25</ele>
        <time>2013-05-25T13:23:23Z</time>
      </trkpt>
      <trkpt lat="48.92829" lon="2.03787">
        <ele>-25</ele>
        <time>2013-05-25T13:23:26Z</time>
      </trkpt>
      <trkpt lat="48.92834" lon="2.03787">
        <ele>-25.39999961853</ele>
        <time>2013-05-25T13:23:41Z</time>
      </trkpt>
      <trkpt lat="48.92836" lon="2.03789">
        <ele>-25.200000762939</ele>
        <time>2013-05-25T13:23:45Z</time>
      </trkpt>
      <trkpt lat="48.92843" lon="2.03803">
        <ele>-25.39999961853</ele>
        <time>2013-05-25T13:24:10Z</time>
      </trkpt>
      <trkpt lat="48.92843" lon="2.03802">
        <ele>-25.60000038147</ele>
        <time>2013-05-25T13:24:16Z</time>
      </trkpt>
      <trkpt lat="48.92833" lon="2.03798">
        <ele>-25.60000038147</ele>
        <time>2013-05-25T13:24:23Z</time>
      </trkpt>
      <trkpt lat="48.92824" lon="2.03793">
        <ele>-25.39999961853</ele>
        <time>2013-05-25T13:24:49Z</time>
      </trkpt>
      <trkpt lat="48.92825" lon="2.03793">
        <ele>-24.39999961853</ele>
        <time>2013-05-25T13:26:26Z</time>
      </trkpt>
      <trkpt lat="48.92834" lon="2.03796">
        <ele>-24</ele>
        <time>2013-05-25T13:26:35Z</time>
      </trkpt>
      <trkpt lat="48.92838" lon="2.03792">
        <ele>-24.39999961853</ele>
        <time>2013-05-25T13:26:40Z</time>
      </trkpt>
      <trkpt lat="48.92844" lon="2.03792">
        <ele>-24.39999961853</ele>
        <time>2013-05-25T13:26:54Z</time>
      </trkpt>
      <trkpt lat="48.92843" lon="2.03793">
        <ele>-24.200000762939</ele>
        <time>2013-05-25T13:28:04Z</time>
      </trkpt>
      <trkpt lat="48.92844" lon="2.03792">
        <ele>-24.39999961853</ele>
        <time>2013-05-25T13:28:45Z</time>
      </trkpt>
      <trkpt lat="48.92843" lon="2.03784">
        <ele>-24.39999961853</ele>
        <time>2013-05-25T13:29:18Z</time>
      </trkpt>
      <trkpt lat="48.92843" lon="2.03783">
        <ele>-24.60000038147</ele>
        <time>2013-05-25T13:29:48Z</time>
      </trkpt>
      <trkpt lat="48.92854" lon="2.0379">
        <ele>-24.799999237061</ele>
        <time>2013-05-25T13:30:10Z</time>
      </trkpt>
      <trkpt lat="48.92854" lon="2.03793">
        <ele>-24.60000038147</ele>
        <time>2013-05-25T13:30:42Z</time>
      </trkpt>
      <trkpt lat="48.92856" lon="2.03802">
        <ele>-24.39999961853</ele>
        <time>2013-05-25T13:30:48Z</time>
      </trkpt>
      <trkpt lat="48.92856" lon="2.03804">
        <ele>-24.39999961853</ele>
        <time>2013-05-25T13:30:51Z</time>
      </trkpt>
      <trkpt lat="48.92855" lon="2.03826">
        <ele>-24.39999961853</ele>
        <time>2013-05-25T13:31:17Z</time>
      </trkpt>
      <trkpt lat="48.92853" lon="2.03823">
        <ele>-24.60000038147</ele>
        <time>2013-05-25T13:31:19Z</time>
      </trkpt>
      <trkpt lat="48.92852" lon="2.03791">
        <ele>-25.200000762939</ele>
        <time>2013-05-25T13:31:26Z</time>
      </trkpt>
      <trkpt lat="48.92852" lon="2.03791">
        <ele>-24.799999237061</ele>
        <time>2013-05-25T13:33:20Z</time>
      </trkpt>
      <trkpt lat="48.92854" lon="2.03787">
        <ele>-25</ele>
        <time>2013-05-25T13:33:33Z</time>
      </trkpt>
      <trkpt lat="48.92852" lon="2.03794">
        <ele>-25</ele>
        <time>2013-05-25T13:33:50Z</time>
      </trkpt>
      <trkpt lat="48.92853" lon="2.038">
        <ele>-25.200000762939</ele>
        <time>2013-05-25T13:33:53Z</time>
      </trkpt>
      <trkpt lat="48.92849" lon="2.03808">
        <ele>-25.200000762939</ele>
        <time>2013-05-25T13:34:04Z</time>
      </trkpt>
      <trkpt lat="48.92865" lon="2.03806">
        <ele>-24.799999237061</ele>
        <time>2013-05-25T13:36:19Z</time>
      </trkpt>
      <trkpt lat="48.92854" lon="2.0383">
        <ele>-24.60000038147</ele>
        <time>2013-05-25T13:36:30Z</time>
      </trkpt>
      <trkpt lat="48.92846" lon="2.03825">
        <ele>-24.39999961853</ele>
        <time>2013-05-25T13:37:05Z</time>
      </trkpt>
      <trkpt lat="48.92844" lon="2.03822">
        <ele>-25</ele>
        <time>2013-05-25T13:37:24Z</time>
      </trkpt>
      <trkpt lat="48.92845" lon="2.03812">
        <ele>-25.200000762939</ele>
        <time>2013-05-25T13:37:49Z</time>
      </trkpt>
      <trkpt lat="48.92845" lon="2.03815">
        <ele>-25.799999237061</ele>
        <time>2013-05-25T13:38:11Z</time>
      </trkpt>
      <trkpt lat="48.92847" lon="2.03819">
        <ele>-26</ele>
        <time>2013-05-25T13:38:37Z</time>
      </trkpt>
      <trkpt lat="48.92847" lon="2.03819">
        <ele>-26</ele>
        <time>2013-05-25T13:38:38Z</time>
      </trkpt>
      <trkpt lat="48.92849" lon="2.03846">
        <ele>-26</ele>
        <time>2013-05-25T13:38:43Z</time>
      </trkpt>
      <trkpt lat="48.9285" lon="2.03851">
        <ele>-26.39999961853</ele>
        <time>2013-05-25T13:38:57Z</time>
      </trkpt>
      <trkpt lat="48.92854" lon="2.03854">
        <ele>-26.60000038147</ele>
        <time>2013-05-25T13:39:00Z</time>
      </trkpt>
      <trkpt lat="48.92865" lon="2.03855">
        <ele>-26.39999961853</ele>
        <time>2013-05-25T13:39:06Z</time>
      </trkpt>
      <trkpt lat="48.92868" lon="2.03857">
        <ele>-26.60000038147</ele>
        <time>2013-05-25T13:39:09Z</time>
      </trkpt>
      <trkpt lat="48.92878" lon="2.0385">
        <ele>-27</ele>
        <time>2013-05-25T13:39:18Z</time>
      </trkpt>
      <trkpt lat="48.92887" lon="2.03841">
        <ele>-27.39999961853</ele>
        <time>2013-05-25T13:39:28Z</time>
      </trkpt>
      <trkpt lat="48.92901" lon="2.03832">
        <ele>-26.799999237061</ele>
        <time>2013-05-25T13:39:43Z</time>
      </trkpt>
      <trkpt lat="48.92905" lon="2.03826">
        <ele>-26.799999237061</ele>
        <time>2013-05-25T13:39:49Z</time>
      </trkpt>
      <trkpt lat="48.92908" lon="2.03809">
        <ele>-27.39999961853</ele>
        <time>2013-05-25T13:39:57Z</time>
      </trkpt>
      <trkpt lat="48.92914" lon="2.03797">
        <ele>-27.200000762939</ele>
        <time>2013-05-25T13:40:07Z</time>
      </trkpt>
      <trkpt lat="48.92931" lon="2.03769">
        <ele>-27.60000038147</ele>
        <time>2013-05-25T13:40:28Z</time>
      </trkpt>
      <trkpt lat="48.92933" lon="2.03769">
        <ele>-28.200000762939</ele>
        <time>2013-05-25T13:40:31Z</time>
      </trkpt>
      <trkpt lat="48.92936" lon="2.03771">
        <ele>-28.200000762939</ele>
        <time>2013-05-25T13:40:43Z</time>
      </trkpt>
      <trkpt lat="48.92945" lon="2.03767">
        <ele>-28.200000762939</ele>
        <time>2013-05-25T13:41:09Z</time>
      </trkpt>
      <trkpt lat="48.92944" lon="2.03769">
        <ele>-28.39999961853</ele>
        <time>2013-05-25T13:41:12Z</time>
      </trkpt>
      <trkpt lat="48.92942" lon="2.03771">
        <ele>-28.39999961853</ele>
        <time>2013-05-25T13:41:16Z</time>
      </trkpt>
      <trkpt lat="48.92946" lon="2.03774">
        <ele>-28.60000038147</ele>
        <time>2013-05-25T13:41:19Z</time>
      </trkpt>
      <trkpt lat="48.92952" lon="2.03778">
        <ele>-28.799999237061</ele>
        <time>2013-05-25T13:41:35Z</time>
      </trkpt>
      <trkpt lat="48.92946" lon="2.03784">
        <ele>-29</ele>
        <time>2013-05-25T13:41:56Z</time>
      </trkpt>
      <trkpt lat="48.92947" lon="2.03784">
        <ele>-29.39999961853</ele>
        <time>2013-05-25T13:42:40Z</time>
      </trkpt>
      <trkpt lat="48.92951" lon="2.03783">
        <ele>-29.39999961853</ele>
        <time>2013-05-25T13:42:44Z</time>
      </trkpt>
      <trkpt lat="48.92958" lon="2.03781">
        <ele>-29.60000038147</ele>
        <time>2013-05-25T13:43:11Z</time>
      </trkpt>
      <trkpt lat="48.92956" lon="2.03782">
        <ele>-29.60000038147</ele>
        <time>2013-05-25T13:43:16Z</time>
      </trkpt>
      <trkpt lat="48.92954" lon="2.03783">
        <ele>-29.39999961853</ele>
        <time>2013-05-25T13:43:26Z</time>
      </trkpt>
      <trkpt lat="48.92956" lon="2.03779">
        <ele>-29.60000038147</ele>
        <time>2013-05-25T13:43:29Z</time>
      </trkpt>
      <trkpt lat="48.92962" lon="2.03775">
        <ele>-30.200000762939</ele>
        <time>2013-05-25T13:43:52Z</time>
      </trkpt>
      <trkpt lat="48.92963" lon="2.03775">
        <ele>-30.60000038147</ele>
        <time>2013-05-25T13:44:09Z</time>
      </trkpt>
      <trkpt lat="48.92973" lon="2.03761">
        <ele>-30.60000038147</ele>
        <time>2013-05-25T13:44:11Z</time>
      </trkpt>
      <trkpt lat="48.92983" lon="2.03722">
        <ele>-30.60000038147</ele>
        <time>2013-05-25T13:44:24Z</time>
      </trkpt>
      <trkpt lat="48.92983" lon="2.0372">
        <ele>-30.799999237061</ele>
        <time>2013-05-25T13:44:40Z</time>
      </trkpt>
      <trkpt lat="48.92983" lon="2.0372">
        <ele>-30.60000038147</ele>
        <time>2013-05-25T13:45:02Z</time>
      </trkpt>
      <trkpt lat="48.92998" lon="2.03709">
        <ele>-31.60000038147</ele>
        <time>2013-05-25T13:45:14Z</time>
      </trkpt>
      <trkpt lat="48.92999" lon="2.03706">
        <ele>-31</ele>
        <time>2013-05-25T13:45:51Z</time>
      </trkpt>
      <trkpt lat="48.92999" lon="2.03705">
        <ele>-31.200000762939</ele>
        <time>2013-05-25T13:46:06Z</time>
      </trkpt>
      <trkpt lat="48.92999" lon="2.03698">
        <ele>-30.799999237061</ele>
        <time>2013-05-25T13:46:11Z</time>
      </trkpt>
      <trkpt lat="48.93009" lon="2.03686">
        <ele>-31.799999237061</ele>
        <time>2013-05-25T13:46:24Z</time>
      </trkpt>
      <trkpt lat="48.93024" lon="2.03673">
        <ele>-31.60000038147</ele>
        <time>2013-05-25T13:46:41Z</time>
      </trkpt>
      <trkpt lat="48.93025" lon="2.03671">
        <ele>-31.39999961853</ele>
        <time>2013-05-25T13:46:45Z</time>
      </trkpt>
      <trkpt lat="48.93032" lon="2.03656">
        <ele>-31.799999237061</ele>
        <time>2013-05-25T13:46:57Z</time>
      </trkpt>
      <trkpt lat="48.93038" lon="2.03653">
        <ele>-32.400001525879</ele>
        <time>2013-05-25T13:47:04Z</time>
      </trkpt>
      <trkpt lat="48.93039" lon="2.03653">
        <ele>-32.200000762939</ele>
        <time>2013-05-25T13:47:06Z</time>
      </trkpt>
      <trkpt lat="48.93043" lon="2.03651">
        <ele>-32.400001525879</ele>
        <time>2013-05-25T13:47:09Z</time>
      </trkpt>
      <trkpt lat="48.93056" lon="2.03638">
        <ele>-32.599998474121</ele>
        <time>2013-05-25T13:47:19Z</time>
      </trkpt>
      <trkpt lat="48.93069" lon="2.03629">
        <ele>-33.599998474121</ele>
        <time>2013-05-25T13:47:34Z</time>
      </trkpt>
      <trkpt lat="48.9308" lon="2.03621">
        <ele>-33</ele>
        <time>2013-05-25T13:47:46Z</time>
      </trkpt>
      <trkpt lat="48.93081" lon="2.03621">
        <ele>-33</ele>
        <time>2013-05-25T13:47:47Z</time>
      </trkpt>
      <trkpt lat="48.93086" lon="2.03615">
        <ele>-33</ele>
        <time>2013-05-25T13:47:52Z</time>
      </trkpt>
      <trkpt lat="48.93091" lon="2.03603">
        <ele>-33</ele>
        <time>2013-05-25T13:47:57Z</time>
      </trkpt>
      <trkpt lat="48.93098" lon="2.03597">
        <ele>-33.599998474121</ele>
        <time>2013-05-25T13:48:10Z</time>
      </trkpt>
      <trkpt lat="48.931" lon="2.03601">
        <ele>-34.200000762939</ele>
        <time>2013-05-25T13:48:16Z</time>
      </trkpt>
      <trkpt lat="48.93101" lon="2.03615">
        <ele>-33.400001525879</ele>
        <time>2013-05-25T13:48:28Z</time>
      </trkpt>
      <trkpt lat="48.93108" lon="2.03584">
        <ele>-33.799999237061</ele>
        <time>2013-05-25T13:48:32Z</time>
      </trkpt>
      <trkpt lat="48.93111" lon="2.0357">
        <ele>-33.400001525879</ele>
        <time>2013-05-25T13:48:53Z</time>
      </trkpt>
      <trkpt lat="48.93109" lon="2.03559">
        <ele>-33.599998474121</ele>
        <time>2013-05-25T13:49:40Z</time>
      </trkpt>
      <trkpt lat="48.9311" lon="2.03558">
        <ele>-33.400001525879</ele>
        <time>2013-05-25T13:49:42Z</time>
      </trkpt>
      <trkpt lat="48.93116" lon="2.03557">
        <ele>-33</ele>
        <time>2013-05-25T13:49:46Z</time>
      </trkpt>
      <trkpt lat="48.9312" lon="2.03551">
        <ele>-33.200000762939</ele>
        <time>2013-05-25T13:50:14Z</time>
      </trkpt>
      <trkpt lat="48.9312" lon="2.03552">
        <ele>-33.200000762939</ele>
        <time>2013-05-25T13:51:00Z</time>
      </trkpt>
      <trkpt lat="48.93125" lon="2.03546">
        <ele>-33.200000762939</ele>
        <time>2013-05-25T13:51:05Z</time>
      </trkpt>
      <trkpt lat="48.93122" lon="2.0354">
        <ele>-33.200000762939</ele>
        <time>2013-05-25T13:51:09Z</time>
      </trkpt>
      <trkpt lat="48.93117" lon="2.03524">
        <ele>-33.200000762939</ele>
        <time>2013-05-25T13:51:33Z</time>
      </trkpt>
      <trkpt lat="48.9312" lon="2.03514">
        <ele>-31.799999237061</ele>
        <time>2013-05-25T13:51:58Z</time>
      </trkpt>
      <trkpt lat="48.93123" lon="2.0352">
        <ele>-33.200000762939</ele>
        <time>2013-05-25T13:52:12Z</time>
      </trkpt>
      <trkpt lat="48.93128" lon="2.03522">
        <ele>-33.400001525879</ele>
        <time>2013-05-25T13:52:21Z</time>
      </trkpt>
      <trkpt lat="48.93135" lon="2.03523">
        <ele>-33</ele>
        <time>2013-05-25T13:52:31Z</time>
      </trkpt>
      <trkpt lat="48.93138" lon="2.03526">
        <ele>-32.599998474121</ele>
        <time>2013-05-25T13:52:37Z</time>
      </trkpt>
      <trkpt lat="48.93143" lon="2.03527">
        <ele>-32.599998474121</ele>
        <time>2013-05-25T13:52:59Z</time>
      </trkpt>
      <trkpt lat="48.93156" lon="2.03525">
        <ele>-32.799999237061</ele>
        <time>2013-05-25T13:53:10Z</time>
      </trkpt>
      <trkpt lat="48.93153" lon="2.03522">
        <ele>-32.599998474121</ele>
        <time>2013-05-25T13:53:26Z</time>
      </trkpt>
      <trkpt lat="48.93142" lon="2.03514">
        <ele>-32.400001525879</ele>
        <time>2013-05-25T13:53:38Z</time>
      </trkpt>
      <trkpt lat="48.93139" lon="2.03514">
        <ele>-32.599998474121</ele>
        <time>2013-05-25T13:53:41Z</time>
      </trkpt>
      <trkpt lat="48.9313" lon="2.035">
        <ele>-32</ele>
        <time>2013-05-25T13:54:00Z</time>
      </trkpt>
      <trkpt lat="48.93133" lon="2.03497">
        <ele>-32.400001525879</ele>
        <time>2013-05-25T13:54:04Z</time>
      </trkpt>
      <trkpt lat="48.93141" lon="2.03501">
        <ele>-33.200000762939</ele>
        <time>2013-05-25T13:54:19Z</time>
      </trkpt>
      <trkpt lat="48.93156" lon="2.03513">
        <ele>-32.799999237061</ele>
        <time>2013-05-25T13:54:27Z</time>
      </trkpt>
      <trkpt lat="48.93156" lon="2.03514">
        <ele>-33</ele>
        <time>2013-05-25T13:54:30Z</time>
      </trkpt>
      <trkpt lat="48.93169" lon="2.03546">
        <ele>-32.400001525879</ele>
        <time>2013-05-25T13:54:49Z</time>
      </trkpt>
      <trkpt lat="48.93168" lon="2.03554">
        <ele>-32.200000762939</ele>
        <time>2013-05-25T13:54:54Z</time>
      </trkpt>
      <trkpt lat="48.93173" lon="2.03556">
        <ele>-33.200000762939</ele>
        <time>2013-05-25T13:55:02Z</time>
      </trkpt>
      <trkpt lat="48.93179" lon="2.03567">
        <ele>-33.400001525879</ele>
        <time>2013-05-25T13:55:07Z</time>
      </trkpt>
      <trkpt lat="48.93182" lon="2.0357">
        <ele>-31.799999237061</ele>
        <time>2013-05-25T13:55:10Z</time>
      </trkpt>
      <trkpt lat="48.93192" lon="2.03599">
        <ele>-31.60000038147</ele>
        <time>2013-05-25T13:55:28Z</time>
      </trkpt>
      <trkpt lat="48.93196" lon="2.03609">
        <ele>-31.39999961853</ele>
        <time>2013-05-25T13:55:34Z</time>
      </trkpt>
      <trkpt lat="48.93202" lon="2.03622">
        <ele>-32</ele>
        <time>2013-05-25T13:55:47Z</time>
      </trkpt>
      <trkpt lat="48.93205" lon="2.03621">
        <ele>-32</ele>
        <time>2013-05-25T13:55:50Z</time>
      </trkpt>
      <trkpt lat="48.93206" lon="2.03618">
        <ele>-31.39999961853</ele>
        <time>2013-05-25T13:56:04Z</time>
      </trkpt>
      <trkpt lat="48.93197" lon="2.03598">
        <ele>-31.200000762939</ele>
        <time>2013-05-25T13:56:19Z</time>
      </trkpt>
      <trkpt lat="48.9318" lon="2.03565">
        <ele>-31.200000762939</ele>
        <time>2013-05-25T13:56:41Z</time>
      </trkpt>
      <trkpt lat="48.93176" lon="2.03558">
        <ele>-31.799999237061</ele>
        <time>2013-05-25T13:56:46Z</time>
      </trkpt>
      <trkpt lat="48.93155" lon="2.03533">
        <ele>-30.60000038147</ele>
        <time>2013-05-25T13:57:11Z</time>
      </trkpt>
      <trkpt lat="48.93153" lon="2.03534">
        <ele>-30.799999237061</ele>
        <time>2013-05-25T13:57:37Z</time>
      </trkpt>
      <trkpt lat="48.93153" lon="2.03541">
        <ele>-30.799999237061</ele>
        <time>2013-05-25T13:57:50Z</time>
      </trkpt>
      <trkpt lat="48.93151" lon="2.03544">
        <ele>-30.799999237061</ele>
        <time>2013-05-25T13:58:13Z</time>
      </trkpt>
      <trkpt lat="48.93147" lon="2.03545">
        <ele>-30.799999237061</ele>
        <time>2013-05-25T13:58:19Z</time>
      </trkpt>
      <trkpt lat="48.93151" lon="2.03532">
        <ele>-31</ele>
        <time>2013-05-25T13:58:42Z</time>
      </trkpt>
      <trkpt lat="48.9316" lon="2.03543">
        <ele>-31.200000762939</ele>
        <time>2013-05-25T13:59:05Z</time>
      </trkpt>
      <trkpt lat="48.93164" lon="2.03547">
        <ele>-31.39999961853</ele>
        <time>2013-05-25T13:59:29Z</time>
      </trkpt>
      <trkpt lat="48.93168" lon="2.03552">
        <ele>-31.60000038147</ele>
        <time>2013-05-25T13:59:58Z</time>
      </trkpt>
      <trkpt lat="48.9316" lon="2.03549">
        <ele>-31.39999961853</ele>
        <time>2013-05-25T14:00:15Z</time>
      </trkpt>
      <trkpt lat="48.9316" lon="2.0355">
        <ele>-31.200000762939</ele>
        <time>2013-05-25T14:00:23Z</time>
      </trkpt>
      <trkpt lat="48.93157" lon="2.03543">
        <ele>-31.799999237061</ele>
        <time>2013-05-25T14:00:32Z</time>
      </trkpt>
      <trkpt lat="48.93154" lon="2.03542">
        <ele>-32.200000762939</ele>
        <time>2013-05-25T14:01:00Z</time>
      </trkpt>
      <trkpt lat="48.93148" lon="2.03531">
        <ele>-32.200000762939</ele>
        <time>2013-05-25T14:01:50Z</time>
      </trkpt>
      <trkpt lat="48.93148" lon="2.03529">
        <ele>-32.400001525879</ele>
        <time>2013-05-25T14:03:06Z</time>
      </trkpt>
      <trkpt lat="48.93148" lon="2.03529">
        <ele>-32.599998474121</ele>
        <time>2013-05-25T14:03:21Z</time>
      </trkpt>
      <trkpt lat="48.93149" lon="2.03531">
        <ele>-33.400001525879</ele>
        <time>2013-05-25T14:03:25Z</time>
      </trkpt>
      <trkpt lat="48.93144" lon="2.03522">
        <ele>-33.599998474121</ele>
        <time>2013-05-25T14:03:35Z</time>
      </trkpt>
      <trkpt lat="48.93144" lon="2.03523">
        <ele>-32.799999237061</ele>
        <time>2013-05-25T14:05:17Z</time>
      </trkpt>
      <trkpt lat="48.93144" lon="2.03523">
        <ele>-31.39999961853</ele>
        <time>2013-05-25T14:06:32Z</time>
      </trkpt>
      <trkpt lat="48.93145" lon="2.03521">
        <ele>-31.799999237061</ele>
        <time>2013-05-25T14:06:35Z</time>
      </trkpt>
      <trkpt lat="48.93144" lon="2.0352">
        <ele>-31.200000762939</ele>
        <time>2013-05-25T14:07:13Z</time>
      </trkpt>
      <trkpt lat="48.93134" lon="2.03516">
        <ele>-32</ele>
        <time>2013-05-25T14:08:29Z</time>
      </trkpt>
      <trkpt lat="48.93134" lon="2.03515">
        <ele>-32.200000762939</ele>
        <time>2013-05-25T14:08:30Z</time>
      </trkpt>
      <trkpt lat="48.93127" lon="2.03522">
        <ele>-31.799999237061</ele>
        <time>2013-05-25T14:08:53Z</time>
      </trkpt>
      <trkpt lat="48.93127" lon="2.03522">
        <ele>-32.400001525879</ele>
        <time>2013-05-25T14:08:55Z</time>
      </trkpt>
      <trkpt lat="48.9312" lon="2.03518">
        <ele>-32.400001525879</ele>
        <time>2013-05-25T14:08:58Z</time>
      </trkpt>
      <trkpt lat="48.93114" lon="2.03508">
        <ele>-32.200000762939</ele>
        <time>2013-05-25T14:09:03Z</time>
      </trkpt>
      <trkpt lat="48.93112" lon="2.03504">
        <ele>-32.200000762939</ele>
        <time>2013-05-25T14:09:05Z</time>
      </trkpt>
      <trkpt lat="48.93105" lon="2.035">
        <ele>-32.200000762939</ele>
        <time>2013-05-25T14:09:09Z</time>
      </trkpt>
      <trkpt lat="48.93099" lon="2.03492">
        <ele>-32.599998474121</ele>
        <time>2013-05-25T14:09:16Z</time>
      </trkpt>
      <trkpt lat="48.93081" lon="2.03462">
        <ele>-32</ele>
        <time>2013-05-25T14:09:33Z</time>
      </trkpt>
      <trkpt lat="48.93077" lon="2.03454">
        <ele>-32.200000762939</ele>
        <time>2013-05-25T14:09:38Z</time>
      </trkpt>
      <trkpt lat="48.93076" lon="2.0345">
        <ele>-32.200000762939</ele>
        <time>2013-05-25T14:09:41Z</time>
      </trkpt>
      <trkpt lat="48.93061" lon="2.03425">
        <ele>-31.799999237061</ele>
        <time>2013-05-25T14:09:57Z</time>
      </trkpt>
      <trkpt lat="48.93056" lon="2.03419">
        <ele>-32.200000762939</ele>
        <time>2013-05-25T14:10:04Z</time>
      </trkpt>
      <trkpt lat="48.93055" lon="2.03415">
        <ele>-32</ele>
        <time>2013-05-25T14:10:06Z</time>
      </trkpt>
      <trkpt lat="48.93044" lon="2.03397">
        <ele>-32</ele>
        <time>2013-05-25T14:10:18Z</time>
      </trkpt>
      <trkpt lat="48.93039" lon="2.03391">
        <ele>-32</ele>
        <time>2013-05-25T14:10:27Z</time>
      </trkpt>
      <trkpt lat="48.93044" lon="2.03385">
        <ele>-32</ele>
        <time>2013-05-25T14:10:38Z</time>
      </trkpt>
      <trkpt lat="48.93044" lon="2.03376">
        <ele>-32.400001525879</ele>
        <time>2013-05-25T14:10:42Z</time>
      </trkpt>
      <trkpt lat="48.93043" lon="2.03371">
        <ele>-32.200000762939</ele>
        <time>2013-05-25T14:10:45Z</time>
      </trkpt>
      <trkpt lat="48.93036" lon="2.03363">
        <ele>-32.200000762939</ele>
        <time>2013-05-25T14:10:52Z</time>
      </trkpt>
      <trkpt lat="48.93033" lon="2.03349">
        <ele>-32.400001525879</ele>
        <time>2013-05-25T14:10:59Z</time>
      </trkpt>
      <trkpt lat="48.93032" lon="2.03344">
        <ele>-32.400001525879</ele>
        <time>2013-05-25T14:11:00Z</time>
      </trkpt>
      <trkpt lat="48.93036" lon="2.03315">
        <ele>-32.200000762939</ele>
        <time>2013-05-25T14:11:08Z</time>
      </trkpt>
      <trkpt lat="48.93038" lon="2.03312">
        <ele>-32.400001525879</ele>
        <time>2013-05-25T14:11:09Z</time>
      </trkpt>
      <trkpt lat="48.93032" lon="2.0331">
        <ele>-32.200000762939</ele>
        <time>2013-05-25T14:11:13Z</time>
      </trkpt>
      <trkpt lat="48.93001" lon="2.03292">
        <ele>-32</ele>
        <time>2013-05-25T14:11:35Z</time>
      </trkpt>
      <trkpt lat="48.92996" lon="2.03288">
        <ele>-32</ele>
        <time>2013-05-25T14:11:38Z</time>
      </trkpt>
      <trkpt lat="48.92992" lon="2.03276">
        <ele>-32</ele>
        <time>2013-05-25T14:11:44Z</time>
      </trkpt>
      <trkpt lat="48.92965" lon="2.03223">
        <ele>-32</ele>
        <time>2013-05-25T14:12:10Z</time>
      </trkpt>
      <trkpt lat="48.92963" lon="2.03213">
        <ele>-31.39999961853</ele>
        <time>2013-05-25T14:12:14Z</time>
      </trkpt>
      <trkpt lat="48.9294" lon="2.03168">
        <ele>-31.799999237061</ele>
        <time>2013-05-25T14:12:41Z</time>
      </trkpt>
      <trkpt lat="48.92935" lon="2.03151">
        <ele>-31.799999237061</ele>
        <time>2013-05-25T14:12:52Z</time>
      </trkpt>
      <trkpt lat="48.92935" lon="2.03152">
        <ele>-31.39999961853</ele>
        <time>2013-05-25T14:12:56Z</time>
      </trkpt>
      <trkpt lat="48.92941" lon="2.03151">
        <ele>-31.200000762939</ele>
        <time>2013-05-25T14:13:19Z</time>
      </trkpt>
      <trkpt lat="48.92942" lon="2.03153">
        <ele>-29.60000038147</ele>
        <time>2013-05-25T14:13:37Z</time>
      </trkpt>
      <trkpt lat="48.92941" lon="2.03148">
        <ele>-29.799999237061</ele>
        <time>2013-05-25T14:13:55Z</time>
      </trkpt>
      <trkpt lat="48.92943" lon="2.03143">
        <ele>-29.60000038147</ele>
        <time>2013-05-25T14:14:21Z</time>
      </trkpt>
      <trkpt lat="48.92946" lon="2.03155">
        <ele>-29.60000038147</ele>
        <time>2013-05-25T14:14:26Z</time>
      </trkpt>
      <trkpt lat="48.92949" lon="2.03169">
        <ele>-29.60000038147</ele>
        <time>2013-05-25T14:14:30Z</time>
      </trkpt>
      <trkpt lat="48.9295" lon="2.03166">
        <ele>-30.799999237061</ele>
        <time>2013-05-25T14:14:34Z</time>
      </trkpt>
      <trkpt lat="48.92945" lon="2.03167">
        <ele>-31.39999961853</ele>
        <time>2013-05-25T14:14:44Z</time>
      </trkpt>
      <trkpt lat="48.92947" lon="2.03182">
        <ele>-31</ele>
        <time>2013-05-25T14:15:00Z</time>
      </trkpt>
      <trkpt lat="48.92948" lon="2.03172">
        <ele>-31</ele>
        <time>2013-05-25T14:15:09Z</time>
      </trkpt>
      <trkpt lat="48.92939" lon="2.03148">
        <ele>-31.39999961853</ele>
        <time>2013-05-25T14:15:20Z</time>
      </trkpt>
      <trkpt lat="48.92943" lon="2.03137">
        <ele>-30.799999237061</ele>
        <time>2013-05-25T14:15:34Z</time>
      </trkpt>
      <trkpt lat="48.92947" lon="2.03164">
        <ele>-31</ele>
        <time>2013-05-25T14:15:46Z</time>
      </trkpt>
      <trkpt lat="48.92961" lon="2.03201">
        <ele>-30.799999237061</ele>
        <time>2013-05-25T14:16:03Z</time>
      </trkpt>
      <trkpt lat="48.92964" lon="2.03221">
        <ele>-31</ele>
        <time>2013-05-25T14:16:15Z</time>
      </trkpt>
      <trkpt lat="48.92971" lon="2.03244">
        <ele>-30.60000038147</ele>
        <time>2013-05-25T14:16:28Z</time>
      </trkpt>
      <trkpt lat="48.92976" lon="2.03252">
        <ele>-31.799999237061</ele>
        <time>2013-05-25T14:16:34Z</time>
      </trkpt>
      <trkpt lat="48.92984" lon="2.0327">
        <ele>-30.799999237061</ele>
        <time>2013-05-25T14:16:45Z</time>
      </trkpt>
      <trkpt lat="48.92988" lon="2.03277">
        <ele>-30.799999237061</ele>
        <time>2013-05-25T14:16:49Z</time>
      </trkpt>
      <trkpt lat="48.92993" lon="2.03286">
        <ele>-30.39999961853</ele>
        <time>2013-05-25T14:16:55Z</time>
      </trkpt>
      <trkpt lat="48.92997" lon="2.03297">
        <ele>-30.200000762939</ele>
        <time>2013-05-25T14:17:03Z</time>
      </trkpt>
      <trkpt lat="48.93009" lon="2.03307">
        <ele>-30.60000038147</ele>
        <time>2013-05-25T14:17:14Z</time>
      </trkpt>
      <trkpt lat="48.93015" lon="2.03305">
        <ele>-30.60000038147</ele>
        <time>2013-05-25T14:17:19Z</time>
      </trkpt>
      <trkpt lat="48.93022" lon="2.03337">
        <ele>-30.39999961853</ele>
        <time>2013-05-25T14:17:31Z</time>
      </trkpt>
      <trkpt lat="48.93044" lon="2.0337">
        <ele>-30.39999961853</ele>
        <time>2013-05-25T14:17:55Z</time>
      </trkpt>
      <trkpt lat="48.93047" lon="2.03376">
        <ele>-30.60000038147</ele>
        <time>2013-05-25T14:17:59Z</time>
      </trkpt>
      <trkpt lat="48.93055" lon="2.03394">
        <ele>-30.60000038147</ele>
        <time>2013-05-25T14:18:11Z</time>
      </trkpt>
      <trkpt lat="48.93055" lon="2.03395">
        <ele>-30.60000038147</ele>
        <time>2013-05-25T14:18:12Z</time>
      </trkpt>
      <trkpt lat="48.9306" lon="2.03407">
        <ele>-30.60000038147</ele>
        <time>2013-05-25T14:18:18Z</time>
      </trkpt>
      <trkpt lat="48.9307" lon="2.0343">
        <ele>-29.799999237061</ele>
        <time>2013-05-25T14:18:36Z</time>
      </trkpt>
      <trkpt lat="48.93075" lon="2.03439">
        <ele>-29.799999237061</ele>
        <time>2013-05-25T14:18:43Z</time>
      </trkpt>
      <trkpt lat="48.93079" lon="2.03445">
        <ele>-30</ele>
        <time>2013-05-25T14:18:47Z</time>
      </trkpt>
      <trkpt lat="48.93085" lon="2.03458">
        <ele>-29.799999237061</ele>
        <time>2013-05-25T14:18:55Z</time>
      </trkpt>
      <trkpt lat="48.93088" lon="2.03462">
        <ele>-30.39999961853</ele>
        <time>2013-05-25T14:18:57Z</time>
      </trkpt>
      <trkpt lat="48.93092" lon="2.03474">
        <ele>-29.799999237061</ele>
        <time>2013-05-25T14:19:02Z</time>
      </trkpt>
      <trkpt lat="48.93096" lon="2.0348">
        <ele>-30.200000762939</ele>
        <time>2013-05-25T14:19:08Z</time>
      </trkpt>
      <trkpt lat="48.93098" lon="2.03489">
        <ele>-29.799999237061</ele>
        <time>2013-05-25T14:19:13Z</time>
      </trkpt>
      <trkpt lat="48.93102" lon="2.03497">
        <ele>-30.39999961853</ele>
        <time>2013-05-25T14:19:22Z</time>
      </trkpt>
      <trkpt lat="48.93103" lon="2.035">
        <ele>-30.39999961853</ele>
        <time>2013-05-25T14:19:25Z</time>
      </trkpt>
      <trkpt lat="48.93106" lon="2.03506">
        <ele>-31</ele>
        <time>2013-05-25T14:19:29Z</time>
      </trkpt>
      <trkpt lat="48.93137" lon="2.03517">
        <ele>-29.60000038147</ele>
        <time>2013-05-25T14:19:50Z</time>
      </trkpt>
      <trkpt lat="48.93139" lon="2.03517">
        <ele>-31</ele>
        <time>2013-05-25T14:19:54Z</time>
      </trkpt>
      <trkpt lat="48.93143" lon="2.0352">
        <ele>-30</ele>
        <time>2013-05-25T14:19:57Z</time>
      </trkpt>
      <trkpt lat="48.93161" lon="2.03531">
        <ele>-29.60000038147</ele>
        <time>2013-05-25T14:20:03Z</time>
      </trkpt>
      <trkpt lat="48.93162" lon="2.03534">
        <ele>-30</ele>
        <time>2013-05-25T14:20:05Z</time>
      </trkpt>
      <trkpt lat="48.93165" lon="2.03545">
        <ele>-30.39999961853</ele>
        <time>2013-05-25T14:20:09Z</time>
      </trkpt>
      <trkpt lat="48.93192" lon="2.03605">
        <ele>-29.200000762939</ele>
        <time>2013-05-25T14:20:28Z</time>
      </trkpt>
      <trkpt lat="48.93218" lon="2.03657">
        <ele>-29.799999237061</ele>
        <time>2013-05-25T14:20:46Z</time>
      </trkpt>
      <trkpt lat="48.93219" lon="2.03659">
        <ele>-29.799999237061</ele>
        <time>2013-05-25T14:20:48Z</time>
      </trkpt>
      <trkpt lat="48.93225" lon="2.03672">
        <ele>-30.60000038147</ele>
        <time>2013-05-25T14:20:55Z</time>
      </trkpt>
      <trkpt lat="48.93228" lon="2.03678">
        <ele>-29.60000038147</ele>
        <time>2013-05-25T14:20:59Z</time>
      </trkpt>
      <trkpt lat="48.9323" lon="2.03686">
        <ele>-29.200000762939</ele>
        <time>2013-05-25T14:21:03Z</time>
      </trkpt>
      <trkpt lat="48.93231" lon="2.03709">
        <ele>-29</ele>
        <time>2013-05-25T14:21:18Z</time>
      </trkpt>
      <trkpt lat="48.93228" lon="2.03712">
        <ele>-31</ele>
        <time>2013-05-25T14:21:23Z</time>
      </trkpt>
      <trkpt lat="48.93222" lon="2.03713">
        <ele>-30</ele>
        <time>2013-05-25T14:21:30Z</time>
      </trkpt>
      <trkpt lat="48.93227" lon="2.03725">
        <ele>-29.200000762939</ele>
        <time>2013-05-25T14:21:38Z</time>
      </trkpt>
      <trkpt lat="48.93224" lon="2.03724">
        <ele>-29.60000038147</ele>
        <time>2013-05-25T14:21:47Z</time>
      </trkpt>
      <trkpt lat="48.93217" lon="2.03733">
        <ele>-29.799999237061</ele>
        <time>2013-05-25T14:21:52Z</time>
      </trkpt>
      <trkpt lat="48.93216" lon="2.03739">
        <ele>-30</ele>
        <time>2013-05-25T14:21:55Z</time>
      </trkpt>
      <trkpt lat="48.93213" lon="2.03727">
        <ele>-29.39999961853</ele>
        <time>2013-05-25T14:22:24Z</time>
      </trkpt>
      <trkpt lat="48.93227" lon="2.03741">
        <ele>-31</ele>
        <time>2013-05-25T14:22:58Z</time>
      </trkpt>
      <trkpt lat="48.93249" lon="2.03706">
        <ele>-32.799999237061</ele>
        <time>2013-05-25T14:30:02Z</time>
      </trkpt>
      <trkpt lat="48.93248" lon="2.03706">
        <ele>-32.400001525879</ele>
        <time>2013-05-25T14:30:03Z</time>
      </trkpt>
      <trkpt lat="48.93242" lon="2.037">
        <ele>-31.60000038147</ele>
        <time>2013-05-25T14:30:17Z</time>
      </trkpt>
      <trkpt lat="48.93245" lon="2.03709">
        <ele>-32.400001525879</ele>
        <time>2013-05-25T14:30:26Z</time>
      </trkpt>
      <trkpt lat="48.93246" lon="2.03711">
        <ele>-31</ele>
        <time>2013-05-25T14:30:29Z</time>
      </trkpt>
      <trkpt lat="48.93247" lon="2.03713">
        <ele>-31.60000038147</ele>
        <time>2013-05-25T14:30:31Z</time>
      </trkpt>
      <trkpt lat="48.9326" lon="2.03723">
        <ele>-29.60000038147</ele>
        <time>2013-05-25T14:30:42Z</time>
      </trkpt>
      <trkpt lat="48.93262" lon="2.03728">
        <ele>-31.39999961853</ele>
        <time>2013-05-25T14:30:48Z</time>
      </trkpt>
      <trkpt lat="48.93286" lon="2.03791">
        <ele>-30.39999961853</ele>
        <time>2013-05-25T14:32:37Z</time>
      </trkpt>
      <trkpt lat="48.93283" lon="2.03792">
        <ele>-30</ele>
        <time>2013-05-25T14:32:41Z</time>
      </trkpt>
      <trkpt lat="48.9328" lon="2.03795">
        <ele>-29.60000038147</ele>
        <time>2013-05-25T14:32:52Z</time>
      </trkpt>
      <trkpt lat="48.93287" lon="2.0382">
        <ele>-27.799999237061</ele>
        <time>2013-05-25T14:33:06Z</time>
      </trkpt>
      <trkpt lat="48.93288" lon="2.03825">
        <ele>-28.200000762939</ele>
        <time>2013-05-25T14:33:09Z</time>
      </trkpt>
      <trkpt lat="48.93291" lon="2.03828">
        <ele>-28</ele>
        <time>2013-05-25T14:33:12Z</time>
      </trkpt>
      <trkpt lat="48.93293" lon="2.03828">
        <ele>-28.60000038147</ele>
        <time>2013-05-25T14:33:16Z</time>
      </trkpt>
      <trkpt lat="48.9331" lon="2.03816">
        <ele>-28.200000762939</ele>
        <time>2013-05-25T14:33:28Z</time>
      </trkpt>
      <trkpt lat="48.93309" lon="2.03817">
        <ele>-28.39999961853</ele>
        <time>2013-05-25T14:33:29Z</time>
      </trkpt>
      <trkpt lat="48.93311" lon="2.03813">
        <ele>-27.39999961853</ele>
        <time>2013-05-25T14:33:32Z</time>
      </trkpt>
      <trkpt lat="48.93316" lon="2.03807">
        <ele>-27.200000762939</ele>
        <time>2013-05-25T14:33:37Z</time>
      </trkpt>
      <trkpt lat="48.93321" lon="2.03797">
        <ele>-27</ele>
        <time>2013-05-25T14:33:53Z</time>
      </trkpt>
      <trkpt lat="48.9332" lon="2.03799">
        <ele>-26.799999237061</ele>
        <time>2013-05-25T14:33:58Z</time>
      </trkpt>
      <trkpt lat="48.93303" lon="2.0382">
        <ele>-27.799999237061</ele>
        <time>2013-05-25T14:34:21Z</time>
      </trkpt>
      <trkpt lat="48.93299" lon="2.03822">
        <ele>-28</ele>
        <time>2013-05-25T14:34:46Z</time>
      </trkpt>
      <trkpt lat="48.93294" lon="2.03826">
        <ele>-28.39999961853</ele>
        <time>2013-05-25T14:35:29Z</time>
      </trkpt>
      <trkpt lat="48.93272" lon="2.03835">
        <ele>-28.39999961853</ele>
        <time>2013-05-25T14:35:42Z</time>
      </trkpt>
      <trkpt lat="48.93268" lon="2.03837">
        <ele>-28.60000038147</ele>
        <time>2013-05-25T14:35:53Z</time>
      </trkpt>
      <trkpt lat="48.93266" lon="2.03838">
        <ele>-28.39999961853</ele>
        <time>2013-05-25T14:35:55Z</time>
      </trkpt>
      <trkpt lat="48.93255" lon="2.03841">
        <ele>-29.200000762939</ele>
        <time>2013-05-25T14:36:05Z</time>
      </trkpt>
      <trkpt lat="48.93238" lon="2.03848">
        <ele>-29.39999961853</ele>
        <time>2013-05-25T14:36:22Z</time>
      </trkpt>
      <trkpt lat="48.93237" lon="2.03849">
        <ele>-29.200000762939</ele>
        <time>2013-05-25T14:36:26Z</time>
      </trkpt>
      <trkpt lat="48.93232" lon="2.0385">
        <ele>-29</ele>
        <time>2013-05-25T14:36:48Z</time>
      </trkpt>
      <trkpt lat="48.9323" lon="2.03851">
        <ele>-29.200000762939</ele>
        <time>2013-05-25T14:37:12Z</time>
      </trkpt>
      <trkpt lat="48.93222" lon="2.03849">
        <ele>-28.39999961853</ele>
        <time>2013-05-25T14:37:24Z</time>
      </trkpt>
      <trkpt lat="48.93212" lon="2.03857">
        <ele>-28.39999961853</ele>
        <time>2013-05-25T14:37:31Z</time>
      </trkpt>
      <trkpt lat="48.93197" lon="2.03865">
        <ele>-27.799999237061</ele>
        <time>2013-05-25T14:37:44Z</time>
      </trkpt>
      <trkpt lat="48.93185" lon="2.03863">
        <ele>-27.60000038147</ele>
        <time>2013-05-25T14:37:54Z</time>
      </trkpt>
      <trkpt lat="48.93172" lon="2.03862">
        <ele>-28</ele>
        <time>2013-05-25T14:38:08Z</time>
      </trkpt>
      <trkpt lat="48.93166" lon="2.03881">
        <ele>-28.39999961853</ele>
        <time>2013-05-25T14:38:20Z</time>
      </trkpt>
      <trkpt lat="48.93165" lon="2.03882">
        <ele>-28.39999961853</ele>
        <time>2013-05-25T14:38:23Z</time>
      </trkpt>
      <trkpt lat="48.93137" lon="2.03887">
        <ele>-27.60000038147</ele>
        <time>2013-05-25T14:39:56Z</time>
      </trkpt>
      <trkpt lat="48.93137" lon="2.03886">
        <ele>-27.39999961853</ele>
        <time>2013-05-25T14:39:57Z</time>
      </trkpt>
      <trkpt lat="48.93133" lon="2.03906">
        <ele>-27.799999237061</ele>
        <time>2013-05-25T14:40:07Z</time>
      </trkpt>
      <trkpt lat="48.93132" lon="2.03913">
        <ele>-27.39999961853</ele>
        <time>2013-05-25T14:40:35Z</time>
      </trkpt>
      <trkpt lat="48.93135" lon="2.03912">
        <ele>-27.39999961853</ele>
        <time>2013-05-25T14:40:39Z</time>
      </trkpt>
      <trkpt lat="48.93139" lon="2.03918">
        <ele>-27.60000038147</ele>
        <time>2013-05-25T14:41:02Z</time>
      </trkpt>
      <trkpt lat="48.9314" lon="2.03909">
        <ele>-27.200000762939</ele>
        <time>2013-05-25T14:41:24Z</time>
      </trkpt>
      <trkpt lat="48.93138" lon="2.03911">
        <ele>-27.60000038147</ele>
        <time>2013-05-25T14:41:31Z</time>
      </trkpt>
      <trkpt lat="48.93136" lon="2.03919">
        <ele>-27.200000762939</ele>
        <time>2013-05-25T14:41:55Z</time>
      </trkpt>
      <trkpt lat="48.93136" lon="2.0392">
        <ele>-27</ele>
        <time>2013-05-25T14:41:57Z</time>
      </trkpt>
      <trkpt lat="48.93138" lon="2.03923">
        <ele>-26.799999237061</ele>
        <time>2013-05-25T14:42:00Z</time>
      </trkpt>
      <trkpt lat="48.93142" lon="2.03928">
        <ele>-26.39999961853</ele>
        <time>2013-05-25T14:42:24Z</time>
      </trkpt>
      <trkpt lat="48.9314" lon="2.0392">
        <ele>-24.799999237061</ele>
        <time>2013-05-25T14:44:03Z</time>
      </trkpt>
      <trkpt lat="48.93133" lon="2.03922">
        <ele>-24.60000038147</ele>
        <time>2013-05-25T14:44:26Z</time>
      </trkpt>
      <trkpt lat="48.93128" lon="2.0393">
        <ele>-24</ele>
        <time>2013-05-25T14:44:49Z</time>
      </trkpt>
      <trkpt lat="48.93118" lon="2.03923">
        <ele>-23.200000762939</ele>
        <time>2013-05-25T14:44:59Z</time>
      </trkpt>
      <trkpt lat="48.93111" lon="2.0393">
        <ele>-24</ele>
        <time>2013-05-25T14:45:12Z</time>
      </trkpt>
      <trkpt lat="48.93111" lon="2.03926">
        <ele>-24</ele>
        <time>2013-05-25T14:45:15Z</time>
      </trkpt>
      <trkpt lat="48.93109" lon="2.03923">
        <ele>-23.799999237061</ele>
        <time>2013-05-25T14:45:32Z</time>
      </trkpt>
      <trkpt lat="48.93105" lon="2.03913">
        <ele>-23.200000762939</ele>
        <time>2013-05-25T14:45:47Z</time>
      </trkpt>
      <trkpt lat="48.93105" lon="2.03917">
        <ele>-23.39999961853</ele>
        <time>2013-05-25T14:46:43Z</time>
      </trkpt>
      <trkpt lat="48.93106" lon="2.03918">
        <ele>-23.39999961853</ele>
        <time>2013-05-25T14:46:45Z</time>
      </trkpt>
      <trkpt lat="48.93114" lon="2.03926">
        <ele>-23.200000762939</ele>
        <time>2013-05-25T14:46:57Z</time>
      </trkpt>
      <trkpt lat="48.93118" lon="2.03926">
        <ele>-23.200000762939</ele>
        <time>2013-05-25T14:47:07Z</time>
      </trkpt>
      <trkpt lat="48.93116" lon="2.03927">
        <ele>-23</ele>
        <time>2013-05-25T14:47:37Z</time>
      </trkpt>
      <trkpt lat="48.93119" lon="2.03931">
        <ele>-23.60000038147</ele>
        <time>2013-05-25T14:47:53Z</time>
      </trkpt>
      <trkpt lat="48.93117" lon="2.03931">
        <ele>-22.60000038147</ele>
        <time>2013-05-25T14:48:17Z</time>
      </trkpt>
      <trkpt lat="48.93116" lon="2.03935">
        <ele>-22.799999237061</ele>
        <time>2013-05-25T14:48:57Z</time>
      </trkpt>
      <trkpt lat="48.93099" lon="2.03943">
        <ele>-22.799999237061</ele>
        <time>2013-05-25T14:49:04Z</time>
      </trkpt>
      <trkpt lat="48.93096" lon="2.03953">
        <ele>-22.39999961853</ele>
        <time>2013-05-25T14:49:18Z</time>
      </trkpt>
      <trkpt lat="48.93083" lon="2.03969">
        <ele>-22.39999961853</ele>
        <time>2013-05-25T14:49:50Z</time>
      </trkpt>
      <trkpt lat="48.9308" lon="2.03972">
        <ele>-22.60000038147</ele>
        <time>2013-05-25T14:49:56Z</time>
      </trkpt>
      <trkpt lat="48.93079" lon="2.03987">
        <ele>-22.60000038147</ele>
        <time>2013-05-25T14:50:04Z</time>
      </trkpt>
      <trkpt lat="48.93079" lon="2.03989">
        <ele>-22.60000038147</ele>
        <time>2013-05-25T14:50:05Z</time>
      </trkpt>
      <trkpt lat="48.93067" lon="2.04002">
        <ele>-21.799999237061</ele>
        <time>2013-05-25T14:50:20Z</time>
      </trkpt>
      <trkpt lat="48.93063" lon="2.04011">
        <ele>-22</ele>
        <time>2013-05-25T14:50:30Z</time>
      </trkpt>
      <trkpt lat="48.93062" lon="2.04013">
        <ele>-22</ele>
        <time>2013-05-25T14:50:58Z</time>
      </trkpt>
      <trkpt lat="48.9306" lon="2.04015">
        <ele>-21.799999237061</ele>
        <time>2013-05-25T14:51:54Z</time>
      </trkpt>
      <trkpt lat="48.93064" lon="2.04012">
        <ele>-22</ele>
        <time>2013-05-25T14:52:17Z</time>
      </trkpt>
      <trkpt lat="48.93067" lon="2.04005">
        <ele>-22.200000762939</ele>
        <time>2013-05-25T14:52:39Z</time>
      </trkpt>
      <trkpt lat="48.93067" lon="2.04005">
        <ele>-22.39999961853</ele>
        <time>2013-05-25T14:52:53Z</time>
      </trkpt>
      <trkpt lat="48.93068" lon="2.04006">
        <ele>-21.200000762939</ele>
        <time>2013-05-25T14:52:55Z</time>
      </trkpt>
      <trkpt lat="48.9307" lon="2.0401">
        <ele>-21.799999237061</ele>
        <time>2013-05-25T14:52:58Z</time>
      </trkpt>
      <trkpt lat="48.93071" lon="2.04015">
        <ele>-21.60000038147</ele>
        <time>2013-05-25T14:53:29Z</time>
      </trkpt>
      <trkpt lat="48.93069" lon="2.04014">
        <ele>-21.799999237061</ele>
        <time>2013-05-25T14:53:47Z</time>
      </trkpt>
      <trkpt lat="48.93054" lon="2.04035">
        <ele>-21.200000762939</ele>
        <time>2013-05-25T14:54:09Z</time>
      </trkpt>
      <trkpt lat="48.93056" lon="2.04034">
        <ele>-21.799999237061</ele>
        <time>2013-05-25T14:54:22Z</time>
      </trkpt>
      <trkpt lat="48.93058" lon="2.04032">
        <ele>-21.799999237061</ele>
        <time>2013-05-25T14:54:24Z</time>
      </trkpt>
      <trkpt lat="48.9306" lon="2.04029">
        <ele>-21.39999961853</ele>
        <time>2013-05-25T14:54:27Z</time>
      </trkpt>
      <trkpt lat="48.93054" lon="2.04032">
        <ele>-22</ele>
        <time>2013-05-25T14:54:32Z</time>
      </trkpt>
      <trkpt lat="48.9305" lon="2.04035">
        <ele>-21.799999237061</ele>
        <time>2013-05-25T14:54:37Z</time>
      </trkpt>
      <trkpt lat="48.93049" lon="2.0404">
        <ele>-21.200000762939</ele>
        <time>2013-05-25T14:55:04Z</time>
      </trkpt>
      <trkpt lat="48.93044" lon="2.0405">
        <ele>-20.799999237061</ele>
        <time>2013-05-25T14:55:31Z</time>
      </trkpt>
      <trkpt lat="48.93045" lon="2.04051">
        <ele>-21.39999961853</ele>
        <time>2013-05-25T14:56:26Z</time>
      </trkpt>
      <trkpt lat="48.93047" lon="2.04032">
        <ele>-20.39999961853</ele>
        <time>2013-05-25T14:56:39Z</time>
      </trkpt>
      <trkpt lat="48.93047" lon="2.04032">
        <ele>-20.60000038147</ele>
        <time>2013-05-25T14:56:41Z</time>
      </trkpt>
      <trkpt lat="48.93056" lon="2.04009">
        <ele>-21.39999961853</ele>
        <time>2013-05-25T14:56:54Z</time>
      </trkpt>
      <trkpt lat="48.93056" lon="2.03999">
        <ele>-20.799999237061</ele>
        <time>2013-05-25T14:56:59Z</time>
      </trkpt>
      <trkpt lat="48.93057" lon="2.03997">
        <ele>-20.60000038147</ele>
        <time>2013-05-25T14:57:06Z</time>
      </trkpt>
      <trkpt lat="48.93053" lon="2.03989">
        <ele>-20.39999961853</ele>
        <time>2013-05-25T14:57:15Z</time>
      </trkpt>
      <trkpt lat="48.93051" lon="2.03985">
        <ele>-20.200000762939</ele>
        <time>2013-05-25T14:57:20Z</time>
      </trkpt>
      <trkpt lat="48.93044" lon="2.0397">
        <ele>-20</ele>
        <time>2013-05-25T14:57:39Z</time>
      </trkpt>
      <trkpt lat="48.93033" lon="2.03957">
        <ele>-19.799999237061</ele>
        <time>2013-05-25T14:57:57Z</time>
      </trkpt>
      <trkpt lat="48.93033" lon="2.03957">
        <ele>-19.60000038147</ele>
        <time>2013-05-25T14:58:21Z</time>
      </trkpt>
      <trkpt lat="48.93026" lon="2.03958">
        <ele>-20.39999961853</ele>
        <time>2013-05-25T14:58:40Z</time>
      </trkpt>
      <trkpt lat="48.93026" lon="2.03958">
        <ele>-20.60000038147</ele>
        <time>2013-05-25T14:58:51Z</time>
      </trkpt>
      <trkpt lat="48.93024" lon="2.03967">
        <ele>-21.200000762939</ele>
        <time>2013-05-25T14:58:59Z</time>
      </trkpt>
      <trkpt lat="48.93027" lon="2.03975">
        <ele>-21.200000762939</ele>
        <time>2013-05-25T14:59:02Z</time>
      </trkpt>
      <trkpt lat="48.93044" lon="2.03996">
        <ele>-21.200000762939</ele>
        <time>2013-05-25T14:59:05Z</time>
      </trkpt>
      <trkpt lat="48.93064" lon="2.04016">
        <ele>-21.60000038147</ele>
        <time>2013-05-25T14:59:18Z</time>
      </trkpt>
      <trkpt lat="48.93066" lon="2.04017">
        <ele>-21.60000038147</ele>
        <time>2013-05-25T14:59:42Z</time>
      </trkpt>
      <trkpt lat="48.93068" lon="2.04026">
        <ele>-21.799999237061</ele>
        <time>2013-05-25T14:59:47Z</time>
      </trkpt>
      <trkpt lat="48.93067" lon="2.04013">
        <ele>-22.39999961853</ele>
        <time>2013-05-25T15:00:26Z</time>
      </trkpt>
      <trkpt lat="48.93067" lon="2.04013">
        <ele>-22.200000762939</ele>
        <time>2013-05-25T15:00:38Z</time>
      </trkpt>
      <trkpt lat="48.93065" lon="2.03994">
        <ele>-22.60000038147</ele>
        <time>2013-05-25T15:01:04Z</time>
      </trkpt>
      <trkpt lat="48.93061" lon="2.03993">
        <ele>-23.200000762939</ele>
        <time>2013-05-25T15:01:21Z</time>
      </trkpt>
      <trkpt lat="48.93053" lon="2.03999">
        <ele>-22.799999237061</ele>
        <time>2013-05-25T15:01:25Z</time>
      </trkpt>
      <trkpt lat="48.93051" lon="2.04002">
        <ele>-22.799999237061</ele>
        <time>2013-05-25T15:01:26Z</time>
      </trkpt>
      <trkpt lat="48.93027" lon="2.04006">
        <ele>-22.799999237061</ele>
        <time>2013-05-25T15:01:32Z</time>
      </trkpt>
      <trkpt lat="48.93027" lon="2.04009">
        <ele>-23</ele>
        <time>2013-05-25T15:01:36Z</time>
      </trkpt>
      <trkpt lat="48.9303" lon="2.04047">
        <ele>-22.799999237061</ele>
        <time>2013-05-25T15:01:51Z</time>
      </trkpt>
      <trkpt lat="48.93042" lon="2.0408">
        <ele>-22</ele>
        <time>2013-05-25T15:02:03Z</time>
      </trkpt>
      <trkpt lat="48.93042" lon="2.04089">
        <ele>-22</ele>
        <time>2013-05-25T15:02:10Z</time>
      </trkpt>
      <trkpt lat="48.9304" lon="2.04094">
        <ele>-21.799999237061</ele>
        <time>2013-05-25T15:02:15Z</time>
      </trkpt>
      <trkpt lat="48.93033" lon="2.04116">
        <ele>-21.799999237061</ele>
        <time>2013-05-25T15:02:28Z</time>
      </trkpt>
      <trkpt lat="48.93017" lon="2.04138">
        <ele>-21.200000762939</ele>
        <time>2013-05-25T15:02:48Z</time>
      </trkpt>
      <trkpt lat="48.93008" lon="2.0414">
        <ele>-21.200000762939</ele>
        <time>2013-05-25T15:02:57Z</time>
      </trkpt>
      <trkpt lat="48.93007" lon="2.04144">
        <ele>-21.200000762939</ele>
        <time>2013-05-25T15:03:01Z</time>
      </trkpt>
      <trkpt lat="48.92994" lon="2.04172">
        <ele>-21</ele>
        <time>2013-05-25T15:03:21Z</time>
      </trkpt>
      <trkpt lat="48.92988" lon="2.04181">
        <ele>-20.60000038147</ele>
        <time>2013-05-25T15:03:36Z</time>
      </trkpt>
      <trkpt lat="48.92988" lon="2.04181">
        <ele>-20.39999961853</ele>
        <time>2013-05-25T15:03:43Z</time>
      </trkpt>
      <trkpt lat="48.92992" lon="2.04189">
        <ele>-20.200000762939</ele>
        <time>2013-05-25T15:04:00Z</time>
      </trkpt>
      <trkpt lat="48.93" lon="2.04213">
        <ele>-20</ele>
        <time>2013-05-25T15:04:28Z</time>
      </trkpt>
      <trkpt lat="48.93004" lon="2.04218">
        <ele>-19.200000762939</ele>
        <time>2013-05-25T15:04:41Z</time>
      </trkpt>
      <trkpt lat="48.9302" lon="2.04212">
        <ele>-19.799999237061</ele>
        <time>2013-05-25T15:04:47Z</time>
      </trkpt>
      <trkpt lat="48.93021" lon="2.04214">
        <ele>-19.39999961853</ele>
        <time>2013-05-25T15:04:50Z</time>
      </trkpt>
      <trkpt lat="48.93022" lon="2.04216">
        <ele>-19.200000762939</ele>
        <time>2013-05-25T15:05:08Z</time>
      </trkpt>
      <trkpt lat="48.93027" lon="2.04214">
        <ele>-20.60000038147</ele>
        <time>2013-05-25T15:05:19Z</time>
      </trkpt>
      <trkpt lat="48.93026" lon="2.04213">
        <ele>-20.200000762939</ele>
        <time>2013-05-25T15:05:22Z</time>
      </trkpt>
      <trkpt lat="48.93022" lon="2.04205">
        <ele>-20</ele>
        <time>2013-05-25T15:05:29Z</time>
      </trkpt>
      <trkpt lat="48.93023" lon="2.04213">
        <ele>-19.39999961853</ele>
        <time>2013-05-25T15:05:49Z</time>
      </trkpt>
      <trkpt lat="48.93022" lon="2.04216">
        <ele>-19</ele>
        <time>2013-05-25T15:05:52Z</time>
      </trkpt>
      <trkpt lat="48.93015" lon="2.04221">
        <ele>-19.39999961853</ele>
        <time>2013-05-25T15:06:15Z</time>
      </trkpt>
      <trkpt lat="48.93033" lon="2.04254">
        <ele>-19.200000762939</ele>
        <time>2013-05-25T15:06:36Z</time>
      </trkpt>
      <trkpt lat="48.93057" lon="2.04276">
        <ele>-18.39999961853</ele>
        <time>2013-05-25T15:06:53Z</time>
      </trkpt>
      <trkpt lat="48.93062" lon="2.04279">
        <ele>-18.200000762939</ele>
        <time>2013-05-25T15:06:55Z</time>
      </trkpt>
      <trkpt lat="48.93064" lon="2.0428">
        <ele>-20</ele>
        <time>2013-05-25T15:07:02Z</time>
      </trkpt>
      <trkpt lat="48.9306" lon="2.04291">
        <ele>-18.799999237061</ele>
        <time>2013-05-25T15:07:25Z</time>
      </trkpt>
      <trkpt lat="48.93065" lon="2.04291">
        <ele>-19.799999237061</ele>
        <time>2013-05-25T15:07:32Z</time>
      </trkpt>
      <trkpt lat="48.93073" lon="2.04292">
        <ele>-20</ele>
        <time>2013-05-25T15:07:38Z</time>
      </trkpt>
      <trkpt lat="48.9308" lon="2.04299">
        <ele>-19.799999237061</ele>
        <time>2013-05-25T15:08:10Z</time>
      </trkpt>
      <trkpt lat="48.93085" lon="2.04298">
        <ele>-19.60000038147</ele>
        <time>2013-05-25T15:08:21Z</time>
      </trkpt>
      <trkpt lat="48.93085" lon="2.04298">
        <ele>-19.60000038147</ele>
        <time>2013-05-25T15:08:30Z</time>
      </trkpt>
      <trkpt lat="48.93087" lon="2.04301">
        <ele>-19.799999237061</ele>
        <time>2013-05-25T15:08:34Z</time>
      </trkpt>
      <trkpt lat="48.93088" lon="2.04306">
        <ele>-19.60000038147</ele>
        <time>2013-05-25T15:08:38Z</time>
      </trkpt>
      <trkpt lat="48.93089" lon="2.0431">
        <ele>-19</ele>
        <time>2013-05-25T15:09:03Z</time>
      </trkpt>
      <trkpt lat="48.93084" lon="2.04304">
        <ele>-19.200000762939</ele>
        <time>2013-05-25T15:09:26Z</time>
      </trkpt>
      <trkpt lat="48.93072" lon="2.04279">
        <ele>-19.60000038147</ele>
        <time>2013-05-25T15:09:38Z</time>
      </trkpt>
      <trkpt lat="48.9307" lon="2.04277">
        <ele>-19.60000038147</ele>
        <time>2013-05-25T15:09:41Z</time>
      </trkpt>
      <trkpt lat="48.93065" lon="2.04269">
        <ele>-20.799999237061</ele>
        <time>2013-05-25T15:09:55Z</time>
      </trkpt>
      <trkpt lat="48.93062" lon="2.04264">
        <ele>-19.39999961853</ele>
        <time>2013-05-25T15:10:18Z</time>
      </trkpt>
      <trkpt lat="48.93044" lon="2.04249">
        <ele>-19.39999961853</ele>
        <time>2013-05-25T15:10:31Z</time>
      </trkpt>
      <trkpt lat="48.93029" lon="2.04246">
        <ele>-19.39999961853</ele>
        <time>2013-05-25T15:10:39Z</time>
      </trkpt>
      <trkpt lat="48.93007" lon="2.04255">
        <ele>-18.799999237061</ele>
        <time>2013-05-25T15:10:57Z</time>
      </trkpt>
      <trkpt lat="48.92996" lon="2.04273">
        <ele>-18.60000038147</ele>
        <time>2013-05-25T15:11:12Z</time>
      </trkpt>
      <trkpt lat="48.92991" lon="2.04285">
        <ele>-18.200000762939</ele>
        <time>2013-05-25T15:11:22Z</time>
      </trkpt>
      <trkpt lat="48.92977" lon="2.04305">
        <ele>-17.60000038147</ele>
        <time>2013-05-25T15:11:46Z</time>
      </trkpt>
      <trkpt lat="48.92974" lon="2.04309">
        <ele>-17.60000038147</ele>
        <time>2013-05-25T15:11:58Z</time>
      </trkpt>
      <trkpt lat="48.92972" lon="2.04312">
        <ele>-17.60000038147</ele>
        <time>2013-05-25T15:12:00Z</time>
      </trkpt>
      <trkpt lat="48.92973" lon="2.04324">
        <ele>-18.200000762939</ele>
        <time>2013-05-25T15:12:15Z</time>
      </trkpt>
      <trkpt lat="48.92967" lon="2.04325">
        <ele>-18</ele>
        <time>2013-05-25T15:12:20Z</time>
      </trkpt>
      <trkpt lat="48.92965" lon="2.04323">
        <ele>-18</ele>
        <time>2013-05-25T15:12:22Z</time>
      </trkpt>
      <trkpt lat="48.92963" lon="2.04314">
        <ele>-18.200000762939</ele>
        <time>2013-05-25T15:12:28Z</time>
      </trkpt>
      <trkpt lat="48.92947" lon="2.04297">
        <ele>-18.799999237061</ele>
        <time>2013-05-25T15:12:41Z</time>
      </trkpt>
      <trkpt lat="48.92948" lon="2.04279">
        <ele>-18.60000038147</ele>
        <time>2013-05-25T15:12:54Z</time>
      </trkpt>
      <trkpt lat="48.92947" lon="2.04278">
        <ele>-19</ele>
        <time>2013-05-25T15:13:01Z</time>
      </trkpt>
      <trkpt lat="48.92946" lon="2.04276">
        <ele>-18.799999237061</ele>
        <time>2013-05-25T15:13:07Z</time>
      </trkpt>
      <trkpt lat="48.92944" lon="2.04267">
        <ele>-19</ele>
        <time>2013-05-25T15:13:21Z</time>
      </trkpt>
      <trkpt lat="48.92944" lon="2.04267">
        <ele>-19.200000762939</ele>
        <time>2013-05-25T15:13:25Z</time>
      </trkpt>
      <trkpt lat="48.92942" lon="2.04266">
        <ele>-19.200000762939</ele>
        <time>2013-05-25T15:13:27Z</time>
      </trkpt>
      <trkpt lat="48.92934" lon="2.04269">
        <ele>-19.200000762939</ele>
        <time>2013-05-25T15:13:46Z</time>
      </trkpt>
      <trkpt lat="48.92934" lon="2.04269">
        <ele>-18.799999237061</ele>
        <time>2013-05-25T15:14:13Z</time>
      </trkpt>
      <trkpt lat="48.92934" lon="2.04269">
        <ele>-20.39999961853</ele>
        <time>2013-05-25T15:14:16Z</time>
      </trkpt>
      <trkpt lat="48.92938" lon="2.04273">
        <ele>-19.60000038147</ele>
        <time>2013-05-25T15:14:19Z</time>
      </trkpt>
      <trkpt lat="48.92936" lon="2.04284">
        <ele>-19.799999237061</ele>
        <time>2013-05-25T15:14:25Z</time>
      </trkpt>
      <trkpt lat="48.92935" lon="2.04296">
        <ele>-19.39999961853</ele>
        <time>2013-05-25T15:14:42Z</time>
      </trkpt>
      <trkpt lat="48.9294" lon="2.04298">
        <ele>-19</ele>
        <time>2013-05-25T15:14:50Z</time>
      </trkpt>
      <trkpt lat="48.92938" lon="2.04293">
        <ele>-19.39999961853</ele>
        <time>2013-05-25T15:14:55Z</time>
      </trkpt>
      <trkpt lat="48.92942" lon="2.04265">
        <ele>-20</ele>
        <time>2013-05-25T15:15:00Z</time>
      </trkpt>
      <trkpt lat="48.92941" lon="2.04265">
        <ele>-19.200000762939</ele>
        <time>2013-05-25T15:15:12Z</time>
      </trkpt>
      <trkpt lat="48.92935" lon="2.04273">
        <ele>-19.39999961853</ele>
        <time>2013-05-25T15:15:16Z</time>
      </trkpt>
      <trkpt lat="48.92932" lon="2.04274">
        <ele>-19.39999961853</ele>
        <time>2013-05-25T15:15:39Z</time>
      </trkpt>
      <trkpt lat="48.92932" lon="2.04272">
        <ele>-19</ele>
        <time>2013-05-25T15:16:27Z</time>
      </trkpt>
      <trkpt lat="48.92933" lon="2.04273">
        <ele>-19.60000038147</ele>
        <time>2013-05-25T15:17:35Z</time>
      </trkpt>
      <trkpt lat="48.92929" lon="2.04274">
        <ele>-19</ele>
        <time>2013-05-25T15:19:03Z</time>
      </trkpt>
      <trkpt lat="48.92929" lon="2.04275">
        <ele>-18.799999237061</ele>
        <time>2013-05-25T15:19:09Z</time>
      </trkpt>
      <trkpt lat="48.92929" lon="2.0428">
        <ele>-19</ele>
        <time>2013-05-25T15:19:12Z</time>
      </trkpt>
      <trkpt lat="48.92926" lon="2.04291">
        <ele>-19</ele>
        <time>2013-05-25T15:19:21Z</time>
      </trkpt>
      <trkpt lat="48.92911" lon="2.0431">
        <ele>-19</ele>
        <time>2013-05-25T15:19:40Z</time>
      </trkpt>
      <trkpt lat="48.92902" lon="2.04322">
        <ele>-18</ele>
        <time>2013-05-25T15:19:55Z</time>
      </trkpt>
      <trkpt lat="48.92902" lon="2.04352">
        <ele>-17.39999961853</ele>
        <time>2013-05-25T15:20:06Z</time>
      </trkpt>
      <trkpt lat="48.92895" lon="2.0436">
        <ele>-17.200000762939</ele>
        <time>2013-05-25T15:20:16Z</time>
      </trkpt>
      <trkpt lat="48.92885" lon="2.0438">
        <ele>-17.39999961853</ele>
        <time>2013-05-25T15:21:01Z</time>
      </trkpt>
      <trkpt lat="48.92883" lon="2.04387">
        <ele>-17.200000762939</ele>
        <time>2013-05-25T15:21:10Z</time>
      </trkpt>
      <trkpt lat="48.92875" lon="2.04381">
        <ele>-16.39999961853</ele>
        <time>2013-05-25T15:21:35Z</time>
      </trkpt>
      <trkpt lat="48.92868" lon="2.0437">
        <ele>-18.200000762939</ele>
        <time>2013-05-25T15:22:50Z</time>
      </trkpt>
      <trkpt lat="48.92867" lon="2.04369">
        <ele>-18.200000762939</ele>
        <time>2013-05-25T15:22:51Z</time>
      </trkpt>
      <trkpt lat="48.9286" lon="2.04366">
        <ele>-18</ele>
        <time>2013-05-25T15:23:03Z</time>
      </trkpt>
      <trkpt lat="48.92858" lon="2.04362">
        <ele>-17.799999237061</ele>
        <time>2013-05-25T15:23:08Z</time>
      </trkpt>
      <trkpt lat="48.92857" lon="2.04348">
        <ele>-17.799999237061</ele>
        <time>2013-05-25T15:23:16Z</time>
      </trkpt>
      <trkpt lat="48.92845" lon="2.0434">
        <ele>-17.799999237061</ele>
        <time>2013-05-25T15:23:27Z</time>
      </trkpt>
      <trkpt lat="48.92841" lon="2.04333">
        <ele>-17.799999237061</ele>
        <time>2013-05-25T15:23:33Z</time>
      </trkpt>
      <trkpt lat="48.92829" lon="2.04334">
        <ele>-17.799999237061</ele>
        <time>2013-05-25T15:23:41Z</time>
      </trkpt>
      <trkpt lat="48.92827" lon="2.04337">
        <ele>-17.39999961853</ele>
        <time>2013-05-25T15:23:44Z</time>
      </trkpt>
      <trkpt lat="48.92823" lon="2.04346">
        <ele>-17.60000038147</ele>
        <time>2013-05-25T15:23:51Z</time>
      </trkpt>
      <trkpt lat="48.92822" lon="2.0435">
        <ele>-18.200000762939</ele>
        <time>2013-05-25T15:23:54Z</time>
      </trkpt>
      <trkpt lat="48.92823" lon="2.04361">
        <ele>-17.799999237061</ele>
        <time>2013-05-25T15:23:59Z</time>
      </trkpt>
      <trkpt lat="48.92817" lon="2.04378">
        <ele>-16.799999237061</ele>
        <time>2013-05-25T15:24:30Z</time>
      </trkpt>
      <trkpt lat="48.92817" lon="2.04377">
        <ele>-16.60000038147</ele>
        <time>2013-05-25T15:25:09Z</time>
      </trkpt>
      <trkpt lat="48.92814" lon="2.04372">
        <ele>-16.799999237061</ele>
        <time>2013-05-25T15:25:13Z</time>
      </trkpt>
      <trkpt lat="48.92811" lon="2.04373">
        <ele>-16.39999961853</ele>
        <time>2013-05-25T15:25:23Z</time>
      </trkpt>
      <trkpt lat="48.92818" lon="2.04393">
        <ele>-16.39999961853</ele>
        <time>2013-05-25T15:25:37Z</time>
      </trkpt>
      <trkpt lat="48.92817" lon="2.04388">
        <ele>-16.39999961853</ele>
        <time>2013-05-25T15:25:41Z</time>
      </trkpt>
      <trkpt lat="48.92817" lon="2.04381">
        <ele>-16</ele>
        <time>2013-05-25T15:25:46Z</time>
      </trkpt>
      <trkpt lat="48.92816" lon="2.04376">
        <ele>-16</ele>
        <time>2013-05-25T15:26:46Z</time>
      </trkpt>
      <trkpt lat="48.92816" lon="2.04374">
        <ele>-16.39999961853</ele>
        <time>2013-05-25T15:27:53Z</time>
      </trkpt>
      <trkpt lat="48.92829" lon="2.04384">
        <ele>-16.799999237061</ele>
        <time>2013-05-25T15:28:13Z</time>
      </trkpt>
      <trkpt lat="48.92838" lon="2.04394">
        <ele>-16.60000038147</ele>
        <time>2013-05-25T15:28:35Z</time>
      </trkpt>
      <trkpt lat="48.92844" lon="2.044">
        <ele>-17.200000762939</ele>
        <time>2013-05-25T15:28:40Z</time>
      </trkpt>
      <trkpt lat="48.92861" lon="2.0441">
        <ele>-17</ele>
        <time>2013-05-25T15:28:50Z</time>
      </trkpt>
      <trkpt lat="48.92852" lon="2.04414">
        <ele>-17</ele>
        <time>2013-05-25T15:28:56Z</time>
      </trkpt>
      <trkpt lat="48.92852" lon="2.04414">
        <ele>-17</ele>
        <time>2013-05-25T15:28:58Z</time>
      </trkpt>
      <trkpt lat="48.92856" lon="2.04412">
        <ele>-17.799999237061</ele>
        <time>2013-05-25T15:29:19Z</time>
      </trkpt>
      <trkpt lat="48.92852" lon="2.04411">
        <ele>-17.39999961853</ele>
        <time>2013-05-25T15:29:37Z</time>
      </trkpt>
      <trkpt lat="48.92853" lon="2.0441">
        <ele>-17.200000762939</ele>
        <time>2013-05-25T15:30:07Z</time>
      </trkpt>
      <trkpt lat="48.92846" lon="2.04422">
        <ele>-16.60000038147</ele>
        <time>2013-05-25T15:31:18Z</time>
      </trkpt>
      <trkpt lat="48.92832" lon="2.04424">
        <ele>-16.799999237061</ele>
        <time>2013-05-25T15:34:43Z</time>
      </trkpt>
      <trkpt lat="48.92832" lon="2.04427">
        <ele>-17</ele>
        <time>2013-05-25T15:34:47Z</time>
      </trkpt>
      <trkpt lat="48.92835" lon="2.04432">
        <ele>-16.60000038147</ele>
        <time>2013-05-25T15:34:58Z</time>
      </trkpt>
      <trkpt lat="48.92832" lon="2.04437">
        <ele>-16.799999237061</ele>
        <time>2013-05-25T15:35:04Z</time>
      </trkpt>
      <trkpt lat="48.92826" lon="2.04446">
        <ele>-16.39999961853</ele>
        <time>2013-05-25T15:35:13Z</time>
      </trkpt>
      <trkpt lat="48.92824" lon="2.04451">
        <ele>-17</ele>
        <time>2013-05-25T15:35:17Z</time>
      </trkpt>
      <trkpt lat="48.92821" lon="2.04458">
        <ele>-16.799999237061</ele>
        <time>2013-05-25T15:35:22Z</time>
      </trkpt>
      <trkpt lat="48.92817" lon="2.04468">
        <ele>-16</ele>
        <time>2013-05-25T15:35:30Z</time>
      </trkpt>
      <trkpt lat="48.92797" lon="2.0449">
        <ele>-15.60000038147</ele>
        <time>2013-05-25T15:35:57Z</time>
      </trkpt>
      <trkpt lat="48.9279" lon="2.04495">
        <ele>-15.60000038147</ele>
        <time>2013-05-25T15:36:03Z</time>
      </trkpt>
      <trkpt lat="48.92778" lon="2.04517">
        <ele>-16</ele>
        <time>2013-05-25T15:36:16Z</time>
      </trkpt>
      <trkpt lat="48.92761" lon="2.04545">
        <ele>-15</ele>
        <time>2013-05-25T15:36:38Z</time>
      </trkpt>
      <trkpt lat="48.92749" lon="2.04554">
        <ele>-14.199999809265</ele>
        <time>2013-05-25T15:36:54Z</time>
      </trkpt>
      <trkpt lat="48.92747" lon="2.04554">
        <ele>-14.39999961853</ele>
        <time>2013-05-25T15:36:56Z</time>
      </trkpt>
      <trkpt lat="48.92745" lon="2.04555">
        <ele>-14.60000038147</ele>
        <time>2013-05-25T15:36:59Z</time>
      </trkpt>
      <trkpt lat="48.92739" lon="2.04558">
        <ele>-14.800000190735</ele>
        <time>2013-05-25T15:37:04Z</time>
      </trkpt>
      <trkpt lat="48.92733" lon="2.04567">
        <ele>-14.199999809265</ele>
        <time>2013-05-25T15:37:12Z</time>
      </trkpt>
      <trkpt lat="48.92733" lon="2.04577">
        <ele>-14.60000038147</ele>
        <time>2013-05-25T15:37:18Z</time>
      </trkpt>
      <trkpt lat="48.9274" lon="2.04582">
        <ele>-14.60000038147</ele>
        <time>2013-05-25T15:37:24Z</time>
      </trkpt>
      <trkpt lat="48.92744" lon="2.04571">
        <ele>-14.800000190735</ele>
        <time>2013-05-25T15:37:29Z</time>
      </trkpt>
      <trkpt lat="48.92744" lon="2.04567">
        <ele>-14.60000038147</ele>
        <time>2013-05-25T15:37:39Z</time>
      </trkpt>
      <trkpt lat="48.92744" lon="2.04568">
        <ele>-14.800000190735</ele>
        <time>2013-05-25T15:37:41Z</time>
      </trkpt>
      <trkpt lat="48.92743" lon="2.04576">
        <ele>-14.800000190735</ele>
        <time>2013-05-25T15:37:45Z</time>
      </trkpt>
      <trkpt lat="48.92738" lon="2.04578">
        <ele>-14.39999961853</ele>
        <time>2013-05-25T15:38:15Z</time>
      </trkpt>
      <trkpt lat="48.92738" lon="2.04571">
        <ele>-15</ele>
        <time>2013-05-25T15:38:42Z</time>
      </trkpt>
      <trkpt lat="48.9274" lon="2.04565">
        <ele>-15.39999961853</ele>
        <time>2013-05-25T15:38:51Z</time>
      </trkpt>
      <trkpt lat="48.92741" lon="2.04563">
        <ele>-15</ele>
        <time>2013-05-25T15:38:56Z</time>
      </trkpt>
      <trkpt lat="48.92744" lon="2.04564">
        <ele>-15</ele>
        <time>2013-05-25T15:39:21Z</time>
      </trkpt>
      <trkpt lat="48.92743" lon="2.04564">
        <ele>-16</ele>
        <time>2013-05-25T15:40:41Z</time>
      </trkpt>
      <trkpt lat="48.92742" lon="2.04566">
        <ele>-15.800000190735</ele>
        <time>2013-05-25T15:41:02Z</time>
      </trkpt>
      <trkpt lat="48.92743" lon="2.04573">
        <ele>-15.39999961853</ele>
        <time>2013-05-25T15:41:08Z</time>
      </trkpt>
      <trkpt lat="48.92741" lon="2.0458">
        <ele>-14.60000038147</ele>
        <time>2013-05-25T15:41:40Z</time>
      </trkpt>
      <trkpt lat="48.92741" lon="2.04578">
        <ele>-14.800000190735</ele>
        <time>2013-05-25T15:41:42Z</time>
      </trkpt>
      <trkpt lat="48.92745" lon="2.04572">
        <ele>-15.60000038147</ele>
        <time>2013-05-25T15:41:48Z</time>
      </trkpt>
      <trkpt lat="48.92746" lon="2.04564">
        <ele>-15.60000038147</ele>
        <time>2013-05-25T15:41:52Z</time>
      </trkpt>
      <trkpt lat="48.92744" lon="2.04561">
        <ele>-15.60000038147</ele>
        <time>2013-05-25T15:42:12Z</time>
      </trkpt>
      <trkpt lat="48.92745" lon="2.04561">
        <ele>-15.60000038147</ele>
        <time>2013-05-25T15:43:44Z</time>
      </trkpt>
      <trkpt lat="48.92744" lon="2.04561">
        <ele>-15.60000038147</ele>
        <time>2013-05-25T15:44:50Z</time>
      </trkpt>
      <trkpt lat="48.92745" lon="2.0456">
        <ele>-15.60000038147</ele>
        <time>2013-05-25T15:46:27Z</time>
      </trkpt>
      <trkpt lat="48.92743" lon="2.04558">
        <ele>-15.39999961853</ele>
        <time>2013-05-25T15:48:18Z</time>
      </trkpt>
      <trkpt lat="48.92744" lon="2.04557">
        <ele>-16</ele>
        <time>2013-05-25T15:48:22Z</time>
      </trkpt>
      <trkpt lat="48.92758" lon="2.04546">
        <ele>-16.200000762939</ele>
        <time>2013-05-25T15:48:32Z</time>
      </trkpt>
      <trkpt lat="48.92759" lon="2.04538">
        <ele>-16.799999237061</ele>
        <time>2013-05-25T15:48:39Z</time>
      </trkpt>
      <trkpt lat="48.92767" lon="2.04531">
        <ele>-16.60000038147</ele>
        <time>2013-05-25T15:48:54Z</time>
      </trkpt>
      <trkpt lat="48.92769" lon="2.04527">
        <ele>-16.39999961853</ele>
        <time>2013-05-25T15:48:57Z</time>
      </trkpt>
      <trkpt lat="48.92783" lon="2.04507">
        <ele>-16.60000038147</ele>
        <time>2013-05-25T15:49:11Z</time>
      </trkpt>
      <trkpt lat="48.92806" lon="2.04479">
        <ele>-17.200000762939</ele>
        <time>2013-05-25T15:49:33Z</time>
      </trkpt>
      <trkpt lat="48.9281" lon="2.04477">
        <ele>-17</ele>
        <time>2013-05-25T15:49:44Z</time>
      </trkpt>
      <trkpt lat="48.92807" lon="2.0445">
        <ele>-16.799999237061</ele>
        <time>2013-05-25T15:49:57Z</time>
      </trkpt>
      <trkpt lat="48.92803" lon="2.04444">
        <ele>-16.799999237061</ele>
        <time>2013-05-25T15:50:03Z</time>
      </trkpt>
      <trkpt lat="48.92804" lon="2.04432">
        <ele>-16.60000038147</ele>
        <time>2013-05-25T15:50:07Z</time>
      </trkpt>
      <trkpt lat="48.928" lon="2.04415">
        <ele>-16.60000038147</ele>
        <time>2013-05-25T15:50:16Z</time>
      </trkpt>
      <trkpt lat="48.92785" lon="2.04403">
        <ele>-16.799999237061</ele>
        <time>2013-05-25T15:50:28Z</time>
      </trkpt>
      <trkpt lat="48.92782" lon="2.0439">
        <ele>-16.799999237061</ele>
        <time>2013-05-25T15:50:42Z</time>
      </trkpt>
      <trkpt lat="48.92787" lon="2.04376">
        <ele>-16.60000038147</ele>
        <time>2013-05-25T15:51:00Z</time>
      </trkpt>
      <trkpt lat="48.92794" lon="2.04369">
        <ele>-17.200000762939</ele>
        <time>2013-05-25T15:51:11Z</time>
      </trkpt>
      <trkpt lat="48.92794" lon="2.04369">
        <ele>-17.39999961853</ele>
        <time>2013-05-25T15:51:17Z</time>
      </trkpt>
      <trkpt lat="48.92794" lon="2.04366">
        <ele>-17.799999237061</ele>
        <time>2013-05-25T15:51:21Z</time>
      </trkpt>
      <trkpt lat="48.92792" lon="2.0436">
        <ele>-17.60000038147</ele>
        <time>2013-05-25T15:51:54Z</time>
      </trkpt>
      <trkpt lat="48.92789" lon="2.0435">
        <ele>-16.60000038147</ele>
        <time>2013-05-25T15:52:00Z</time>
      </trkpt>
      <trkpt lat="48.92788" lon="2.04346">
        <ele>-16.799999237061</ele>
        <time>2013-05-25T15:52:12Z</time>
      </trkpt>
      <trkpt lat="48.92781" lon="2.04343">
        <ele>-17.200000762939</ele>
        <time>2013-05-25T15:52:24Z</time>
      </trkpt>
      <trkpt lat="48.92771" lon="2.04343">
        <ele>-17.200000762939</ele>
        <time>2013-05-25T15:53:12Z</time>
      </trkpt>
      <trkpt lat="48.9277" lon="2.04346">
        <ele>-17.200000762939</ele>
        <time>2013-05-25T15:53:50Z</time>
      </trkpt>
      <trkpt lat="48.9277" lon="2.04346">
        <ele>-18.200000762939</ele>
        <time>2013-05-25T15:53:54Z</time>
      </trkpt>
      <trkpt lat="48.9277" lon="2.04348">
        <ele>-17.200000762939</ele>
        <time>2013-05-25T15:54:31Z</time>
      </trkpt>
      <trkpt lat="48.92771" lon="2.0435">
        <ele>-17.60000038147</ele>
        <time>2013-05-25T15:54:52Z</time>
      </trkpt>
      <trkpt lat="48.92773" lon="2.04353">
        <ele>-17.60000038147</ele>
        <time>2013-05-25T15:54:55Z</time>
      </trkpt>
      <trkpt lat="48.92774" lon="2.04357">
        <ele>-18.799999237061</ele>
        <time>2013-05-25T15:54:57Z</time>
      </trkpt>
      <trkpt lat="48.92777" lon="2.04362">
        <ele>-17</ele>
        <time>2013-05-25T15:55:00Z</time>
      </trkpt>
      <trkpt lat="48.92791" lon="2.04375">
        <ele>-18.200000762939</ele>
        <time>2013-05-25T15:55:18Z</time>
      </trkpt>
      <trkpt lat="48.92792" lon="2.04376">
        <ele>-18.799999237061</ele>
        <time>2013-05-25T15:55:19Z</time>
      </trkpt>
      <trkpt lat="48.92793" lon="2.04377">
        <ele>-19</ele>
        <time>2013-05-25T15:55:20Z</time>
      </trkpt>
      <trkpt lat="48.92801" lon="2.04384">
        <ele>-17.799999237061</ele>
        <time>2013-05-25T15:55:32Z</time>
      </trkpt>
      <trkpt lat="48.92814" lon="2.04383">
        <ele>-17.799999237061</ele>
        <time>2013-05-25T15:56:01Z</time>
      </trkpt>
      <trkpt lat="48.92814" lon="2.04383">
        <ele>-18</ele>
        <time>2013-05-25T15:56:13Z</time>
      </trkpt>
      <trkpt lat="48.92814" lon="2.0438">
        <ele>-18.200000762939</ele>
        <time>2013-05-25T15:56:33Z</time>
      </trkpt>
      <trkpt lat="48.92815" lon="2.0438">
        <ele>-18.39999961853</ele>
        <time>2013-05-25T15:56:50Z</time>
      </trkpt>
      <trkpt lat="48.92821" lon="2.04403">
        <ele>-19.39999961853</ele>
        <time>2013-05-25T15:57:15Z</time>
      </trkpt>
      <trkpt lat="48.92817" lon="2.04407">
        <ele>-19.60000038147</ele>
        <time>2013-05-25T15:57:33Z</time>
      </trkpt>
      <trkpt lat="48.92817" lon="2.04407">
        <ele>-20.39999961853</ele>
        <time>2013-05-25T15:57:56Z</time>
      </trkpt>
      <trkpt lat="48.92818" lon="2.04405">
        <ele>-20</ele>
        <time>2013-05-25T15:58:26Z</time>
      </trkpt>
      <trkpt lat="48.92821" lon="2.04402">
        <ele>-20</ele>
        <time>2013-05-25T15:58:56Z</time>
      </trkpt>
      <trkpt lat="48.92824" lon="2.04401">
        <ele>-19.799999237061</ele>
        <time>2013-05-25T15:59:24Z</time>
      </trkpt>
      <trkpt lat="48.92825" lon="2.044">
        <ele>-20.200000762939</ele>
        <time>2013-05-25T16:00:49Z</time>
      </trkpt>
      <trkpt lat="48.92825" lon="2.044">
        <ele>-21.200000762939</ele>
        <time>2013-05-25T16:02:56Z</time>
      </trkpt>
      <trkpt lat="48.92825" lon="2.04401">
        <ele>-20.39999961853</ele>
        <time>2013-05-25T16:03:33Z</time>
      </trkpt>
      <trkpt lat="48.92823" lon="2.0438">
        <ele>-20.39999961853</ele>
        <time>2013-05-25T16:03:44Z</time>
      </trkpt>
      <trkpt lat="48.92822" lon="2.04373">
        <ele>-20.200000762939</ele>
        <time>2013-05-25T16:03:54Z</time>
      </trkpt>
      <trkpt lat="48.92821" lon="2.04373">
        <ele>-19.799999237061</ele>
        <time>2013-05-25T16:03:56Z</time>
      </trkpt>
      <trkpt lat="48.9282" lon="2.04369">
        <ele>-19.60000038147</ele>
        <time>2013-05-25T16:03:58Z</time>
      </trkpt>
      <trkpt lat="48.92818" lon="2.04353">
        <ele>-21.60000038147</ele>
        <time>2013-05-25T16:04:11Z</time>
      </trkpt>
      <trkpt lat="48.92819" lon="2.04351">
        <ele>-23</ele>
        <time>2013-05-25T16:04:13Z</time>
      </trkpt>
      <trkpt lat="48.9282" lon="2.0435">
        <ele>-21</ele>
        <time>2013-05-25T16:04:18Z</time>
      </trkpt>
      <trkpt lat="48.92824" lon="2.04337">
        <ele>-21.39999961853</ele>
        <time>2013-05-25T16:04:22Z</time>
      </trkpt>
      <trkpt lat="48.92823" lon="2.04329">
        <ele>-21.200000762939</ele>
        <time>2013-05-25T16:04:52Z</time>
      </trkpt>
      <trkpt lat="48.9282" lon="2.04322">
        <ele>-21</ele>
        <time>2013-05-25T16:04:56Z</time>
      </trkpt>
      <trkpt lat="48.9281" lon="2.04301">
        <ele>-20.200000762939</ele>
        <time>2013-05-25T16:05:08Z</time>
      </trkpt>
      <trkpt lat="48.92809" lon="2.04298">
        <ele>-20.799999237061</ele>
        <time>2013-05-25T16:05:15Z</time>
      </trkpt>
      <trkpt lat="48.92798" lon="2.04288">
        <ele>-21.39999961853</ele>
        <time>2013-05-25T16:05:26Z</time>
      </trkpt>
      <trkpt lat="48.92796" lon="2.04283">
        <ele>-21</ele>
        <time>2013-05-25T16:05:29Z</time>
      </trkpt>
      <trkpt lat="48.928" lon="2.04269">
        <ele>-21</ele>
        <time>2013-05-25T16:05:51Z</time>
      </trkpt>
      <trkpt lat="48.92801" lon="2.04264">
        <ele>-22.200000762939</ele>
        <time>2013-05-25T16:06:52Z</time>
      </trkpt>
      <trkpt lat="48.92798" lon="2.0426">
        <ele>-22.200000762939</ele>
        <time>2013-05-25T16:07:01Z</time>
      </trkpt>
      <trkpt lat="48.92787" lon="2.04259">
        <ele>-22</ele>
        <time>2013-05-25T16:07:20Z</time>
      </trkpt>
      <trkpt lat="48.92787" lon="2.04257">
        <ele>-22.200000762939</ele>
        <time>2013-05-25T16:07:22Z</time>
      </trkpt>
      <trkpt lat="48.9279" lon="2.04237">
        <ele>-23.60000038147</ele>
        <time>2013-05-25T16:07:41Z</time>
      </trkpt>
      <trkpt lat="48.9279" lon="2.04237">
        <ele>-24</ele>
        <time>2013-05-25T16:07:43Z</time>
      </trkpt>
      <trkpt lat="48.92791" lon="2.04249">
        <ele>-22</ele>
        <time>2013-05-25T16:07:54Z</time>
      </trkpt>
      <trkpt lat="48.92786" lon="2.04255">
        <ele>-22.60000038147</ele>
        <time>2013-05-25T16:07:58Z</time>
      </trkpt>
      <trkpt lat="48.92778" lon="2.04271">
        <ele>-22.39999961853</ele>
        <time>2013-05-25T16:08:05Z</time>
      </trkpt>
      <trkpt lat="48.92773" lon="2.04282">
        <ele>-22.60000038147</ele>
        <time>2013-05-25T16:08:14Z</time>
      </trkpt>
      <trkpt lat="48.92773" lon="2.04284">
        <ele>-22.39999961853</ele>
        <time>2013-05-25T16:08:19Z</time>
      </trkpt>
      <trkpt lat="48.92778" lon="2.04273">
        <ele>-22.39999961853</ele>
        <time>2013-05-25T16:08:28Z</time>
      </trkpt>
      <trkpt lat="48.92783" lon="2.04268">
        <ele>-23.200000762939</ele>
        <time>2013-05-25T16:08:33Z</time>
      </trkpt>
      <trkpt lat="48.92785" lon="2.04258">
        <ele>-22.799999237061</ele>
        <time>2013-05-25T16:08:49Z</time>
      </trkpt>
      <trkpt lat="48.92789" lon="2.04256">
        <ele>-23.200000762939</ele>
        <time>2013-05-25T16:09:05Z</time>
      </trkpt>
      <trkpt lat="48.92791" lon="2.04248">
        <ele>-23</ele>
        <time>2013-05-25T16:09:43Z</time>
      </trkpt>
      <trkpt lat="48.92792" lon="2.04247">
        <ele>-23.799999237061</ele>
        <time>2013-05-25T16:10:02Z</time>
      </trkpt>
      <trkpt lat="48.92798" lon="2.04255">
        <ele>-23</ele>
        <time>2013-05-25T16:10:21Z</time>
      </trkpt>
      <trkpt lat="48.92798" lon="2.04255">
        <ele>-22.799999237061</ele>
        <time>2013-05-25T16:10:28Z</time>
      </trkpt>
      <trkpt lat="48.92793" lon="2.04265">
        <ele>-23</ele>
        <time>2013-05-25T16:10:51Z</time>
      </trkpt>
      <trkpt lat="48.92793" lon="2.04264">
        <ele>-24.200000762939</ele>
        <time>2013-05-25T16:12:20Z</time>
      </trkpt>
      <trkpt lat="48.92792" lon="2.04267">
        <ele>-24.60000038147</ele>
        <time>2013-05-25T16:13:38Z</time>
      </trkpt>
      <trkpt lat="48.92792" lon="2.04264">
        <ele>-24.60000038147</ele>
        <time>2013-05-25T16:15:48Z</time>
      </trkpt>
      <trkpt lat="48.92788" lon="2.04265">
        <ele>-23.799999237061</ele>
        <time>2013-05-25T16:17:07Z</time>
      </trkpt>
      <trkpt lat="48.92788" lon="2.04265">
        <ele>-23.799999237061</ele>
        <time>2013-05-25T16:17:19Z</time>
      </trkpt>
      <trkpt lat="48.92786" lon="2.04266">
        <ele>-23.799999237061</ele>
        <time>2013-05-25T16:17:46Z</time>
      </trkpt>
      <trkpt lat="48.92785" lon="2.04269">
        <ele>-24</ele>
        <time>2013-05-25T16:18:06Z</time>
      </trkpt>
      <trkpt lat="48.92784" lon="2.04271">
        <ele>-23.200000762939</ele>
        <time>2013-05-25T16:18:57Z</time>
      </trkpt>
      <trkpt lat="48.92784" lon="2.04272">
        <ele>-22.60000038147</ele>
        <time>2013-05-25T16:20:24Z</time>
      </trkpt>
      <trkpt lat="48.92784" lon="2.04271">
        <ele>-22.60000038147</ele>
        <time>2013-05-25T16:21:03Z</time>
      </trkpt>
      <trkpt lat="48.92787" lon="2.04255">
        <ele>-23</ele>
        <time>2013-05-25T16:21:23Z</time>
      </trkpt>
      <trkpt lat="48.92789" lon="2.04254">
        <ele>-22.60000038147</ele>
        <time>2013-05-25T16:22:03Z</time>
      </trkpt>
      <trkpt lat="48.92789" lon="2.04253">
        <ele>-22.60000038147</ele>
        <time>2013-05-25T16:22:44Z</time>
      </trkpt>
      <trkpt lat="48.92788" lon="2.04257">
        <ele>-22.200000762939</ele>
        <time>2013-05-25T16:23:04Z</time>
      </trkpt>
      <trkpt lat="48.92788" lon="2.04258">
        <ele>-22.200000762939</ele>
        <time>2013-05-25T16:24:09Z</time>
      </trkpt>
      <trkpt lat="48.92787" lon="2.04258">
        <ele>-22.60000038147</ele>
        <time>2013-05-25T16:25:36Z</time>
      </trkpt>
      <trkpt lat="48.9279" lon="2.04252">
        <ele>-22.60000038147</ele>
        <time>2013-05-25T16:25:39Z</time>
      </trkpt>
      <trkpt lat="48.92793" lon="2.04245">
        <ele>-22.39999961853</ele>
        <time>2013-05-25T16:25:41Z</time>
      </trkpt>
      <trkpt lat="48.92812" lon="2.04229">
        <ele>-23</ele>
        <time>2013-05-25T16:25:48Z</time>
      </trkpt>
      <trkpt lat="48.92817" lon="2.04221">
        <ele>-23.39999961853</ele>
        <time>2013-05-25T16:25:53Z</time>
      </trkpt>
      <trkpt lat="48.92819" lon="2.04215">
        <ele>-21.799999237061</ele>
        <time>2013-05-25T16:25:58Z</time>
      </trkpt>
      <trkpt lat="48.9282" lon="2.04211">
        <ele>-23</ele>
        <time>2013-05-25T16:26:00Z</time>
      </trkpt>
      <trkpt lat="48.92822" lon="2.04194">
        <ele>-22.799999237061</ele>
        <time>2013-05-25T16:26:19Z</time>
      </trkpt>
      <trkpt lat="48.92824" lon="2.04193">
        <ele>-23.200000762939</ele>
        <time>2013-05-25T16:26:25Z</time>
      </trkpt>
      <trkpt lat="48.92831" lon="2.04191">
        <ele>-23</ele>
        <time>2013-05-25T16:26:34Z</time>
      </trkpt>
      <trkpt lat="48.92839" lon="2.04174">
        <ele>-22.60000038147</ele>
        <time>2013-05-25T16:26:47Z</time>
      </trkpt>
      <trkpt lat="48.92844" lon="2.0416">
        <ele>-23.39999961853</ele>
        <time>2013-05-25T16:26:56Z</time>
      </trkpt>
      <trkpt lat="48.92845" lon="2.04159">
        <ele>-23.200000762939</ele>
        <time>2013-05-25T16:26:58Z</time>
      </trkpt>
      <trkpt lat="48.92847" lon="2.04158">
        <ele>-22.799999237061</ele>
        <time>2013-05-25T16:27:01Z</time>
      </trkpt>
      <trkpt lat="48.92851" lon="2.0416">
        <ele>-23.60000038147</ele>
        <time>2013-05-25T16:27:06Z</time>
      </trkpt>
      <trkpt lat="48.92851" lon="2.04155">
        <ele>-23.200000762939</ele>
        <time>2013-05-25T16:27:24Z</time>
      </trkpt>
      <trkpt lat="48.92851" lon="2.04157">
        <ele>-22.799999237061</ele>
        <time>2013-05-25T16:27:47Z</time>
      </trkpt>
      <trkpt lat="48.92863" lon="2.04165">
        <ele>-23.60000038147</ele>
        <time>2013-05-25T16:28:00Z</time>
      </trkpt>
      <trkpt lat="48.92863" lon="2.04165">
        <ele>-23.200000762939</ele>
        <time>2013-05-25T16:28:04Z</time>
      </trkpt>
      <trkpt lat="48.92865" lon="2.04161">
        <ele>-23.60000038147</ele>
        <time>2013-05-25T16:28:14Z</time>
      </trkpt>
      <trkpt lat="48.92871" lon="2.04155">
        <ele>-23.60000038147</ele>
        <time>2013-05-25T16:28:18Z</time>
      </trkpt>
      <trkpt lat="48.92893" lon="2.04131">
        <ele>-24</ele>
        <time>2013-05-25T16:28:27Z</time>
      </trkpt>
      <trkpt lat="48.92899" lon="2.04128">
        <ele>-24.39999961853</ele>
        <time>2013-05-25T16:28:41Z</time>
      </trkpt>
      <trkpt lat="48.92899" lon="2.04123">
        <ele>-24.60000038147</ele>
        <time>2013-05-25T16:28:53Z</time>
      </trkpt>
      <trkpt lat="48.929" lon="2.04116">
        <ele>-24.799999237061</ele>
        <time>2013-05-25T16:28:56Z</time>
      </trkpt>
      <trkpt lat="48.92917" lon="2.04095">
        <ele>-24.60000038147</ele>
        <time>2013-05-25T16:29:05Z</time>
      </trkpt>
      <trkpt lat="48.9293" lon="2.04084">
        <ele>-24</ele>
        <time>2013-05-25T16:29:25Z</time>
      </trkpt>
      <trkpt lat="48.92927" lon="2.04086">
        <ele>-24.200000762939</ele>
        <time>2013-05-25T16:29:29Z</time>
      </trkpt>
      <trkpt lat="48.92925" lon="2.04087">
        <ele>-25.39999961853</ele>
        <time>2013-05-25T16:29:33Z</time>
      </trkpt>
      <trkpt lat="48.92929" lon="2.04075">
        <ele>-24</ele>
        <time>2013-05-25T16:29:54Z</time>
      </trkpt>
      <trkpt lat="48.92944" lon="2.04077">
        <ele>-24</ele>
        <time>2013-05-25T16:30:10Z</time>
      </trkpt>
      <trkpt lat="48.92945" lon="2.04079">
        <ele>-23.60000038147</ele>
        <time>2013-05-25T16:30:18Z</time>
      </trkpt>
      <trkpt lat="48.92956" lon="2.04063">
        <ele>-24.39999961853</ele>
        <time>2013-05-25T16:30:23Z</time>
      </trkpt>
      <trkpt lat="48.92964" lon="2.04058">
        <ele>-24</ele>
        <time>2013-05-25T16:30:31Z</time>
      </trkpt>
      <trkpt lat="48.92965" lon="2.04053">
        <ele>-24</ele>
        <time>2013-05-25T16:30:35Z</time>
      </trkpt>
      <trkpt lat="48.92965" lon="2.04045">
        <ele>-24.799999237061</ele>
        <time>2013-05-25T16:30:39Z</time>
      </trkpt>
      <trkpt lat="48.92965" lon="2.04038">
        <ele>-24.60000038147</ele>
        <time>2013-05-25T16:30:54Z</time>
      </trkpt>
      <trkpt lat="48.9296" lon="2.04042">
        <ele>-24.799999237061</ele>
        <time>2013-05-25T16:31:06Z</time>
      </trkpt>
      <trkpt lat="48.92949" lon="2.04053">
        <ele>-24.39999961853</ele>
        <time>2013-05-25T16:31:14Z</time>
      </trkpt>
      <trkpt lat="48.92939" lon="2.04039">
        <ele>-24.200000762939</ele>
        <time>2013-05-25T16:31:29Z</time>
      </trkpt>
      <trkpt lat="48.92935" lon="2.04038">
        <ele>-24</ele>
        <time>2013-05-25T16:31:40Z</time>
      </trkpt>
      <trkpt lat="48.9298" lon="2.04045">
        <ele>-23.799999237061</ele>
        <time>2013-05-25T16:31:44Z</time>
      </trkpt>
      <trkpt lat="48.92987" lon="2.04048">
        <ele>-24</ele>
        <time>2013-05-25T16:31:46Z</time>
      </trkpt>
      <trkpt lat="48.92993" lon="2.0405">
        <ele>-23.799999237061</ele>
        <time>2013-05-25T16:31:49Z</time>
      </trkpt>
      <trkpt lat="48.93001" lon="2.04053">
        <ele>-23.799999237061</ele>
        <time>2013-05-25T16:31:52Z</time>
      </trkpt>
      <trkpt lat="48.93002" lon="2.04047">
        <ele>-23.60000038147</ele>
        <time>2013-05-25T16:31:56Z</time>
      </trkpt>
      <trkpt lat="48.93005" lon="2.04032">
        <ele>-23.200000762939</ele>
        <time>2013-05-25T16:32:26Z</time>
      </trkpt>
      <trkpt lat="48.93005" lon="2.04032">
        <ele>-22.799999237061</ele>
        <time>2013-05-25T16:32:54Z</time>
      </trkpt>
      <trkpt lat="48.93001" lon="2.04042">
        <ele>-22.799999237061</ele>
        <time>2013-05-25T16:33:01Z</time>
      </trkpt>
      <trkpt lat="48.92991" lon="2.04058">
        <ele>-22.799999237061</ele>
        <time>2013-05-25T16:33:06Z</time>
      </trkpt>
      <trkpt lat="48.92965" lon="2.04064">
        <ele>-22.799999237061</ele>
        <time>2013-05-25T16:33:27Z</time>
      </trkpt>
      <trkpt lat="48.92949" lon="2.04062">
        <ele>-22.39999961853</ele>
        <time>2013-05-25T16:34:04Z</time>
      </trkpt>
      <trkpt lat="48.9295" lon="2.04059">
        <ele>-22.60000038147</ele>
        <time>2013-05-25T16:34:06Z</time>
      </trkpt>
      <trkpt lat="48.92972" lon="2.04056">
        <ele>-22.39999961853</ele>
        <time>2013-05-25T16:34:14Z</time>
      </trkpt>
      <trkpt lat="48.92979" lon="2.04045">
        <ele>-21.60000038147</ele>
        <time>2013-05-25T16:34:26Z</time>
      </trkpt>
      <trkpt lat="48.92975" lon="2.04036">
        <ele>-22.200000762939</ele>
        <time>2013-05-25T16:34:46Z</time>
      </trkpt>
      <trkpt lat="48.92975" lon="2.04036">
        <ele>-20.60000038147</ele>
        <time>2013-05-25T16:36:28Z</time>
      </trkpt>
      <trkpt lat="48.92973" lon="2.04029">
        <ele>-20.60000038147</ele>
        <time>2013-05-25T16:36:31Z</time>
      </trkpt>
      <trkpt lat="48.92974" lon="2.04026">
        <ele>-20.799999237061</ele>
        <time>2013-05-25T16:36:34Z</time>
      </trkpt>
      <trkpt lat="48.9298" lon="2.04023">
        <ele>-20.60000038147</ele>
        <time>2013-05-25T16:36:38Z</time>
      </trkpt>
      <trkpt lat="48.92993" lon="2.04009">
        <ele>-20.60000038147</ele>
        <time>2013-05-25T16:36:56Z</time>
      </trkpt>
      <trkpt lat="48.92994" lon="2.04008">
        <ele>-20.200000762939</ele>
        <time>2013-05-25T16:36:58Z</time>
      </trkpt>
      <trkpt lat="48.92998" lon="2.0401">
        <ele>-19.60000038147</ele>
        <time>2013-05-25T16:37:15Z</time>
      </trkpt>
      <trkpt lat="48.93001" lon="2.04013">
        <ele>-19.799999237061</ele>
        <time>2013-05-25T16:37:35Z</time>
      </trkpt>
      <trkpt lat="48.93009" lon="2.0401">
        <ele>-20.799999237061</ele>
        <time>2013-05-25T16:37:40Z</time>
      </trkpt>
      <trkpt lat="48.93014" lon="2.03999">
        <ele>-20.60000038147</ele>
        <time>2013-05-25T16:37:56Z</time>
      </trkpt>
      <trkpt lat="48.93016" lon="2.03999">
        <ele>-21</ele>
        <time>2013-05-25T16:38:10Z</time>
      </trkpt>
      <trkpt lat="48.9302" lon="2.03996">
        <ele>-20.799999237061</ele>
        <time>2013-05-25T16:38:14Z</time>
      </trkpt>
      <trkpt lat="48.93026" lon="2.03986">
        <ele>-21</ele>
        <time>2013-05-25T16:38:25Z</time>
      </trkpt>
      <trkpt lat="48.93037" lon="2.03978">
        <ele>-20.200000762939</ele>
        <time>2013-05-25T16:38:32Z</time>
      </trkpt>
      <trkpt lat="48.93033" lon="2.03971">
        <ele>-20.39999961853</ele>
        <time>2013-05-25T16:38:37Z</time>
      </trkpt>
      <trkpt lat="48.93034" lon="2.03963">
        <ele>-20.200000762939</ele>
        <time>2013-05-25T16:38:54Z</time>
      </trkpt>
      <trkpt lat="48.93021" lon="2.0395">
        <ele>-19.60000038147</ele>
        <time>2013-05-25T16:39:08Z</time>
      </trkpt>
      <trkpt lat="48.9301" lon="2.03922">
        <ele>-20.39999961853</ele>
        <time>2013-05-25T16:39:24Z</time>
      </trkpt>
      <trkpt lat="48.93009" lon="2.0392">
        <ele>-20.39999961853</ele>
        <time>2013-05-25T16:39:25Z</time>
      </trkpt>
      <trkpt lat="48.93004" lon="2.0391">
        <ele>-20</ele>
        <time>2013-05-25T16:39:51Z</time>
      </trkpt>
      <trkpt lat="48.93004" lon="2.03909">
        <ele>-20</ele>
        <time>2013-05-25T16:39:53Z</time>
      </trkpt>
      <trkpt lat="48.93001" lon="2.03895">
        <ele>-20.799999237061</ele>
        <time>2013-05-25T16:40:01Z</time>
      </trkpt>
      <trkpt lat="48.92989" lon="2.03887">
        <ele>-19.799999237061</ele>
        <time>2013-05-25T16:40:13Z</time>
      </trkpt>
      <trkpt lat="48.92984" lon="2.03864">
        <ele>-19.799999237061</ele>
        <time>2013-05-25T16:40:25Z</time>
      </trkpt>
      <trkpt lat="48.9298" lon="2.03857">
        <ele>-20.200000762939</ele>
        <time>2013-05-25T16:40:29Z</time>
      </trkpt>
      <trkpt lat="48.92975" lon="2.03854">
        <ele>-20</ele>
        <time>2013-05-25T16:40:33Z</time>
      </trkpt>
      <trkpt lat="48.92975" lon="2.03849">
        <ele>-19.39999961853</ele>
        <time>2013-05-25T16:40:37Z</time>
      </trkpt>
      <trkpt lat="48.92972" lon="2.03846">
        <ele>-19.39999961853</ele>
        <time>2013-05-25T16:40:40Z</time>
      </trkpt>
      <trkpt lat="48.92967" lon="2.03831">
        <ele>-19.799999237061</ele>
        <time>2013-05-25T16:40:54Z</time>
      </trkpt>
      <trkpt lat="48.92965" lon="2.03834">
        <ele>-19.60000038147</ele>
        <time>2013-05-25T16:41:08Z</time>
      </trkpt>
      <trkpt lat="48.92966" lon="2.03834">
        <ele>-19.39999961853</ele>
        <time>2013-05-25T16:41:09Z</time>
      </trkpt>
      <trkpt lat="48.92969" lon="2.03834">
        <ele>-19.39999961853</ele>
        <time>2013-05-25T16:41:13Z</time>
      </trkpt>
      <trkpt lat="48.92967" lon="2.03838">
        <ele>-19.799999237061</ele>
        <time>2013-05-25T16:41:17Z</time>
      </trkpt>
      <trkpt lat="48.92965" lon="2.03832">
        <ele>-19.799999237061</ele>
        <time>2013-05-25T16:41:21Z</time>
      </trkpt>
      <trkpt lat="48.92961" lon="2.03829">
        <ele>-20.200000762939</ele>
        <time>2013-05-25T16:41:32Z</time>
      </trkpt>
      <trkpt lat="48.92961" lon="2.03815">
        <ele>-20.39999961853</ele>
        <time>2013-05-25T16:41:44Z</time>
      </trkpt>
      <trkpt lat="48.92969" lon="2.038">
        <ele>-20.39999961853</ele>
        <time>2013-05-25T16:41:52Z</time>
      </trkpt>
      <trkpt lat="48.92971" lon="2.03799">
        <ele>-20.39999961853</ele>
        <time>2013-05-25T16:41:54Z</time>
      </trkpt>
      <trkpt lat="48.92975" lon="2.03788">
        <ele>-20.200000762939</ele>
        <time>2013-05-25T16:42:02Z</time>
      </trkpt>
      <trkpt lat="48.92977" lon="2.03784">
        <ele>-21</ele>
        <time>2013-05-25T16:42:16Z</time>
      </trkpt>
      <trkpt lat="48.92975" lon="2.03799">
        <ele>-20.39999961853</ele>
        <time>2013-05-25T16:42:24Z</time>
      </trkpt>
      <trkpt lat="48.92973" lon="2.03802">
        <ele>-20.60000038147</ele>
        <time>2013-05-25T16:42:27Z</time>
      </trkpt>
      <trkpt lat="48.92982" lon="2.038">
        <ele>-20.799999237061</ele>
        <time>2013-05-25T16:42:44Z</time>
      </trkpt>
      <trkpt lat="48.9298" lon="2.03802">
        <ele>-21.60000038147</ele>
        <time>2013-05-25T16:43:07Z</time>
      </trkpt>
      <trkpt lat="48.92987" lon="2.03791">
        <ele>-21.799999237061</ele>
        <time>2013-05-25T16:43:38Z</time>
      </trkpt>
      <trkpt lat="48.92987" lon="2.03791">
        <ele>-22</ele>
        <time>2013-05-25T16:43:42Z</time>
      </trkpt>
      <trkpt lat="48.92972" lon="2.03807">
        <ele>-21.799999237061</ele>
        <time>2013-05-25T16:43:44Z</time>
      </trkpt>
      <trkpt lat="48.92964" lon="2.03816">
        <ele>-22.200000762939</ele>
        <time>2013-05-25T16:43:49Z</time>
      </trkpt>
      <trkpt lat="48.92962" lon="2.0382">
        <ele>-22</ele>
        <time>2013-05-25T16:43:55Z</time>
      </trkpt>
      <trkpt lat="48.92961" lon="2.03819">
        <ele>-22.60000038147</ele>
        <time>2013-05-25T16:44:31Z</time>
      </trkpt>
      <trkpt lat="48.92961" lon="2.03819">
        <ele>-21.200000762939</ele>
        <time>2013-05-25T16:44:47Z</time>
      </trkpt>
      <trkpt lat="48.92967" lon="2.03812">
        <ele>-23</ele>
        <time>2013-05-25T16:44:53Z</time>
      </trkpt>
      <trkpt lat="48.92961" lon="2.0379">
        <ele>-22.799999237061</ele>
        <time>2013-05-25T16:45:09Z</time>
      </trkpt>
      <trkpt lat="48.9296" lon="2.03769">
        <ele>-23.200000762939</ele>
        <time>2013-05-25T16:45:26Z</time>
      </trkpt>
      <trkpt lat="48.92963" lon="2.03751">
        <ele>-23.39999961853</ele>
        <time>2013-05-25T16:45:40Z</time>
      </trkpt>
      <trkpt lat="48.92967" lon="2.03745">
        <ele>-23.39999961853</ele>
        <time>2013-05-25T16:46:19Z</time>
      </trkpt>
      <trkpt lat="48.92967" lon="2.03745">
        <ele>-23.39999961853</ele>
        <time>2013-05-25T16:46:32Z</time>
      </trkpt>
      <trkpt lat="48.92979" lon="2.03753">
        <ele>-23.60000038147</ele>
        <time>2013-05-25T16:46:46Z</time>
      </trkpt>
      <trkpt lat="48.92974" lon="2.03754">
        <ele>-23.60000038147</ele>
        <time>2013-05-25T16:47:04Z</time>
      </trkpt>
      <trkpt lat="48.92969" lon="2.03756">
        <ele>-23.799999237061</ele>
        <time>2013-05-25T16:47:29Z</time>
      </trkpt>
      <trkpt lat="48.92963" lon="2.03753">
        <ele>-23</ele>
        <time>2013-05-25T16:47:45Z</time>
      </trkpt>
      <trkpt lat="48.92964" lon="2.03753">
        <ele>-23.799999237061</ele>
        <time>2013-05-25T16:48:42Z</time>
      </trkpt>
      <trkpt lat="48.92965" lon="2.03752">
        <ele>-23.799999237061</ele>
        <time>2013-05-25T16:49:15Z</time>
      </trkpt>
      <trkpt lat="48.92966" lon="2.03749">
        <ele>-23.60000038147</ele>
        <time>2013-05-25T16:49:51Z</time>
      </trkpt>
      <trkpt lat="48.92966" lon="2.03749">
        <ele>-23.39999961853</ele>
        <time>2013-05-25T16:50:48Z</time>
      </trkpt>
      <trkpt lat="48.92967" lon="2.03749">
        <ele>-23.799999237061</ele>
        <time>2013-05-25T16:50:52Z</time>
      </trkpt>
      <trkpt lat="48.92969" lon="2.0375">
        <ele>-23.799999237061</ele>
        <time>2013-05-25T16:51:27Z</time>
      </trkpt>
      <trkpt lat="48.92976" lon="2.03751">
        <ele>-23.60000038147</ele>
        <time>2013-05-25T16:52:43Z</time>
      </trkpt>
      <trkpt lat="48.92972" lon="2.03752">
        <ele>-23.60000038147</ele>
        <time>2013-05-25T16:53:00Z</time>
      </trkpt>
      <trkpt lat="48.92967" lon="2.03754">
        <ele>-23.60000038147</ele>
        <time>2013-05-25T16:53:38Z</time>
      </trkpt>
      <trkpt lat="48.9296" lon="2.03752">
        <ele>-23.200000762939</ele>
        <time>2013-05-25T16:53:58Z</time>
      </trkpt>
      <trkpt lat="48.92958" lon="2.0375">
        <ele>-22.60000038147</ele>
        <time>2013-05-25T16:54:55Z</time>
      </trkpt>
      <trkpt lat="48.92947" lon="2.03771">
        <ele>-23</ele>
        <time>2013-05-25T16:55:05Z</time>
      </trkpt>
      <trkpt lat="48.92949" lon="2.03774">
        <ele>-22.799999237061</ele>
        <time>2013-05-25T16:55:08Z</time>
      </trkpt>
      <trkpt lat="48.92957" lon="2.03802">
        <ele>-23.39999961853</ele>
        <time>2013-05-25T16:55:20Z</time>
      </trkpt>
      <trkpt lat="48.92966" lon="2.03812">
        <ele>-23.200000762939</ele>
        <time>2013-05-25T16:55:35Z</time>
      </trkpt>
      <trkpt lat="48.92966" lon="2.03811">
        <ele>-23</ele>
        <time>2013-05-25T16:56:12Z</time>
      </trkpt>
      <trkpt lat="48.92963" lon="2.03802">
        <ele>-23.39999961853</ele>
        <time>2013-05-25T16:56:26Z</time>
      </trkpt>
      <trkpt lat="48.92949" lon="2.03774">
        <ele>-24.799999237061</ele>
        <time>2013-05-25T16:56:51Z</time>
      </trkpt>
      <trkpt lat="48.92946" lon="2.03771">
        <ele>-22.39999961853</ele>
        <time>2013-05-25T16:56:54Z</time>
      </trkpt>
      <trkpt lat="48.92946" lon="2.0377">
        <ele>-23</ele>
        <time>2013-05-25T16:56:56Z</time>
      </trkpt>
      <trkpt lat="48.92945" lon="2.03766">
        <ele>-23.200000762939</ele>
        <time>2013-05-25T16:57:21Z</time>
      </trkpt>
      <trkpt lat="48.92944" lon="2.03766">
        <ele>-23.39999961853</ele>
        <time>2013-05-25T16:57:22Z</time>
      </trkpt>
      <trkpt lat="48.92935" lon="2.03767">
        <ele>-22.60000038147</ele>
        <time>2013-05-25T16:57:43Z</time>
      </trkpt>
      <trkpt lat="48.92935" lon="2.03768">
        <ele>-23</ele>
        <time>2013-05-25T16:58:02Z</time>
      </trkpt>
      <trkpt lat="48.92934" lon="2.03758">
        <ele>-23</ele>
        <time>2013-05-25T16:58:05Z</time>
      </trkpt>
      <trkpt lat="48.92933" lon="2.03742">
        <ele>-23.200000762939</ele>
        <time>2013-05-25T16:58:21Z</time>
      </trkpt>
      <trkpt lat="48.92933" lon="2.03742">
        <ele>-23.39999961853</ele>
        <time>2013-05-25T16:58:29Z</time>
      </trkpt>
      <trkpt lat="48.92961" lon="2.03725">
        <ele>-24.200000762939</ele>
        <time>2013-05-25T16:58:48Z</time>
      </trkpt>
      <trkpt lat="48.92966" lon="2.03719">
        <ele>-24</ele>
        <time>2013-05-25T16:59:01Z</time>
      </trkpt>
      <trkpt lat="48.92966" lon="2.03719">
        <ele>-23.799999237061</ele>
        <time>2013-05-25T16:59:06Z</time>
      </trkpt>
      <trkpt lat="48.92965" lon="2.0372">
        <ele>-24.200000762939</ele>
        <time>2013-05-25T16:59:13Z</time>
      </trkpt>
      <trkpt lat="48.92963" lon="2.03719">
        <ele>-24.39999961853</ele>
        <time>2013-05-25T16:59:17Z</time>
      </trkpt>
      <trkpt lat="48.92965" lon="2.03713">
        <ele>-24.799999237061</ele>
        <time>2013-05-25T16:59:23Z</time>
      </trkpt>
      <trkpt lat="48.92984" lon="2.03692">
        <ele>-25</ele>
        <time>2013-05-25T16:59:42Z</time>
      </trkpt>
      <trkpt lat="48.92988" lon="2.03686">
        <ele>-25.39999961853</ele>
        <time>2013-05-25T16:59:45Z</time>
      </trkpt>
      <trkpt lat="48.92991" lon="2.03683">
        <ele>-25.39999961853</ele>
        <time>2013-05-25T16:59:57Z</time>
      </trkpt>
      <trkpt lat="48.92993" lon="2.03679">
        <ele>-25.60000038147</ele>
        <time>2013-05-25T17:00:21Z</time>
      </trkpt>
      <trkpt lat="48.9299" lon="2.03654">
        <ele>-26.200000762939</ele>
        <time>2013-05-25T17:00:32Z</time>
      </trkpt>
      <trkpt lat="48.9299" lon="2.03651">
        <ele>-26.200000762939</ele>
        <time>2013-05-25T17:00:34Z</time>
      </trkpt>
      <trkpt lat="48.9299" lon="2.03644">
        <ele>-26.200000762939</ele>
        <time>2013-05-25T17:00:39Z</time>
      </trkpt>
      <trkpt lat="48.92987" lon="2.03628">
        <ele>-26.39999961853</ele>
        <time>2013-05-25T17:00:47Z</time>
      </trkpt>
      <trkpt lat="48.92987" lon="2.03623">
        <ele>-26.39999961853</ele>
        <time>2013-05-25T17:00:50Z</time>
      </trkpt>
      <trkpt lat="48.9299" lon="2.03594">
        <ele>-27.200000762939</ele>
        <time>2013-05-25T17:01:05Z</time>
      </trkpt>
      <trkpt lat="48.92987" lon="2.03572">
        <ele>-27.799999237061</ele>
        <time>2013-05-25T17:01:15Z</time>
      </trkpt>
      <trkpt lat="48.92986" lon="2.03548">
        <ele>-28</ele>
        <time>2013-05-25T17:01:27Z</time>
      </trkpt>
      <trkpt lat="48.92986" lon="2.03537">
        <ele>-28.200000762939</ele>
        <time>2013-05-25T17:01:31Z</time>
      </trkpt>
      <trkpt lat="48.92985" lon="2.03525">
        <ele>-28.200000762939</ele>
        <time>2013-05-25T17:01:38Z</time>
      </trkpt>
      <trkpt lat="48.92986" lon="2.03521">
        <ele>-28.200000762939</ele>
        <time>2013-05-25T17:01:41Z</time>
      </trkpt>
      <trkpt lat="48.92978" lon="2.03508">
        <ele>-28.60000038147</ele>
        <time>2013-05-25T17:01:47Z</time>
      </trkpt>
      <trkpt lat="48.92961" lon="2.03465">
        <ele>-28.799999237061</ele>
        <time>2013-05-25T17:02:15Z</time>
      </trkpt>
      <trkpt lat="48.92961" lon="2.0346">
        <ele>-29.200000762939</ele>
        <time>2013-05-25T17:02:18Z</time>
      </trkpt>
      <trkpt lat="48.92958" lon="2.03453">
        <ele>-28.799999237061</ele>
        <time>2013-05-25T17:02:22Z</time>
      </trkpt>
      <trkpt lat="48.92955" lon="2.03435">
        <ele>-29</ele>
        <time>2013-05-25T17:02:33Z</time>
      </trkpt>
      <trkpt lat="48.92944" lon="2.03428">
        <ele>-28.799999237061</ele>
        <time>2013-05-25T17:02:44Z</time>
      </trkpt>
      <trkpt lat="48.92942" lon="2.03423">
        <ele>-29.200000762939</ele>
        <time>2013-05-25T17:03:05Z</time>
      </trkpt>
      <trkpt lat="48.92941" lon="2.03425">
        <ele>-29.39999961853</ele>
        <time>2013-05-25T17:03:07Z</time>
      </trkpt>
      <trkpt lat="48.92943" lon="2.03426">
        <ele>-29.200000762939</ele>
        <time>2013-05-25T17:03:27Z</time>
      </trkpt>
      <trkpt lat="48.92943" lon="2.03423">
        <ele>-29.39999961853</ele>
        <time>2013-05-25T17:04:11Z</time>
      </trkpt>
      <trkpt lat="48.92942" lon="2.03416">
        <ele>-29</ele>
        <time>2013-05-25T17:04:29Z</time>
      </trkpt>
      <trkpt lat="48.9294" lon="2.0341">
        <ele>-29.799999237061</ele>
        <time>2013-05-25T17:04:34Z</time>
      </trkpt>
      <trkpt lat="48.92916" lon="2.03393">
        <ele>-30</ele>
        <time>2013-05-25T17:04:52Z</time>
      </trkpt>
      <trkpt lat="48.92918" lon="2.03373">
        <ele>-29.799999237061</ele>
        <time>2013-05-25T17:05:00Z</time>
      </trkpt>
      <trkpt lat="48.92899" lon="2.03358">
        <ele>-28</ele>
        <time>2013-05-25T17:05:25Z</time>
      </trkpt>
      <trkpt lat="48.92895" lon="2.03358">
        <ele>-28</ele>
        <time>2013-05-25T17:05:29Z</time>
      </trkpt>
      <trkpt lat="48.92893" lon="2.03357">
        <ele>-28</ele>
        <time>2013-05-25T17:05:31Z</time>
      </trkpt>
      <trkpt lat="48.9289" lon="2.03354">
        <ele>-27.799999237061</ele>
        <time>2013-05-25T17:05:36Z</time>
      </trkpt>
      <trkpt lat="48.92877" lon="2.03354">
        <ele>-28.39999961853</ele>
        <time>2013-05-25T17:05:53Z</time>
      </trkpt>
      <trkpt lat="48.92873" lon="2.03353">
        <ele>-29</ele>
        <time>2013-05-25T17:05:56Z</time>
      </trkpt>
      <trkpt lat="48.92851" lon="2.03331">
        <ele>-30.200000762939</ele>
        <time>2013-05-25T17:06:09Z</time>
      </trkpt>
      <trkpt lat="48.92853" lon="2.03258">
        <ele>-29.60000038147</ele>
        <time>2013-05-25T17:06:41Z</time>
      </trkpt>
      <trkpt lat="48.92852" lon="2.03257">
        <ele>-29.60000038147</ele>
        <time>2013-05-25T17:06:43Z</time>
      </trkpt>
      <trkpt lat="48.92837" lon="2.03255">
        <ele>-29.39999961853</ele>
        <time>2013-05-25T17:06:56Z</time>
      </trkpt>
      <trkpt lat="48.92834" lon="2.03263">
        <ele>-29.39999961853</ele>
        <time>2013-05-25T17:07:02Z</time>
      </trkpt>
      <trkpt lat="48.92826" lon="2.03263">
        <ele>-28.799999237061</ele>
        <time>2013-05-25T17:07:16Z</time>
      </trkpt>
      <trkpt lat="48.92826" lon="2.03245">
        <ele>-29</ele>
        <time>2013-05-25T17:07:31Z</time>
      </trkpt>
      <trkpt lat="48.92826" lon="2.03242">
        <ele>-29</ele>
        <time>2013-05-25T17:07:32Z</time>
      </trkpt>
      <trkpt lat="48.92814" lon="2.03227">
        <ele>-28.60000038147</ele>
        <time>2013-05-25T17:07:50Z</time>
      </trkpt>
      <trkpt lat="48.92813" lon="2.03226">
        <ele>-27.799999237061</ele>
        <time>2013-05-25T17:08:11Z</time>
      </trkpt>
      <trkpt lat="48.92805" lon="2.03213">
        <ele>-26.799999237061</ele>
        <time>2013-05-25T17:08:31Z</time>
      </trkpt>
      <trkpt lat="48.92807" lon="2.03212">
        <ele>-25.799999237061</ele>
        <time>2013-05-25T17:08:51Z</time>
      </trkpt>
      <trkpt lat="48.92809" lon="2.03214">
        <ele>-25.799999237061</ele>
        <time>2013-05-25T17:08:56Z</time>
      </trkpt>
      <trkpt lat="48.92816" lon="2.03214">
        <ele>-25.799999237061</ele>
        <time>2013-05-25T17:09:03Z</time>
      </trkpt>
      <trkpt lat="48.92775" lon="2.03158">
        <ele>-25.39999961853</ele>
        <time>2013-05-25T17:09:43Z</time>
      </trkpt>
      <trkpt lat="48.92774" lon="2.03157">
        <ele>-25.200000762939</ele>
        <time>2013-05-25T17:09:46Z</time>
      </trkpt>
      <trkpt lat="48.9277" lon="2.03162">
        <ele>-25.39999961853</ele>
        <time>2013-05-25T17:09:54Z</time>
      </trkpt>
      <trkpt lat="48.92769" lon="2.03163">
        <ele>-25.200000762939</ele>
        <time>2013-05-25T17:10:00Z</time>
      </trkpt>
      <trkpt lat="48.92789" lon="2.03158">
        <ele>-26.200000762939</ele>
        <time>2013-05-25T17:10:19Z</time>
      </trkpt>
      <trkpt lat="48.928" lon="2.03158">
        <ele>-26.39999961853</ele>
        <time>2013-05-25T17:10:42Z</time>
      </trkpt>
      <trkpt lat="48.92802" lon="2.03157">
        <ele>-26.200000762939</ele>
        <time>2013-05-25T17:10:51Z</time>
      </trkpt>
      <trkpt lat="48.92801" lon="2.03166">
        <ele>-26</ele>
        <time>2013-05-25T17:11:09Z</time>
      </trkpt>
      <trkpt lat="48.92796" lon="2.03163">
        <ele>-25.799999237061</ele>
        <time>2013-05-25T17:11:46Z</time>
      </trkpt>
      <trkpt lat="48.92796" lon="2.03163">
        <ele>-25.799999237061</ele>
        <time>2013-05-25T17:11:55Z</time>
      </trkpt>
      <trkpt lat="48.92795" lon="2.03165">
        <ele>-25.799999237061</ele>
        <time>2013-05-25T17:12:26Z</time>
      </trkpt>
      <trkpt lat="48.92794" lon="2.03164">
        <ele>-25.60000038147</ele>
        <time>2013-05-25T17:13:36Z</time>
      </trkpt>
      <trkpt lat="48.92793" lon="2.03164">
        <ele>-25.39999961853</ele>
        <time>2013-05-25T17:14:45Z</time>
      </trkpt>
      <trkpt lat="48.92794" lon="2.03164">
        <ele>-24.60000038147</ele>
        <time>2013-05-25T17:16:35Z</time>
      </trkpt>
      <trkpt lat="48.92795" lon="2.03164">
        <ele>-24.39999961853</ele>
        <time>2013-05-25T17:17:08Z</time>
      </trkpt>
      <trkpt lat="48.92795" lon="2.03164">
        <ele>-24.200000762939</ele>
        <time>2013-05-25T17:17:15Z</time>
      </trkpt>
      <trkpt lat="48.92796" lon="2.03163">
        <ele>-24.39999961853</ele>
        <time>2013-05-25T17:17:51Z</time>
      </trkpt>
      <trkpt lat="48.92795" lon="2.03163">
        <ele>-24.60000038147</ele>
        <time>2013-05-25T17:19:11Z</time>
      </trkpt>
      <trkpt lat="48.92795" lon="2.03163">
        <ele>-24.39999961853</ele>
        <time>2013-05-25T17:20:43Z</time>
      </trkpt>
      <trkpt lat="48.92795" lon="2.03163">
        <ele>-25.200000762939</ele>
        <time>2013-05-25T17:23:16Z</time>
      </trkpt>
      <trkpt lat="48.92796" lon="2.03163">
        <ele>-25.200000762939</ele>
        <time>2013-05-25T17:23:59Z</time>
      </trkpt>
      <trkpt lat="48.92796" lon="2.03163">
        <ele>-23.60000038147</ele>
        <time>2013-05-25T17:24:36Z</time>
      </trkpt>
      <trkpt lat="48.92794" lon="2.03163">
        <ele>-24</ele>
        <time>2013-05-25T17:24:44Z</time>
      </trkpt>
      <trkpt lat="48.92793" lon="2.03163">
        <ele>-23.200000762939</ele>
        <time>2013-05-25T17:25:18Z</time>
      </trkpt>
      <trkpt lat="48.92793" lon="2.03163">
        <ele>-23.799999237061</ele>
        <time>2013-05-25T17:25:20Z</time>
      </trkpt>
    </trkseg>
  </trk>
</gpx>